<?xml version="1.0" encoding="UTF-8" standalone="no" ?>
<gpx xmlns="http://www.topografix.com/GPX/1/1" xmlns:xsi="http://www.w3.org/2001/XMLSchema-instance" xsi:schemaLocation="http://www.topografix.com/GPX/1/1 http://www.topografix.com/GPX/1/1/gpx.xsd" version="1.1" creator="VisuGPX - https://www.visugpx.com">
  <metadata>
    <name>rando ete 2012 jour1</name>
    <desc><![CDATA[rando cheval 2012 jour1
jpm63]]></desc>
  </metadata>
  <trk>
    <name><![CDATA[6 aout]]></name>
    <trkseg>
      <trkpt lat="45.68684" lon="3.16235">
        <ele>430</ele>
        <time>2012-08-06T08:42:52Z</time>
      </trkpt>
      <trkpt lat="45.68668" lon="3.163">
        <ele>426</ele>
        <time>2012-08-06T08:46:06Z</time>
      </trkpt>
      <trkpt lat="45.68647" lon="3.16326">
        <ele>427</ele>
        <time>2012-08-06T08:46:29Z</time>
      </trkpt>
      <trkpt lat="45.68617" lon="3.16347">
        <ele>430</ele>
        <time>2012-08-06T08:47:20Z</time>
      </trkpt>
      <trkpt lat="45.68594" lon="3.16368">
        <ele>433</ele>
        <time>2012-08-06T08:47:44Z</time>
      </trkpt>
      <trkpt lat="45.68566" lon="3.16391">
        <ele>436</ele>
        <time>2012-08-06T08:48:14Z</time>
      </trkpt>
      <trkpt lat="45.68543" lon="3.16415">
        <ele>439</ele>
        <time>2012-08-06T08:48:27Z</time>
      </trkpt>
      <trkpt lat="45.68519" lon="3.16441">
        <ele>441</ele>
        <time>2012-08-06T08:48:46Z</time>
      </trkpt>
      <trkpt lat="45.68496" lon="3.1647">
        <ele>444</ele>
        <time>2012-08-06T08:49:06Z</time>
      </trkpt>
      <trkpt lat="45.6847" lon="3.16494">
        <ele>447</ele>
        <time>2012-08-06T08:49:18Z</time>
      </trkpt>
      <trkpt lat="45.68464" lon="3.16476">
        <ele>448</ele>
        <time>2012-08-06T08:49:39Z</time>
      </trkpt>
      <trkpt lat="45.68482" lon="3.16432">
        <ele>447</ele>
        <time>2012-08-06T08:49:59Z</time>
      </trkpt>
      <trkpt lat="45.68493" lon="3.16388">
        <ele>447</ele>
        <time>2012-08-06T08:50:20Z</time>
      </trkpt>
      <trkpt lat="45.68505" lon="3.16349">
        <ele>446</ele>
        <time>2012-08-06T08:50:41Z</time>
      </trkpt>
      <trkpt lat="45.68517" lon="3.16311">
        <ele>446</ele>
        <time>2012-08-06T08:51:01Z</time>
      </trkpt>
      <trkpt lat="45.68531" lon="3.16274">
        <ele>445</ele>
        <time>2012-08-06T08:51:16Z</time>
      </trkpt>
      <trkpt lat="45.6855" lon="3.16241">
        <ele>445</ele>
        <time>2012-08-06T08:51:36Z</time>
      </trkpt>
      <trkpt lat="45.6857" lon="3.16211">
        <ele>444</ele>
        <time>2012-08-06T08:51:55Z</time>
      </trkpt>
      <trkpt lat="45.68587" lon="3.16177">
        <ele>444</ele>
        <time>2012-08-06T08:52:14Z</time>
      </trkpt>
      <trkpt lat="45.68597" lon="3.16136">
        <ele>445</ele>
        <time>2012-08-06T08:52:35Z</time>
      </trkpt>
      <trkpt lat="45.686" lon="3.16092">
        <ele>446</ele>
        <time>2012-08-06T08:52:56Z</time>
      </trkpt>
      <trkpt lat="45.68601" lon="3.16051">
        <ele>447</ele>
        <time>2012-08-06T08:53:16Z</time>
      </trkpt>
      <trkpt lat="45.68605" lon="3.1601">
        <ele>447</ele>
        <time>2012-08-06T08:53:31Z</time>
      </trkpt>
      <trkpt lat="45.68615" lon="3.1597">
        <ele>446</ele>
        <time>2012-08-06T08:53:52Z</time>
      </trkpt>
      <trkpt lat="45.68626" lon="3.15931">
        <ele>446</ele>
        <time>2012-08-06T08:54:12Z</time>
      </trkpt>
      <trkpt lat="45.68632" lon="3.15892">
        <ele>448</ele>
        <time>2012-08-06T08:54:32Z</time>
      </trkpt>
      <trkpt lat="45.68633" lon="3.15852">
        <ele>450</ele>
        <time>2012-08-06T08:54:49Z</time>
      </trkpt>
      <trkpt lat="45.68636" lon="3.15811">
        <ele>452</ele>
        <time>2012-08-06T08:55:11Z</time>
      </trkpt>
      <trkpt lat="45.68641" lon="3.15769">
        <ele>453</ele>
        <time>2012-08-06T08:55:32Z</time>
      </trkpt>
      <trkpt lat="45.68646" lon="3.15726">
        <ele>453</ele>
        <time>2012-08-06T08:55:52Z</time>
      </trkpt>
      <trkpt lat="45.68642" lon="3.15681">
        <ele>453</ele>
        <time>2012-08-06T08:56:12Z</time>
      </trkpt>
      <trkpt lat="45.68636" lon="3.1564">
        <ele>454</ele>
        <time>2012-08-06T08:56:24Z</time>
      </trkpt>
      <trkpt lat="45.68629" lon="3.15602">
        <ele>455</ele>
        <time>2012-08-06T08:56:45Z</time>
      </trkpt>
      <trkpt lat="45.68621" lon="3.15562">
        <ele>456</ele>
        <time>2012-08-06T08:57:06Z</time>
      </trkpt>
      <trkpt lat="45.68612" lon="3.15521">
        <ele>456</ele>
        <time>2012-08-06T08:57:22Z</time>
      </trkpt>
      <trkpt lat="45.68605" lon="3.15482">
        <ele>456</ele>
        <time>2012-08-06T08:57:42Z</time>
      </trkpt>
      <trkpt lat="45.68586" lon="3.15454">
        <ele>458</ele>
        <time>2012-08-06T08:58:04Z</time>
      </trkpt>
      <trkpt lat="45.68562" lon="3.15449">
        <ele>462</ele>
        <time>2012-08-06T08:58:26Z</time>
      </trkpt>
      <trkpt lat="45.68554" lon="3.15408">
        <ele>463</ele>
        <time>2012-08-06T08:58:38Z</time>
      </trkpt>
      <trkpt lat="45.68547" lon="3.15366">
        <ele>463</ele>
        <time>2012-08-06T08:58:59Z</time>
      </trkpt>
      <trkpt lat="45.68541" lon="3.15323">
        <ele>463</ele>
        <time>2012-08-06T08:59:19Z</time>
      </trkpt>
      <trkpt lat="45.68535" lon="3.15283">
        <ele>463</ele>
        <time>2012-08-06T08:59:33Z</time>
      </trkpt>
      <trkpt lat="45.68519" lon="3.15258">
        <ele>465</ele>
        <time>2012-08-06T08:59:52Z</time>
      </trkpt>
      <trkpt lat="45.68492" lon="3.15262">
        <ele>469</ele>
        <time>2012-08-06T09:00:12Z</time>
      </trkpt>
      <trkpt lat="45.68463" lon="3.15265">
        <ele>473</ele>
        <time>2012-08-06T09:00:32Z</time>
      </trkpt>
      <trkpt lat="45.68435" lon="3.15272">
        <ele>477</ele>
        <time>2012-08-06T09:00:47Z</time>
      </trkpt>
      <trkpt lat="45.68408" lon="3.15275">
        <ele>480</ele>
        <time>2012-08-06T09:01:05Z</time>
      </trkpt>
      <trkpt lat="45.68387" lon="3.15257">
        <ele>481</ele>
        <time>2012-08-06T09:01:23Z</time>
      </trkpt>
      <trkpt lat="45.6838" lon="3.15216">
        <ele>477</ele>
        <time>2012-08-06T09:01:46Z</time>
      </trkpt>
      <trkpt lat="45.68373" lon="3.15174">
        <ele>472</ele>
        <time>2012-08-06T09:02:06Z</time>
      </trkpt>
      <trkpt lat="45.68365" lon="3.15133">
        <ele>467</ele>
        <time>2012-08-06T09:02:25Z</time>
      </trkpt>
      <trkpt lat="45.68378" lon="3.15106">
        <ele>463</ele>
        <time>2012-08-06T09:02:45Z</time>
      </trkpt>
      <trkpt lat="45.68407" lon="3.15098">
        <ele>459</ele>
        <time>2012-08-06T09:03:06Z</time>
      </trkpt>
      <trkpt lat="45.68414" lon="3.15058">
        <ele>454</ele>
        <time>2012-08-06T09:03:21Z</time>
      </trkpt>
      <trkpt lat="45.68416" lon="3.15015">
        <ele>452</ele>
        <time>2012-08-06T09:03:43Z</time>
      </trkpt>
      <trkpt lat="45.68419" lon="3.14973">
        <ele>450</ele>
        <time>2012-08-06T09:03:58Z</time>
      </trkpt>
      <trkpt lat="45.68422" lon="3.14931">
        <ele>450</ele>
        <time>2012-08-06T09:04:17Z</time>
      </trkpt>
      <trkpt lat="45.68427" lon="3.14889">
        <ele>450</ele>
        <time>2012-08-06T09:04:38Z</time>
      </trkpt>
      <trkpt lat="45.68431" lon="3.14845">
        <ele>450</ele>
        <time>2012-08-06T09:04:54Z</time>
      </trkpt>
      <trkpt lat="45.68439" lon="3.14799">
        <ele>450</ele>
        <time>2012-08-06T09:05:18Z</time>
      </trkpt>
      <trkpt lat="45.68447" lon="3.14754">
        <ele>450</ele>
        <time>2012-08-06T09:05:40Z</time>
      </trkpt>
      <trkpt lat="45.68457" lon="3.14714">
        <ele>450</ele>
        <time>2012-08-06T09:06:02Z</time>
      </trkpt>
      <trkpt lat="45.68455" lon="3.14675">
        <ele>453</ele>
        <time>2012-08-06T09:06:25Z</time>
      </trkpt>
      <trkpt lat="45.68431" lon="3.14653">
        <ele>458</ele>
        <time>2012-08-06T09:06:43Z</time>
      </trkpt>
      <trkpt lat="45.6841" lon="3.14669">
        <ele>457</ele>
        <time>2012-08-06T09:07:04Z</time>
      </trkpt>
      <trkpt lat="45.68412" lon="3.14642">
        <ele>458</ele>
        <time>2012-08-06T09:07:25Z</time>
      </trkpt>
      <trkpt lat="45.68422" lon="3.14601">
        <ele>458</ele>
        <time>2012-08-06T09:07:47Z</time>
      </trkpt>
      <trkpt lat="45.68433" lon="3.1456">
        <ele>459</ele>
        <time>2012-08-06T09:08:09Z</time>
      </trkpt>
      <trkpt lat="45.68442" lon="3.1452">
        <ele>454</ele>
        <time>2012-08-06T09:08:22Z</time>
      </trkpt>
      <trkpt lat="45.68448" lon="3.14478">
        <ele>449</ele>
        <time>2012-08-06T09:08:41Z</time>
      </trkpt>
      <trkpt lat="45.68456" lon="3.14436">
        <ele>443</ele>
        <time>2012-08-06T09:09:02Z</time>
      </trkpt>
      <trkpt lat="45.68439" lon="3.14404">
        <ele>441</ele>
        <time>2012-08-06T09:09:21Z</time>
      </trkpt>
      <trkpt lat="45.68413" lon="3.14394">
        <ele>440</ele>
        <time>2012-08-06T09:09:37Z</time>
      </trkpt>
      <trkpt lat="45.68385" lon="3.14393">
        <ele>439</ele>
        <time>2012-08-06T09:09:54Z</time>
      </trkpt>
      <trkpt lat="45.68358" lon="3.14391">
        <ele>438</ele>
        <time>2012-08-06T09:10:13Z</time>
      </trkpt>
      <trkpt lat="45.68328" lon="3.14389">
        <ele>437</ele>
        <time>2012-08-06T09:10:29Z</time>
      </trkpt>
      <trkpt lat="45.68301" lon="3.14389">
        <ele>436</ele>
        <time>2012-08-06T09:10:39Z</time>
      </trkpt>
      <trkpt lat="45.68273" lon="3.14386">
        <ele>435</ele>
        <time>2012-08-06T09:10:55Z</time>
      </trkpt>
      <trkpt lat="45.68245" lon="3.14382">
        <ele>435</ele>
        <time>2012-08-06T09:11:14Z</time>
      </trkpt>
      <trkpt lat="45.68217" lon="3.14377">
        <ele>435</ele>
        <time>2012-08-06T09:11:33Z</time>
      </trkpt>
      <trkpt lat="45.68188" lon="3.14373">
        <ele>434</ele>
        <time>2012-08-06T09:11:52Z</time>
      </trkpt>
      <trkpt lat="45.68161" lon="3.14364">
        <ele>433</ele>
        <time>2012-08-06T09:12:10Z</time>
      </trkpt>
      <trkpt lat="45.68134" lon="3.14355">
        <ele>432</ele>
        <time>2012-08-06T09:12:29Z</time>
      </trkpt>
      <trkpt lat="45.68106" lon="3.14346">
        <ele>431</ele>
        <time>2012-08-06T09:12:50Z</time>
      </trkpt>
      <trkpt lat="45.68078" lon="3.1434">
        <ele>429</ele>
        <time>2012-08-06T09:13:11Z</time>
      </trkpt>
      <trkpt lat="45.68049" lon="3.14337">
        <ele>428</ele>
        <time>2012-08-06T09:13:30Z</time>
      </trkpt>
      <trkpt lat="45.68021" lon="3.14335">
        <ele>427</ele>
        <time>2012-08-06T09:13:49Z</time>
      </trkpt>
      <trkpt lat="45.67993" lon="3.14331">
        <ele>426</ele>
        <time>2012-08-06T09:14:03Z</time>
      </trkpt>
      <trkpt lat="45.67964" lon="3.14329">
        <ele>425</ele>
        <time>2012-08-06T09:14:13Z</time>
      </trkpt>
      <trkpt lat="45.67936" lon="3.14326">
        <ele>424</ele>
        <time>2012-08-06T09:14:32Z</time>
      </trkpt>
      <trkpt lat="45.67909" lon="3.14321">
        <ele>423</ele>
        <time>2012-08-06T09:14:50Z</time>
      </trkpt>
      <trkpt lat="45.6788" lon="3.14316">
        <ele>422</ele>
        <time>2012-08-06T09:15:08Z</time>
      </trkpt>
      <trkpt lat="45.67853" lon="3.14312">
        <ele>421</ele>
        <time>2012-08-06T09:15:21Z</time>
      </trkpt>
      <trkpt lat="45.67825" lon="3.1431">
        <ele>420</ele>
        <time>2012-08-06T09:15:41Z</time>
      </trkpt>
      <trkpt lat="45.67798" lon="3.14311">
        <ele>420</ele>
        <time>2012-08-06T09:16:00Z</time>
      </trkpt>
      <trkpt lat="45.67769" lon="3.14314">
        <ele>419</ele>
        <time>2012-08-06T09:16:10Z</time>
      </trkpt>
      <trkpt lat="45.67742" lon="3.14318">
        <ele>418</ele>
        <time>2012-08-06T09:16:28Z</time>
      </trkpt>
      <trkpt lat="45.67715" lon="3.14323">
        <ele>417</ele>
        <time>2012-08-06T09:16:41Z</time>
      </trkpt>
      <trkpt lat="45.67688" lon="3.14329">
        <ele>416</ele>
        <time>2012-08-06T09:17:00Z</time>
      </trkpt>
      <trkpt lat="45.6766" lon="3.14337">
        <ele>415</ele>
        <time>2012-08-06T09:17:18Z</time>
      </trkpt>
      <trkpt lat="45.67632" lon="3.14344">
        <ele>414</ele>
        <time>2012-08-06T09:17:37Z</time>
      </trkpt>
      <trkpt lat="45.67605" lon="3.14348">
        <ele>413</ele>
        <time>2012-08-06T09:17:51Z</time>
      </trkpt>
      <trkpt lat="45.67579" lon="3.14352">
        <ele>412</ele>
        <time>2012-08-06T09:18:07Z</time>
      </trkpt>
      <trkpt lat="45.67551" lon="3.14363">
        <ele>410</ele>
        <time>2012-08-06T09:18:27Z</time>
      </trkpt>
      <trkpt lat="45.67525" lon="3.14374">
        <ele>409</ele>
        <time>2012-08-06T09:18:43Z</time>
      </trkpt>
      <trkpt lat="45.67498" lon="3.14385">
        <ele>408</ele>
        <time>2012-08-06T09:18:57Z</time>
      </trkpt>
      <trkpt lat="45.67472" lon="3.14395">
        <ele>406</ele>
        <time>2012-08-06T09:19:17Z</time>
      </trkpt>
      <trkpt lat="45.67445" lon="3.14407">
        <ele>405</ele>
        <time>2012-08-06T09:19:37Z</time>
      </trkpt>
      <trkpt lat="45.67419" lon="3.14411">
        <ele>404</ele>
        <time>2012-08-06T09:19:56Z</time>
      </trkpt>
      <trkpt lat="45.67391" lon="3.14417">
        <ele>403</ele>
        <time>2012-08-06T09:20:08Z</time>
      </trkpt>
      <trkpt lat="45.67364" lon="3.14419">
        <ele>402</ele>
        <time>2012-08-06T09:20:22Z</time>
      </trkpt>
      <trkpt lat="45.67337" lon="3.14418">
        <ele>401</ele>
        <time>2012-08-06T09:20:41Z</time>
      </trkpt>
      <trkpt lat="45.67308" lon="3.14417">
        <ele>399</ele>
        <time>2012-08-06T09:20:59Z</time>
      </trkpt>
      <trkpt lat="45.6728" lon="3.14417">
        <ele>398</ele>
        <time>2012-08-06T09:21:17Z</time>
      </trkpt>
      <trkpt lat="45.67253" lon="3.14414">
        <ele>397</ele>
        <time>2012-08-06T09:21:35Z</time>
      </trkpt>
      <trkpt lat="45.67226" lon="3.14415">
        <ele>396</ele>
        <time>2012-08-06T09:21:54Z</time>
      </trkpt>
      <trkpt lat="45.67198" lon="3.1442">
        <ele>395</ele>
        <time>2012-08-06T09:22:12Z</time>
      </trkpt>
      <trkpt lat="45.67169" lon="3.14421">
        <ele>394</ele>
        <time>2012-08-06T09:22:22Z</time>
      </trkpt>
      <trkpt lat="45.6714" lon="3.14421">
        <ele>392</ele>
        <time>2012-08-06T09:22:33Z</time>
      </trkpt>
      <trkpt lat="45.6711" lon="3.14422">
        <ele>391</ele>
        <time>2012-08-06T09:22:43Z</time>
      </trkpt>
      <trkpt lat="45.67082" lon="3.14421">
        <ele>390</ele>
        <time>2012-08-06T09:22:52Z</time>
      </trkpt>
      <trkpt lat="45.67053" lon="3.14422">
        <ele>389</ele>
        <time>2012-08-06T09:23:01Z</time>
      </trkpt>
      <trkpt lat="45.67024" lon="3.14423">
        <ele>388</ele>
        <time>2012-08-06T09:23:10Z</time>
      </trkpt>
      <trkpt lat="45.66993" lon="3.14423">
        <ele>387</ele>
        <time>2012-08-06T09:23:19Z</time>
      </trkpt>
      <trkpt lat="45.66962" lon="3.14422">
        <ele>386</ele>
        <time>2012-08-06T09:23:28Z</time>
      </trkpt>
      <trkpt lat="45.66934" lon="3.14418">
        <ele>385</ele>
        <time>2012-08-06T09:23:37Z</time>
      </trkpt>
      <trkpt lat="45.66905" lon="3.14416">
        <ele>384</ele>
        <time>2012-08-06T09:23:51Z</time>
      </trkpt>
      <trkpt lat="45.66876" lon="3.14417">
        <ele>383</ele>
        <time>2012-08-06T09:24:11Z</time>
      </trkpt>
      <trkpt lat="45.66849" lon="3.14422">
        <ele>382</ele>
        <time>2012-08-06T09:24:30Z</time>
      </trkpt>
      <trkpt lat="45.66825" lon="3.1444">
        <ele>381</ele>
        <time>2012-08-06T09:24:48Z</time>
      </trkpt>
      <trkpt lat="45.66814" lon="3.14477">
        <ele>381</ele>
        <time>2012-08-06T09:25:07Z</time>
      </trkpt>
      <trkpt lat="45.668" lon="3.14508">
        <ele>381</ele>
        <time>2012-08-06T09:25:25Z</time>
      </trkpt>
      <trkpt lat="45.6681" lon="3.14472">
        <ele>381</ele>
        <time>2012-08-06T09:25:48Z</time>
      </trkpt>
      <trkpt lat="45.66818" lon="3.14431">
        <ele>380</ele>
        <time>2012-08-06T09:26:14Z</time>
      </trkpt>
      <trkpt lat="45.6682" lon="3.14388">
        <ele>379</ele>
        <time>2012-08-06T09:26:35Z</time>
      </trkpt>
      <trkpt lat="45.6682" lon="3.14347">
        <ele>378</ele>
        <time>2012-08-06T09:26:54Z</time>
      </trkpt>
      <trkpt lat="45.66822" lon="3.14303">
        <ele>378</ele>
        <time>2012-08-06T09:27:18Z</time>
      </trkpt>
      <trkpt lat="45.66825" lon="3.14259">
        <ele>378</ele>
        <time>2012-08-06T09:27:41Z</time>
      </trkpt>
      <trkpt lat="45.66825" lon="3.14217">
        <ele>379</ele>
        <time>2012-08-06T09:27:58Z</time>
      </trkpt>
      <trkpt lat="45.66827" lon="3.14173">
        <ele>380</ele>
        <time>2012-08-06T09:28:16Z</time>
      </trkpt>
      <trkpt lat="45.66823" lon="3.14135">
        <ele>380</ele>
        <time>2012-08-06T09:28:38Z</time>
      </trkpt>
      <trkpt lat="45.66794" lon="3.1413">
        <ele>379</ele>
        <time>2012-08-06T09:28:54Z</time>
      </trkpt>
      <trkpt lat="45.66764" lon="3.14131">
        <ele>378</ele>
        <time>2012-08-06T09:29:05Z</time>
      </trkpt>
      <trkpt lat="45.66735" lon="3.14133">
        <ele>377</ele>
        <time>2012-08-06T09:29:15Z</time>
      </trkpt>
      <trkpt lat="45.66707" lon="3.14132">
        <ele>377</ele>
        <time>2012-08-06T09:29:25Z</time>
      </trkpt>
      <trkpt lat="45.66678" lon="3.14129">
        <ele>376</ele>
        <time>2012-08-06T09:29:35Z</time>
      </trkpt>
      <trkpt lat="45.66651" lon="3.14119">
        <ele>376</ele>
        <time>2012-08-06T09:29:46Z</time>
      </trkpt>
      <trkpt lat="45.66623" lon="3.14111">
        <ele>375</ele>
        <time>2012-08-06T09:29:56Z</time>
      </trkpt>
      <trkpt lat="45.66595" lon="3.14106">
        <ele>375</ele>
        <time>2012-08-06T09:30:06Z</time>
      </trkpt>
      <trkpt lat="45.66567" lon="3.14103">
        <ele>374</ele>
        <time>2012-08-06T09:30:17Z</time>
      </trkpt>
      <trkpt lat="45.66537" lon="3.14095">
        <ele>373</ele>
        <time>2012-08-06T09:30:29Z</time>
      </trkpt>
      <trkpt lat="45.66507" lon="3.14085">
        <ele>372</ele>
        <time>2012-08-06T09:30:41Z</time>
      </trkpt>
      <trkpt lat="45.66481" lon="3.14058">
        <ele>372</ele>
        <time>2012-08-06T09:30:59Z</time>
      </trkpt>
      <trkpt lat="45.66445" lon="3.14032">
        <ele>371</ele>
        <time>2012-08-06T09:31:18Z</time>
      </trkpt>
      <trkpt lat="45.66422" lon="3.13992">
        <ele>371</ele>
        <time>2012-08-06T09:31:35Z</time>
      </trkpt>
      <trkpt lat="45.66419" lon="3.13934">
        <ele>372</ele>
        <time>2012-08-06T09:31:49Z</time>
      </trkpt>
      <trkpt lat="45.66418" lon="3.13885">
        <ele>372</ele>
        <time>2012-08-06T09:32:02Z</time>
      </trkpt>
      <trkpt lat="45.66421" lon="3.13838">
        <ele>373</ele>
        <time>2012-08-06T09:32:15Z</time>
      </trkpt>
      <trkpt lat="45.66422" lon="3.13793">
        <ele>373</ele>
        <time>2012-08-06T09:32:27Z</time>
      </trkpt>
      <trkpt lat="45.66423" lon="3.1375">
        <ele>373</ele>
        <time>2012-08-06T09:32:38Z</time>
      </trkpt>
      <trkpt lat="45.66433" lon="3.13709">
        <ele>374</ele>
        <time>2012-08-06T09:32:49Z</time>
      </trkpt>
      <trkpt lat="45.66441" lon="3.13669">
        <ele>375</ele>
        <time>2012-08-06T09:32:59Z</time>
      </trkpt>
      <trkpt lat="45.66439" lon="3.13619">
        <ele>375</ele>
        <time>2012-08-06T09:33:11Z</time>
      </trkpt>
      <trkpt lat="45.66438" lon="3.13571">
        <ele>376</ele>
        <time>2012-08-06T09:33:23Z</time>
      </trkpt>
      <trkpt lat="45.66434" lon="3.13522">
        <ele>376</ele>
        <time>2012-08-06T09:33:35Z</time>
      </trkpt>
      <trkpt lat="45.6643" lon="3.13479">
        <ele>376</ele>
        <time>2012-08-06T09:33:48Z</time>
      </trkpt>
      <trkpt lat="45.66435" lon="3.13436">
        <ele>377</ele>
        <time>2012-08-06T09:33:59Z</time>
      </trkpt>
      <trkpt lat="45.66439" lon="3.13392">
        <ele>378</ele>
        <time>2012-08-06T09:34:10Z</time>
      </trkpt>
      <trkpt lat="45.66446" lon="3.13353">
        <ele>378</ele>
        <time>2012-08-06T09:34:21Z</time>
      </trkpt>
      <trkpt lat="45.66473" lon="3.13352">
        <ele>378</ele>
        <time>2012-08-06T09:34:31Z</time>
      </trkpt>
      <trkpt lat="45.66502" lon="3.13361">
        <ele>378</ele>
        <time>2012-08-06T09:34:42Z</time>
      </trkpt>
      <trkpt lat="45.66527" lon="3.13344">
        <ele>379</ele>
        <time>2012-08-06T09:34:53Z</time>
      </trkpt>
      <trkpt lat="45.66551" lon="3.13318">
        <ele>379</ele>
        <time>2012-08-06T09:35:04Z</time>
      </trkpt>
      <trkpt lat="45.66556" lon="3.13275">
        <ele>379</ele>
        <time>2012-08-06T09:35:16Z</time>
      </trkpt>
      <trkpt lat="45.6656" lon="3.13233">
        <ele>380</ele>
        <time>2012-08-06T09:35:28Z</time>
      </trkpt>
      <trkpt lat="45.66569" lon="3.13192">
        <ele>380</ele>
        <time>2012-08-06T09:35:40Z</time>
      </trkpt>
      <trkpt lat="45.66583" lon="3.13146">
        <ele>380</ele>
        <time>2012-08-06T09:35:55Z</time>
      </trkpt>
      <trkpt lat="45.66591" lon="3.13096">
        <ele>381</ele>
        <time>2012-08-06T09:36:10Z</time>
      </trkpt>
      <trkpt lat="45.66593" lon="3.13054">
        <ele>382</ele>
        <time>2012-08-06T09:36:32Z</time>
      </trkpt>
      <trkpt lat="45.6657" lon="3.13027">
        <ele>382</ele>
        <time>2012-08-06T09:36:50Z</time>
      </trkpt>
      <trkpt lat="45.66556" lon="3.12995">
        <ele>383</ele>
        <time>2012-08-06T09:37:05Z</time>
      </trkpt>
      <trkpt lat="45.66577" lon="3.12966">
        <ele>383</ele>
        <time>2012-08-06T09:37:28Z</time>
      </trkpt>
      <trkpt lat="45.66598" lon="3.12938">
        <ele>384</ele>
        <time>2012-08-06T09:37:50Z</time>
      </trkpt>
      <trkpt lat="45.66613" lon="3.12906">
        <ele>384</ele>
        <time>2012-08-06T09:38:12Z</time>
      </trkpt>
      <trkpt lat="45.66626" lon="3.12868">
        <ele>385</ele>
        <time>2012-08-06T09:38:35Z</time>
      </trkpt>
      <trkpt lat="45.66629" lon="3.12827">
        <ele>385</ele>
        <time>2012-08-06T09:38:51Z</time>
      </trkpt>
      <trkpt lat="45.66633" lon="3.12786">
        <ele>386</ele>
        <time>2012-08-06T09:39:08Z</time>
      </trkpt>
      <trkpt lat="45.66638" lon="3.12745">
        <ele>387</ele>
        <time>2012-08-06T09:39:31Z</time>
      </trkpt>
      <trkpt lat="45.66644" lon="3.12702">
        <ele>388</ele>
        <time>2012-08-06T09:39:50Z</time>
      </trkpt>
      <trkpt lat="45.66649" lon="3.12661">
        <ele>389</ele>
        <time>2012-08-06T09:40:02Z</time>
      </trkpt>
      <trkpt lat="45.66654" lon="3.12621">
        <ele>390</ele>
        <time>2012-08-06T09:40:22Z</time>
      </trkpt>
      <trkpt lat="45.66659" lon="3.12578">
        <ele>391</ele>
        <time>2012-08-06T09:40:48Z</time>
      </trkpt>
      <trkpt lat="45.66664" lon="3.12535">
        <ele>392</ele>
        <time>2012-08-06T09:41:13Z</time>
      </trkpt>
      <trkpt lat="45.66659" lon="3.12497">
        <ele>393</ele>
        <time>2012-08-06T09:41:40Z</time>
      </trkpt>
      <trkpt lat="45.6663" lon="3.12503">
        <ele>393</ele>
        <time>2012-08-06T09:42:04Z</time>
      </trkpt>
      <trkpt lat="45.66598" lon="3.12514">
        <ele>393</ele>
        <time>2012-08-06T09:42:26Z</time>
      </trkpt>
      <trkpt lat="45.66571" lon="3.12522">
        <ele>393</ele>
        <time>2012-08-06T09:42:46Z</time>
      </trkpt>
      <trkpt lat="45.66543" lon="3.12533">
        <ele>393</ele>
        <time>2012-08-06T09:43:00Z</time>
      </trkpt>
      <trkpt lat="45.66517" lon="3.12534">
        <ele>392</ele>
        <time>2012-08-06T09:43:20Z</time>
      </trkpt>
      <trkpt lat="45.66497" lon="3.12516">
        <ele>394</ele>
        <time>2012-08-06T09:43:51Z</time>
      </trkpt>
      <trkpt lat="45.66467" lon="3.12517">
        <ele>396</ele>
        <time>2012-08-06T09:44:12Z</time>
      </trkpt>
      <trkpt lat="45.66438" lon="3.12539">
        <ele>397</ele>
        <time>2012-08-06T09:44:24Z</time>
      </trkpt>
      <trkpt lat="45.66406" lon="3.12562">
        <ele>399</ele>
        <time>2012-08-06T09:44:31Z</time>
      </trkpt>
      <trkpt lat="45.66381" lon="3.12581">
        <ele>401</ele>
        <time>2012-08-06T09:44:37Z</time>
      </trkpt>
      <trkpt lat="45.66351" lon="3.12587">
        <ele>404</ele>
        <time>2012-08-06T09:44:45Z</time>
      </trkpt>
      <trkpt lat="45.6632" lon="3.12593">
        <ele>407</ele>
        <time>2012-08-06T09:44:51Z</time>
      </trkpt>
      <trkpt lat="45.66294" lon="3.12603">
        <ele>410</ele>
        <time>2012-08-06T09:44:57Z</time>
      </trkpt>
      <trkpt lat="45.66267" lon="3.12617">
        <ele>414</ele>
        <time>2012-08-06T09:45:06Z</time>
      </trkpt>
      <trkpt lat="45.66238" lon="3.12622">
        <ele>418</ele>
        <time>2012-08-06T09:45:15Z</time>
      </trkpt>
      <trkpt lat="45.6621" lon="3.12639">
        <ele>421</ele>
        <time>2012-08-06T09:45:23Z</time>
      </trkpt>
      <trkpt lat="45.66185" lon="3.12658">
        <ele>422</ele>
        <time>2012-08-06T09:45:30Z</time>
      </trkpt>
      <trkpt lat="45.66159" lon="3.12676">
        <ele>423</ele>
        <time>2012-08-06T09:45:39Z</time>
      </trkpt>
      <trkpt lat="45.66133" lon="3.1269">
        <ele>424</ele>
        <time>2012-08-06T09:45:48Z</time>
      </trkpt>
      <trkpt lat="45.66107" lon="3.12703">
        <ele>425</ele>
        <time>2012-08-06T09:45:58Z</time>
      </trkpt>
      <trkpt lat="45.6608" lon="3.12716">
        <ele>425</ele>
        <time>2012-08-06T09:46:08Z</time>
      </trkpt>
      <trkpt lat="45.66051" lon="3.12727">
        <ele>427</ele>
        <time>2012-08-06T09:46:18Z</time>
      </trkpt>
      <trkpt lat="45.66023" lon="3.12741">
        <ele>429</ele>
        <time>2012-08-06T09:46:28Z</time>
      </trkpt>
      <trkpt lat="45.65998" lon="3.12764">
        <ele>430</ele>
        <time>2012-08-06T09:46:39Z</time>
      </trkpt>
      <trkpt lat="45.65973" lon="3.12786">
        <ele>432</ele>
        <time>2012-08-06T09:46:50Z</time>
      </trkpt>
      <trkpt lat="45.65947" lon="3.12809">
        <ele>435</ele>
        <time>2012-08-06T09:47:01Z</time>
      </trkpt>
      <trkpt lat="45.65922" lon="3.12833">
        <ele>438</ele>
        <time>2012-08-06T09:47:12Z</time>
      </trkpt>
      <trkpt lat="45.65897" lon="3.12851">
        <ele>442</ele>
        <time>2012-08-06T09:47:21Z</time>
      </trkpt>
      <trkpt lat="45.6587" lon="3.1287">
        <ele>445</ele>
        <time>2012-08-06T09:47:30Z</time>
      </trkpt>
      <trkpt lat="45.65842" lon="3.12881">
        <ele>448</ele>
        <time>2012-08-06T09:47:40Z</time>
      </trkpt>
      <trkpt lat="45.65812" lon="3.12891">
        <ele>450</ele>
        <time>2012-08-06T09:47:51Z</time>
      </trkpt>
      <trkpt lat="45.65783" lon="3.12887">
        <ele>454</ele>
        <time>2012-08-06T09:48:01Z</time>
      </trkpt>
      <trkpt lat="45.65753" lon="3.12878">
        <ele>457</ele>
        <time>2012-08-06T09:48:11Z</time>
      </trkpt>
      <trkpt lat="45.65724" lon="3.12874">
        <ele>459</ele>
        <time>2012-08-06T09:48:21Z</time>
      </trkpt>
      <trkpt lat="45.65696" lon="3.1287">
        <ele>461</ele>
        <time>2012-08-06T09:48:30Z</time>
      </trkpt>
      <trkpt lat="45.65669" lon="3.12867">
        <ele>463</ele>
        <time>2012-08-06T09:48:46Z</time>
      </trkpt>
      <trkpt lat="45.65641" lon="3.12858">
        <ele>465</ele>
        <time>2012-08-06T09:49:06Z</time>
      </trkpt>
      <trkpt lat="45.65613" lon="3.12849">
        <ele>466</ele>
        <time>2012-08-06T09:49:25Z</time>
      </trkpt>
      <trkpt lat="45.65586" lon="3.12839">
        <ele>467</ele>
        <time>2012-08-06T09:49:44Z</time>
      </trkpt>
      <trkpt lat="45.65557" lon="3.12829">
        <ele>468</ele>
        <time>2012-08-06T09:50:02Z</time>
      </trkpt>
      <trkpt lat="45.65529" lon="3.12819">
        <ele>468</ele>
        <time>2012-08-06T09:50:21Z</time>
      </trkpt>
      <trkpt lat="45.65501" lon="3.12812">
        <ele>468</ele>
        <time>2012-08-06T09:50:39Z</time>
      </trkpt>
      <trkpt lat="45.65474" lon="3.12803">
        <ele>468</ele>
        <time>2012-08-06T09:50:57Z</time>
      </trkpt>
      <trkpt lat="45.65447" lon="3.12795">
        <ele>468</ele>
        <time>2012-08-06T09:51:11Z</time>
      </trkpt>
      <trkpt lat="45.65419" lon="3.12787">
        <ele>467</ele>
        <time>2012-08-06T09:51:28Z</time>
      </trkpt>
      <trkpt lat="45.65392" lon="3.12784">
        <ele>466</ele>
        <time>2012-08-06T09:51:46Z</time>
      </trkpt>
      <trkpt lat="45.65365" lon="3.12797">
        <ele>465</ele>
        <time>2012-08-06T09:52:04Z</time>
      </trkpt>
      <trkpt lat="45.65338" lon="3.12802">
        <ele>463</ele>
        <time>2012-08-06T09:52:21Z</time>
      </trkpt>
      <trkpt lat="45.65321" lon="3.1277">
        <ele>466</ele>
        <time>2012-08-06T09:52:36Z</time>
      </trkpt>
      <trkpt lat="45.65303" lon="3.12736">
        <ele>468</ele>
        <time>2012-08-06T09:52:55Z</time>
      </trkpt>
      <trkpt lat="45.65283" lon="3.12709">
        <ele>469</ele>
        <time>2012-08-06T09:53:13Z</time>
      </trkpt>
      <trkpt lat="45.65261" lon="3.12683">
        <ele>468</ele>
        <time>2012-08-06T09:53:32Z</time>
      </trkpt>
      <trkpt lat="45.65238" lon="3.12658">
        <ele>466</ele>
        <time>2012-08-06T09:53:49Z</time>
      </trkpt>
      <trkpt lat="45.65219" lon="3.12627">
        <ele>465</ele>
        <time>2012-08-06T09:54:07Z</time>
      </trkpt>
      <trkpt lat="45.65199" lon="3.12598">
        <ele>463</ele>
        <time>2012-08-06T09:54:25Z</time>
      </trkpt>
      <trkpt lat="45.65178" lon="3.1257">
        <ele>462</ele>
        <time>2012-08-06T09:54:43Z</time>
      </trkpt>
      <trkpt lat="45.65157" lon="3.12544">
        <ele>461</ele>
        <time>2012-08-06T09:54:57Z</time>
      </trkpt>
      <trkpt lat="45.65135" lon="3.12518">
        <ele>460</ele>
        <time>2012-08-06T09:55:14Z</time>
      </trkpt>
      <trkpt lat="45.65111" lon="3.12493">
        <ele>459</ele>
        <time>2012-08-06T09:55:32Z</time>
      </trkpt>
      <trkpt lat="45.65088" lon="3.12468">
        <ele>458</ele>
        <time>2012-08-06T09:55:46Z</time>
      </trkpt>
      <trkpt lat="45.65063" lon="3.12447">
        <ele>456</ele>
        <time>2012-08-06T09:56:05Z</time>
      </trkpt>
      <trkpt lat="45.65048" lon="3.12416">
        <ele>455</ele>
        <time>2012-08-06T09:56:24Z</time>
      </trkpt>
      <trkpt lat="45.65039" lon="3.12375">
        <ele>455</ele>
        <time>2012-08-06T09:56:41Z</time>
      </trkpt>
      <trkpt lat="45.65027" lon="3.12337">
        <ele>456</ele>
        <time>2012-08-06T09:56:59Z</time>
      </trkpt>
      <trkpt lat="45.65012" lon="3.12299">
        <ele>458</ele>
        <time>2012-08-06T09:57:19Z</time>
      </trkpt>
      <trkpt lat="45.64996" lon="3.12264">
        <ele>459</ele>
        <time>2012-08-06T09:57:39Z</time>
      </trkpt>
      <trkpt lat="45.64975" lon="3.12235">
        <ele>460</ele>
        <time>2012-08-06T09:57:58Z</time>
      </trkpt>
      <trkpt lat="45.64954" lon="3.12206">
        <ele>461</ele>
        <time>2012-08-06T09:58:19Z</time>
      </trkpt>
      <trkpt lat="45.64933" lon="3.12176">
        <ele>463</ele>
        <time>2012-08-06T09:58:40Z</time>
      </trkpt>
      <trkpt lat="45.6491" lon="3.12148">
        <ele>465</ele>
        <time>2012-08-06T09:58:52Z</time>
      </trkpt>
      <trkpt lat="45.64887" lon="3.12121">
        <ele>468</ele>
        <time>2012-08-06T09:59:09Z</time>
      </trkpt>
      <trkpt lat="45.6486" lon="3.12103">
        <ele>472</ele>
        <time>2012-08-06T09:59:36Z</time>
      </trkpt>
      <trkpt lat="45.64828" lon="3.12085">
        <ele>476</ele>
        <time>2012-08-06T10:00:01Z</time>
      </trkpt>
      <trkpt lat="45.64803" lon="3.12065">
        <ele>480</ele>
        <time>2012-08-06T10:00:12Z</time>
      </trkpt>
      <trkpt lat="45.64784" lon="3.12034">
        <ele>485</ele>
        <time>2012-08-06T10:00:29Z</time>
      </trkpt>
      <trkpt lat="45.64763" lon="3.12002">
        <ele>490</ele>
        <time>2012-08-06T10:00:52Z</time>
      </trkpt>
      <trkpt lat="45.64748" lon="3.11964">
        <ele>493</ele>
        <time>2012-08-06T10:01:09Z</time>
      </trkpt>
      <trkpt lat="45.64735" lon="3.1192">
        <ele>497</ele>
        <time>2012-08-06T10:01:28Z</time>
      </trkpt>
      <trkpt lat="45.64721" lon="3.11877">
        <ele>502</ele>
        <time>2012-08-06T10:01:52Z</time>
      </trkpt>
      <trkpt lat="45.64711" lon="3.11838">
        <ele>506</ele>
        <time>2012-08-06T10:02:15Z</time>
      </trkpt>
      <trkpt lat="45.64695" lon="3.11796">
        <ele>510</ele>
        <time>2012-08-06T10:02:42Z</time>
      </trkpt>
      <trkpt lat="45.6468" lon="3.11742">
        <ele>515</ele>
        <time>2012-08-06T10:03:02Z</time>
      </trkpt>
      <trkpt lat="45.64654" lon="3.11697">
        <ele>516</ele>
        <time>2012-08-06T10:03:31Z</time>
      </trkpt>
      <trkpt lat="45.64629" lon="3.11649">
        <ele>518</ele>
        <time>2012-08-06T10:04:05Z</time>
      </trkpt>
      <trkpt lat="45.64619" lon="3.11608">
        <ele>521</ele>
        <time>2012-08-06T10:04:28Z</time>
      </trkpt>
      <trkpt lat="45.64612" lon="3.11563">
        <ele>522</ele>
        <time>2012-08-06T10:04:52Z</time>
      </trkpt>
      <trkpt lat="45.64636" lon="3.1155">
        <ele>524</ele>
        <time>2012-08-06T10:05:13Z</time>
      </trkpt>
      <trkpt lat="45.64663" lon="3.11535">
        <ele>528</ele>
        <time>2012-08-06T10:05:34Z</time>
      </trkpt>
      <trkpt lat="45.64688" lon="3.11517">
        <ele>531</ele>
        <time>2012-08-06T10:05:56Z</time>
      </trkpt>
      <trkpt lat="45.64714" lon="3.115">
        <ele>535</ele>
        <time>2012-08-06T10:06:21Z</time>
      </trkpt>
      <trkpt lat="45.64738" lon="3.1148">
        <ele>539</ele>
        <time>2012-08-06T10:06:45Z</time>
      </trkpt>
      <trkpt lat="45.6476" lon="3.11453">
        <ele>544</ele>
        <time>2012-08-06T10:07:08Z</time>
      </trkpt>
      <trkpt lat="45.64784" lon="3.11438">
        <ele>548</ele>
        <time>2012-08-06T10:07:22Z</time>
      </trkpt>
      <trkpt lat="45.64812" lon="3.11429">
        <ele>553</ele>
        <time>2012-08-06T10:07:45Z</time>
      </trkpt>
      <trkpt lat="45.64841" lon="3.11422">
        <ele>556</ele>
        <time>2012-08-06T10:08:00Z</time>
      </trkpt>
      <trkpt lat="45.64868" lon="3.11411">
        <ele>559</ele>
        <time>2012-08-06T10:08:23Z</time>
      </trkpt>
      <trkpt lat="45.64894" lon="3.11395">
        <ele>562</ele>
        <time>2012-08-06T10:08:51Z</time>
      </trkpt>
      <trkpt lat="45.64897" lon="3.11362">
        <ele>567</ele>
        <time>2012-08-06T10:09:13Z</time>
      </trkpt>
      <trkpt lat="45.64883" lon="3.11325">
        <ele>570</ele>
        <time>2012-08-06T10:09:25Z</time>
      </trkpt>
      <trkpt lat="45.64868" lon="3.11286">
        <ele>572</ele>
        <time>2012-08-06T10:09:48Z</time>
      </trkpt>
      <trkpt lat="45.64852" lon="3.1125">
        <ele>573</ele>
        <time>2012-08-06T10:10:10Z</time>
      </trkpt>
      <trkpt lat="45.64836" lon="3.11215">
        <ele>574</ele>
        <time>2012-08-06T10:10:31Z</time>
      </trkpt>
      <trkpt lat="45.64822" lon="3.11178">
        <ele>576</ele>
        <time>2012-08-06T10:10:44Z</time>
      </trkpt>
      <trkpt lat="45.64805" lon="3.11142">
        <ele>577</ele>
        <time>2012-08-06T10:11:07Z</time>
      </trkpt>
      <trkpt lat="45.64782" lon="3.11108">
        <ele>578</ele>
        <time>2012-08-06T10:11:25Z</time>
      </trkpt>
      <trkpt lat="45.6476" lon="3.11081">
        <ele>579</ele>
        <time>2012-08-06T10:11:44Z</time>
      </trkpt>
      <trkpt lat="45.64735" lon="3.11062">
        <ele>579</ele>
        <time>2012-08-06T10:12:06Z</time>
      </trkpt>
      <trkpt lat="45.64707" lon="3.11047">
        <ele>579</ele>
        <time>2012-08-06T10:12:27Z</time>
      </trkpt>
      <trkpt lat="45.64678" lon="3.11028">
        <ele>580</ele>
        <time>2012-08-06T10:12:51Z</time>
      </trkpt>
      <trkpt lat="45.6465" lon="3.11009">
        <ele>582</ele>
        <time>2012-08-06T10:13:15Z</time>
      </trkpt>
      <trkpt lat="45.64622" lon="3.10998">
        <ele>581</ele>
        <time>2012-08-06T10:13:37Z</time>
      </trkpt>
      <trkpt lat="45.64594" lon="3.10977">
        <ele>581</ele>
        <time>2012-08-06T10:14:00Z</time>
      </trkpt>
      <trkpt lat="45.64569" lon="3.10954">
        <ele>581</ele>
        <time>2012-08-06T10:14:22Z</time>
      </trkpt>
      <trkpt lat="45.6454" lon="3.10932">
        <ele>579</ele>
        <time>2012-08-06T10:14:44Z</time>
      </trkpt>
      <trkpt lat="45.64513" lon="3.10913">
        <ele>578</ele>
        <time>2012-08-06T10:15:05Z</time>
      </trkpt>
      <trkpt lat="45.64486" lon="3.10896">
        <ele>578</ele>
        <time>2012-08-06T10:15:28Z</time>
      </trkpt>
      <trkpt lat="45.64455" lon="3.1087">
        <ele>578</ele>
        <time>2012-08-06T10:15:55Z</time>
      </trkpt>
      <trkpt lat="45.6443" lon="3.10841">
        <ele>579</ele>
        <time>2012-08-06T10:16:20Z</time>
      </trkpt>
      <trkpt lat="45.64406" lon="3.10813">
        <ele>580</ele>
        <time>2012-08-06T10:16:44Z</time>
      </trkpt>
      <trkpt lat="45.64379" lon="3.10793">
        <ele>579</ele>
        <time>2012-08-06T10:17:07Z</time>
      </trkpt>
      <trkpt lat="45.64351" lon="3.10802">
        <ele>577</ele>
        <time>2012-08-06T10:17:28Z</time>
      </trkpt>
      <trkpt lat="45.6433" lon="3.10789">
        <ele>577</ele>
        <time>2012-08-06T10:17:50Z</time>
      </trkpt>
      <trkpt lat="45.64318" lon="3.10748">
        <ele>578</ele>
        <time>2012-08-06T10:18:13Z</time>
      </trkpt>
      <trkpt lat="45.64309" lon="3.10707">
        <ele>580</ele>
        <time>2012-08-06T10:18:36Z</time>
      </trkpt>
      <trkpt lat="45.64303" lon="3.10666">
        <ele>581</ele>
        <time>2012-08-06T10:18:57Z</time>
      </trkpt>
      <trkpt lat="45.64294" lon="3.10626">
        <ele>582</ele>
        <time>2012-08-06T10:19:17Z</time>
      </trkpt>
      <trkpt lat="45.64285" lon="3.10586">
        <ele>584</ele>
        <time>2012-08-06T10:19:35Z</time>
      </trkpt>
      <trkpt lat="45.64274" lon="3.10549">
        <ele>585</ele>
        <time>2012-08-06T10:19:52Z</time>
      </trkpt>
      <trkpt lat="45.64263" lon="3.10511">
        <ele>587</ele>
        <time>2012-08-06T10:20:12Z</time>
      </trkpt>
      <trkpt lat="45.64251" lon="3.10473">
        <ele>587</ele>
        <time>2012-08-06T10:20:32Z</time>
      </trkpt>
      <trkpt lat="45.64241" lon="3.10435">
        <ele>588</ele>
        <time>2012-08-06T10:20:52Z</time>
      </trkpt>
      <trkpt lat="45.64229" lon="3.10397">
        <ele>588</ele>
        <time>2012-08-06T10:21:15Z</time>
      </trkpt>
      <trkpt lat="45.64218" lon="3.10354">
        <ele>588</ele>
        <time>2012-08-06T10:21:37Z</time>
      </trkpt>
      <trkpt lat="45.64206" lon="3.10311">
        <ele>588</ele>
        <time>2012-08-06T10:21:59Z</time>
      </trkpt>
      <trkpt lat="45.64194" lon="3.1027">
        <ele>587</ele>
        <time>2012-08-06T10:22:22Z</time>
      </trkpt>
      <trkpt lat="45.64177" lon="3.10232">
        <ele>586</ele>
        <time>2012-08-06T10:22:44Z</time>
      </trkpt>
      <trkpt lat="45.64178" lon="3.10192">
        <ele>585</ele>
        <time>2012-08-06T10:23:05Z</time>
      </trkpt>
      <trkpt lat="45.64175" lon="3.1015">
        <ele>584</ele>
        <time>2012-08-06T10:23:23Z</time>
      </trkpt>
      <trkpt lat="45.64176" lon="3.10108">
        <ele>584</ele>
        <time>2012-08-06T10:23:34Z</time>
      </trkpt>
      <trkpt lat="45.64175" lon="3.10065">
        <ele>583</ele>
        <time>2012-08-06T10:23:44Z</time>
      </trkpt>
      <trkpt lat="45.64175" lon="3.10021">
        <ele>582</ele>
        <time>2012-08-06T10:23:54Z</time>
      </trkpt>
      <trkpt lat="45.64174" lon="3.09976">
        <ele>582</ele>
        <time>2012-08-06T10:24:04Z</time>
      </trkpt>
      <trkpt lat="45.64174" lon="3.09934">
        <ele>582</ele>
        <time>2012-08-06T10:24:15Z</time>
      </trkpt>
      <trkpt lat="45.64168" lon="3.09887">
        <ele>581</ele>
        <time>2012-08-06T10:24:26Z</time>
      </trkpt>
      <trkpt lat="45.64159" lon="3.09839">
        <ele>578</ele>
        <time>2012-08-06T10:24:38Z</time>
      </trkpt>
      <trkpt lat="45.64147" lon="3.09797">
        <ele>576</ele>
        <time>2012-08-06T10:24:50Z</time>
      </trkpt>
      <trkpt lat="45.64133" lon="3.09755">
        <ele>574</ele>
        <time>2012-08-06T10:25:02Z</time>
      </trkpt>
      <trkpt lat="45.64114" lon="3.09717">
        <ele>573</ele>
        <time>2012-08-06T10:25:16Z</time>
      </trkpt>
      <trkpt lat="45.64092" lon="3.09681">
        <ele>570</ele>
        <time>2012-08-06T10:25:27Z</time>
      </trkpt>
      <trkpt lat="45.64072" lon="3.09648">
        <ele>569</ele>
        <time>2012-08-06T10:25:39Z</time>
      </trkpt>
      <trkpt lat="45.64053" lon="3.09608">
        <ele>568</ele>
        <time>2012-08-06T10:25:51Z</time>
      </trkpt>
      <trkpt lat="45.64042" lon="3.09565">
        <ele>567</ele>
        <time>2012-08-06T10:26:02Z</time>
      </trkpt>
      <trkpt lat="45.64033" lon="3.09525">
        <ele>564</ele>
        <time>2012-08-06T10:26:12Z</time>
      </trkpt>
      <trkpt lat="45.64025" lon="3.09482">
        <ele>560</ele>
        <time>2012-08-06T10:26:23Z</time>
      </trkpt>
      <trkpt lat="45.64022" lon="3.09441">
        <ele>560</ele>
        <time>2012-08-06T10:26:34Z</time>
      </trkpt>
      <trkpt lat="45.64021" lon="3.09398">
        <ele>558</ele>
        <time>2012-08-06T10:26:48Z</time>
      </trkpt>
      <trkpt lat="45.64022" lon="3.09355">
        <ele>555</ele>
        <time>2012-08-06T10:27:09Z</time>
      </trkpt>
      <trkpt lat="45.64029" lon="3.09312">
        <ele>551</ele>
        <time>2012-08-06T10:27:33Z</time>
      </trkpt>
      <trkpt lat="45.6403" lon="3.09271">
        <ele>546</ele>
        <time>2012-08-06T10:27:54Z</time>
      </trkpt>
      <trkpt lat="45.64007" lon="3.09245">
        <ele>542</ele>
        <time>2012-08-06T10:28:10Z</time>
      </trkpt>
      <trkpt lat="45.63981" lon="3.09221">
        <ele>540</ele>
        <time>2012-08-06T10:28:23Z</time>
      </trkpt>
      <trkpt lat="45.63959" lon="3.09186">
        <ele>537</ele>
        <time>2012-08-06T10:28:35Z</time>
      </trkpt>
      <trkpt lat="45.6397" lon="3.09153">
        <ele>536</ele>
        <time>2012-08-06T10:28:51Z</time>
      </trkpt>
      <trkpt lat="45.63987" lon="3.09122">
        <ele>535</ele>
        <time>2012-08-06T10:29:02Z</time>
      </trkpt>
      <trkpt lat="45.63979" lon="3.09079">
        <ele>535</ele>
        <time>2012-08-06T10:29:14Z</time>
      </trkpt>
      <trkpt lat="45.63958" lon="3.09039">
        <ele>534</ele>
        <time>2012-08-06T10:29:26Z</time>
      </trkpt>
      <trkpt lat="45.63942" lon="3.08999">
        <ele>535</ele>
        <time>2012-08-06T10:29:37Z</time>
      </trkpt>
      <trkpt lat="45.63926" lon="3.08961">
        <ele>535</ele>
        <time>2012-08-06T10:29:51Z</time>
      </trkpt>
      <trkpt lat="45.63903" lon="3.08915">
        <ele>535</ele>
        <time>2012-08-06T10:30:08Z</time>
      </trkpt>
      <trkpt lat="45.63882" lon="3.0887">
        <ele>537</ele>
        <time>2012-08-06T10:30:16Z</time>
      </trkpt>
      <trkpt lat="45.63861" lon="3.08825">
        <ele>540</ele>
        <time>2012-08-06T10:30:23Z</time>
      </trkpt>
      <trkpt lat="45.63841" lon="3.08782">
        <ele>545</ele>
        <time>2012-08-06T10:30:33Z</time>
      </trkpt>
      <trkpt lat="45.63819" lon="3.08747">
        <ele>549</ele>
        <time>2012-08-06T10:30:40Z</time>
      </trkpt>
      <trkpt lat="45.63798" lon="3.08712">
        <ele>554</ele>
        <time>2012-08-06T10:30:46Z</time>
      </trkpt>
      <trkpt lat="45.63776" lon="3.08676">
        <ele>557</ele>
        <time>2012-08-06T10:30:52Z</time>
      </trkpt>
      <trkpt lat="45.63755" lon="3.08641">
        <ele>559</ele>
        <time>2012-08-06T10:30:58Z</time>
      </trkpt>
      <trkpt lat="45.63734" lon="3.0861">
        <ele>561</ele>
        <time>2012-08-06T10:31:04Z</time>
      </trkpt>
      <trkpt lat="45.63714" lon="3.0858">
        <ele>563</ele>
        <time>2012-08-06T10:31:10Z</time>
      </trkpt>
      <trkpt lat="45.63696" lon="3.08544">
        <ele>566</ele>
        <time>2012-08-06T10:31:16Z</time>
      </trkpt>
      <trkpt lat="45.63689" lon="3.08505">
        <ele>569</ele>
        <time>2012-08-06T10:31:25Z</time>
      </trkpt>
      <trkpt lat="45.63676" lon="3.08465">
        <ele>573</ele>
        <time>2012-08-06T10:31:37Z</time>
      </trkpt>
      <trkpt lat="45.63673" lon="3.08424">
        <ele>575</ele>
        <time>2012-08-06T10:31:48Z</time>
      </trkpt>
      <trkpt lat="45.63651" lon="3.08397">
        <ele>580</ele>
        <time>2012-08-06T10:32:02Z</time>
      </trkpt>
      <trkpt lat="45.63635" lon="3.08363">
        <ele>584</ele>
        <time>2012-08-06T10:32:16Z</time>
      </trkpt>
      <trkpt lat="45.6362" lon="3.08326">
        <ele>588</ele>
        <time>2012-08-06T10:32:29Z</time>
      </trkpt>
      <trkpt lat="45.63602" lon="3.0829">
        <ele>592</ele>
        <time>2012-08-06T10:32:54Z</time>
      </trkpt>
      <trkpt lat="45.6359" lon="3.08254">
        <ele>596</ele>
        <time>2012-08-06T10:33:09Z</time>
      </trkpt>
      <trkpt lat="45.63592" lon="3.0822">
        <ele>599</ele>
        <time>2012-08-06T10:33:31Z</time>
      </trkpt>
      <trkpt lat="45.63575" lon="3.08184">
        <ele>604</ele>
        <time>2012-08-06T10:33:49Z</time>
      </trkpt>
      <trkpt lat="45.63559" lon="3.08133">
        <ele>610</ele>
        <time>2012-08-06T10:35:56Z</time>
      </trkpt>
      <trkpt lat="45.63548" lon="3.08073">
        <ele>619</ele>
        <time>2012-08-06T10:36:29Z</time>
      </trkpt>
      <trkpt lat="45.6354" lon="3.08018">
        <ele>625</ele>
        <time>2012-08-06T10:36:55Z</time>
      </trkpt>
      <trkpt lat="45.63525" lon="3.07972">
        <ele>630</ele>
        <time>2012-08-06T10:37:21Z</time>
      </trkpt>
      <trkpt lat="45.63514" lon="3.07924">
        <ele>635</ele>
        <time>2012-08-06T10:37:55Z</time>
      </trkpt>
      <trkpt lat="45.63495" lon="3.0788">
        <ele>641</ele>
        <time>2012-08-06T10:38:29Z</time>
      </trkpt>
      <trkpt lat="45.63482" lon="3.0784">
        <ele>646</ele>
        <time>2012-08-06T10:38:41Z</time>
      </trkpt>
      <trkpt lat="45.63468" lon="3.07801">
        <ele>650</ele>
        <time>2012-08-06T10:38:52Z</time>
      </trkpt>
      <trkpt lat="45.63445" lon="3.07777">
        <ele>651</ele>
        <time>2012-08-06T10:39:08Z</time>
      </trkpt>
      <trkpt lat="45.63417" lon="3.07757">
        <ele>651</ele>
        <time>2012-08-06T10:39:32Z</time>
      </trkpt>
      <trkpt lat="45.63391" lon="3.07738">
        <ele>653</ele>
        <time>2012-08-06T10:39:58Z</time>
      </trkpt>
      <trkpt lat="45.63364" lon="3.07727">
        <ele>654</ele>
        <time>2012-08-06T10:40:10Z</time>
      </trkpt>
      <trkpt lat="45.63336" lon="3.07718">
        <ele>655</ele>
        <time>2012-08-06T10:40:24Z</time>
      </trkpt>
      <trkpt lat="45.63308" lon="3.07706">
        <ele>656</ele>
        <time>2012-08-06T10:40:42Z</time>
      </trkpt>
      <trkpt lat="45.63281" lon="3.07692">
        <ele>657</ele>
        <time>2012-08-06T10:41:02Z</time>
      </trkpt>
      <trkpt lat="45.63257" lon="3.0767">
        <ele>658</ele>
        <time>2012-08-06T10:41:21Z</time>
      </trkpt>
      <trkpt lat="45.63235" lon="3.07645">
        <ele>659</ele>
        <time>2012-08-06T10:41:42Z</time>
      </trkpt>
      <trkpt lat="45.63209" lon="3.07629">
        <ele>659</ele>
        <time>2012-08-06T10:42:02Z</time>
      </trkpt>
      <trkpt lat="45.63185" lon="3.07606">
        <ele>659</ele>
        <time>2012-08-06T10:42:21Z</time>
      </trkpt>
      <trkpt lat="45.6316" lon="3.07586">
        <ele>659</ele>
        <time>2012-08-06T10:42:41Z</time>
      </trkpt>
      <trkpt lat="45.63134" lon="3.07572">
        <ele>659</ele>
        <time>2012-08-06T10:43:00Z</time>
      </trkpt>
      <trkpt lat="45.63108" lon="3.0756">
        <ele>659</ele>
        <time>2012-08-06T10:43:21Z</time>
      </trkpt>
      <trkpt lat="45.6308" lon="3.07554">
        <ele>659</ele>
        <time>2012-08-06T10:43:40Z</time>
      </trkpt>
      <trkpt lat="45.63061" lon="3.07527">
        <ele>662</ele>
        <time>2012-08-06T10:44:02Z</time>
      </trkpt>
      <trkpt lat="45.63046" lon="3.07492">
        <ele>667</ele>
        <time>2012-08-06T10:44:24Z</time>
      </trkpt>
      <trkpt lat="45.63031" lon="3.07456">
        <ele>667</ele>
        <time>2012-08-06T10:44:44Z</time>
      </trkpt>
      <trkpt lat="45.63013" lon="3.07424">
        <ele>669</ele>
        <time>2012-08-06T10:45:07Z</time>
      </trkpt>
      <trkpt lat="45.6299" lon="3.07398">
        <ele>668</ele>
        <time>2012-08-06T10:45:29Z</time>
      </trkpt>
      <trkpt lat="45.62965" lon="3.07374">
        <ele>671</ele>
        <time>2012-08-06T10:45:53Z</time>
      </trkpt>
      <trkpt lat="45.62937" lon="3.0737">
        <ele>674</ele>
        <time>2012-08-06T10:46:16Z</time>
      </trkpt>
      <trkpt lat="45.62909" lon="3.0736">
        <ele>676</ele>
        <time>2012-08-06T10:46:37Z</time>
      </trkpt>
      <trkpt lat="45.62881" lon="3.07352">
        <ele>677</ele>
        <time>2012-08-06T10:46:59Z</time>
      </trkpt>
      <trkpt lat="45.62854" lon="3.07339">
        <ele>678</ele>
        <time>2012-08-06T10:47:24Z</time>
      </trkpt>
      <trkpt lat="45.62834" lon="3.07313">
        <ele>682</ele>
        <time>2012-08-06T10:47:40Z</time>
      </trkpt>
      <trkpt lat="45.6281" lon="3.07292">
        <ele>686</ele>
        <time>2012-08-06T10:48:02Z</time>
      </trkpt>
      <trkpt lat="45.62781" lon="3.07281">
        <ele>688</ele>
        <time>2012-08-06T10:48:14Z</time>
      </trkpt>
      <trkpt lat="45.62756" lon="3.07267">
        <ele>691</ele>
        <time>2012-08-06T10:48:24Z</time>
      </trkpt>
      <trkpt lat="45.62733" lon="3.07239">
        <ele>694</ele>
        <time>2012-08-06T10:48:36Z</time>
      </trkpt>
      <trkpt lat="45.6271" lon="3.07212">
        <ele>696</ele>
        <time>2012-08-06T10:49:01Z</time>
      </trkpt>
      <trkpt lat="45.62689" lon="3.07186">
        <ele>699</ele>
        <time>2012-08-06T10:49:25Z</time>
      </trkpt>
      <trkpt lat="45.62687" lon="3.07147">
        <ele>703</ele>
        <time>2012-08-06T10:49:50Z</time>
      </trkpt>
      <trkpt lat="45.62671" lon="3.07116">
        <ele>707</ele>
        <time>2012-08-06T10:50:16Z</time>
      </trkpt>
      <trkpt lat="45.62651" lon="3.07088">
        <ele>710</ele>
        <time>2012-08-06T10:50:35Z</time>
      </trkpt>
      <trkpt lat="45.62629" lon="3.0706">
        <ele>712</ele>
        <time>2012-08-06T10:50:46Z</time>
      </trkpt>
      <trkpt lat="45.62609" lon="3.07031">
        <ele>713</ele>
        <time>2012-08-06T10:50:57Z</time>
      </trkpt>
      <trkpt lat="45.62588" lon="3.07003">
        <ele>714</ele>
        <time>2012-08-06T10:51:09Z</time>
      </trkpt>
      <trkpt lat="45.62563" lon="3.06982">
        <ele>715</ele>
        <time>2012-08-06T10:51:23Z</time>
      </trkpt>
      <trkpt lat="45.62547" lon="3.06959">
        <ele>716</ele>
        <time>2012-08-06T10:51:49Z</time>
      </trkpt>
      <trkpt lat="45.62559" lon="3.06924">
        <ele>717</ele>
        <time>2012-08-06T10:52:14Z</time>
      </trkpt>
      <trkpt lat="45.62537" lon="3.06903">
        <ele>719</ele>
        <time>2012-08-06T10:52:41Z</time>
      </trkpt>
      <trkpt lat="45.62523" lon="3.06866">
        <ele>722</ele>
        <time>2012-08-06T10:53:08Z</time>
      </trkpt>
      <trkpt lat="45.62504" lon="3.06836">
        <ele>725</ele>
        <time>2012-08-06T10:53:30Z</time>
      </trkpt>
      <trkpt lat="45.62477" lon="3.06829">
        <ele>727</ele>
        <time>2012-08-06T10:53:40Z</time>
      </trkpt>
      <trkpt lat="45.62449" lon="3.06819">
        <ele>729</ele>
        <time>2012-08-06T10:53:58Z</time>
      </trkpt>
      <trkpt lat="45.62424" lon="3.06799">
        <ele>731</ele>
        <time>2012-08-06T10:54:20Z</time>
      </trkpt>
      <trkpt lat="45.62401" lon="3.06776">
        <ele>733</ele>
        <time>2012-08-06T10:54:44Z</time>
      </trkpt>
      <trkpt lat="45.62371" lon="3.06768">
        <ele>735</ele>
        <time>2012-08-06T10:54:54Z</time>
      </trkpt>
      <trkpt lat="45.62345" lon="3.06749">
        <ele>737</ele>
        <time>2012-08-06T10:55:04Z</time>
      </trkpt>
      <trkpt lat="45.62322" lon="3.06726">
        <ele>738</ele>
        <time>2012-08-06T10:55:14Z</time>
      </trkpt>
      <trkpt lat="45.62301" lon="3.06698">
        <ele>739</ele>
        <time>2012-08-06T10:55:24Z</time>
      </trkpt>
      <trkpt lat="45.62285" lon="3.06665">
        <ele>739</ele>
        <time>2012-08-06T10:55:33Z</time>
      </trkpt>
      <trkpt lat="45.62258" lon="3.06654">
        <ele>739</ele>
        <time>2012-08-06T10:55:42Z</time>
      </trkpt>
      <trkpt lat="45.62229" lon="3.06656">
        <ele>739</ele>
        <time>2012-08-06T10:55:51Z</time>
      </trkpt>
      <trkpt lat="45.62209" lon="3.06629">
        <ele>740</ele>
        <time>2012-08-06T10:56:00Z</time>
      </trkpt>
      <trkpt lat="45.62185" lon="3.06642">
        <ele>740</ele>
        <time>2012-08-06T10:56:10Z</time>
      </trkpt>
      <trkpt lat="45.62174" lon="3.06678">
        <ele>739</ele>
        <time>2012-08-06T10:56:19Z</time>
      </trkpt>
      <trkpt lat="45.62157" lon="3.06708">
        <ele>739</ele>
        <time>2012-08-06T10:56:28Z</time>
      </trkpt>
      <trkpt lat="45.62129" lon="3.06711">
        <ele>739</ele>
        <time>2012-08-06T10:56:38Z</time>
      </trkpt>
      <trkpt lat="45.621" lon="3.06699">
        <ele>741</ele>
        <time>2012-08-06T10:56:48Z</time>
      </trkpt>
      <trkpt lat="45.62077" lon="3.06676">
        <ele>742</ele>
        <time>2012-08-06T10:56:57Z</time>
      </trkpt>
      <trkpt lat="45.62053" lon="3.06652">
        <ele>743</ele>
        <time>2012-08-06T10:57:07Z</time>
      </trkpt>
      <trkpt lat="45.6203" lon="3.06626">
        <ele>744</ele>
        <time>2012-08-06T10:57:17Z</time>
      </trkpt>
      <trkpt lat="45.62008" lon="3.066">
        <ele>745</ele>
        <time>2012-08-06T10:57:27Z</time>
      </trkpt>
      <trkpt lat="45.6199" lon="3.06568">
        <ele>746</ele>
        <time>2012-08-06T10:57:37Z</time>
      </trkpt>
      <trkpt lat="45.61966" lon="3.06543">
        <ele>747</ele>
        <time>2012-08-06T10:57:47Z</time>
      </trkpt>
      <trkpt lat="45.61941" lon="3.06525">
        <ele>748</ele>
        <time>2012-08-06T10:57:57Z</time>
      </trkpt>
      <trkpt lat="45.61917" lon="3.06502">
        <ele>749</ele>
        <time>2012-08-06T10:58:08Z</time>
      </trkpt>
      <trkpt lat="45.619" lon="3.0647">
        <ele>750</ele>
        <time>2012-08-06T10:58:19Z</time>
      </trkpt>
      <trkpt lat="45.61873" lon="3.06461">
        <ele>751</ele>
        <time>2012-08-06T10:58:29Z</time>
      </trkpt>
      <trkpt lat="45.61843" lon="3.06457">
        <ele>751</ele>
        <time>2012-08-06T10:58:39Z</time>
      </trkpt>
      <trkpt lat="45.61823" lon="3.0643">
        <ele>752</ele>
        <time>2012-08-06T10:58:48Z</time>
      </trkpt>
      <trkpt lat="45.61803" lon="3.06399">
        <ele>753</ele>
        <time>2012-08-06T10:58:58Z</time>
      </trkpt>
      <trkpt lat="45.61784" lon="3.06368">
        <ele>754</ele>
        <time>2012-08-06T10:59:08Z</time>
      </trkpt>
      <trkpt lat="45.61762" lon="3.06339">
        <ele>755</ele>
        <time>2012-08-06T10:59:19Z</time>
      </trkpt>
      <trkpt lat="45.6174" lon="3.06316">
        <ele>756</ele>
        <time>2012-08-06T10:59:29Z</time>
      </trkpt>
      <trkpt lat="45.61712" lon="3.06294">
        <ele>756</ele>
        <time>2012-08-06T10:59:39Z</time>
      </trkpt>
      <trkpt lat="45.61686" lon="3.06274">
        <ele>756</ele>
        <time>2012-08-06T10:59:45Z</time>
      </trkpt>
      <trkpt lat="45.6166" lon="3.06256">
        <ele>756</ele>
        <time>2012-08-06T10:59:53Z</time>
      </trkpt>
      <trkpt lat="45.61634" lon="3.06239">
        <ele>756</ele>
        <time>2012-08-06T10:59:59Z</time>
      </trkpt>
      <trkpt lat="45.61609" lon="3.06222">
        <ele>756</ele>
        <time>2012-08-06T11:00:04Z</time>
      </trkpt>
      <trkpt lat="45.61581" lon="3.06208">
        <ele>756</ele>
        <time>2012-08-06T11:00:10Z</time>
      </trkpt>
      <trkpt lat="45.61553" lon="3.06197">
        <ele>757</ele>
        <time>2012-08-06T11:00:16Z</time>
      </trkpt>
      <trkpt lat="45.61527" lon="3.06186">
        <ele>758</ele>
        <time>2012-08-06T11:00:22Z</time>
      </trkpt>
      <trkpt lat="45.615" lon="3.06176">
        <ele>759</ele>
        <time>2012-08-06T11:00:28Z</time>
      </trkpt>
      <trkpt lat="45.61473" lon="3.06165">
        <ele>760</ele>
        <time>2012-08-06T11:00:37Z</time>
      </trkpt>
      <trkpt lat="45.61454" lon="3.06184">
        <ele>759</ele>
        <time>2012-08-06T11:00:46Z</time>
      </trkpt>
      <trkpt lat="45.61444" lon="3.06222">
        <ele>758</ele>
        <time>2012-08-06T11:00:53Z</time>
      </trkpt>
      <trkpt lat="45.61433" lon="3.06259">
        <ele>756</ele>
        <time>2012-08-06T11:00:59Z</time>
      </trkpt>
      <trkpt lat="45.6142" lon="3.06294">
        <ele>755</ele>
        <time>2012-08-06T11:01:04Z</time>
      </trkpt>
      <trkpt lat="45.61408" lon="3.0633">
        <ele>754</ele>
        <time>2012-08-06T11:01:09Z</time>
      </trkpt>
      <trkpt lat="45.61395" lon="3.0637">
        <ele>752</ele>
        <time>2012-08-06T11:01:14Z</time>
      </trkpt>
      <trkpt lat="45.61382" lon="3.06407">
        <ele>751</ele>
        <time>2012-08-06T11:01:19Z</time>
      </trkpt>
      <trkpt lat="45.61368" lon="3.06448">
        <ele>750</ele>
        <time>2012-08-06T11:01:25Z</time>
      </trkpt>
      <trkpt lat="45.61357" lon="3.06483">
        <ele>749</ele>
        <time>2012-08-06T11:01:30Z</time>
      </trkpt>
      <trkpt lat="45.61348" lon="3.06521">
        <ele>748</ele>
        <time>2012-08-06T11:01:35Z</time>
      </trkpt>
      <trkpt lat="45.61338" lon="3.06564">
        <ele>748</ele>
        <time>2012-08-06T11:01:41Z</time>
      </trkpt>
      <trkpt lat="45.61332" lon="3.06604">
        <ele>748</ele>
        <time>2012-08-06T11:01:47Z</time>
      </trkpt>
      <trkpt lat="45.6133" lon="3.06646">
        <ele>747</ele>
        <time>2012-08-06T11:01:56Z</time>
      </trkpt>
      <trkpt lat="45.61323" lon="3.06685">
        <ele>746</ele>
        <time>2012-08-06T11:02:05Z</time>
      </trkpt>
      <trkpt lat="45.61314" lon="3.06726">
        <ele>743</ele>
        <time>2012-08-06T11:02:15Z</time>
      </trkpt>
      <trkpt lat="45.61299" lon="3.06761">
        <ele>742</ele>
        <time>2012-08-06T11:02:24Z</time>
      </trkpt>
      <trkpt lat="45.6128" lon="3.06799">
        <ele>742</ele>
        <time>2012-08-06T11:02:31Z</time>
      </trkpt>
      <trkpt lat="45.61267" lon="3.06836">
        <ele>741</ele>
        <time>2012-08-06T11:02:36Z</time>
      </trkpt>
      <trkpt lat="45.61254" lon="3.06876">
        <ele>740</ele>
        <time>2012-08-06T11:02:42Z</time>
      </trkpt>
      <trkpt lat="45.61247" lon="3.06916">
        <ele>740</ele>
        <time>2012-08-06T11:02:48Z</time>
      </trkpt>
      <trkpt lat="45.61239" lon="3.06956">
        <ele>741</ele>
        <time>2012-08-06T11:02:56Z</time>
      </trkpt>
      <trkpt lat="45.61225" lon="3.06999">
        <ele>741</ele>
        <time>2012-08-06T11:03:04Z</time>
      </trkpt>
      <trkpt lat="45.61208" lon="3.07038">
        <ele>742</ele>
        <time>2012-08-06T11:03:10Z</time>
      </trkpt>
      <trkpt lat="45.61184" lon="3.07066">
        <ele>743</ele>
        <time>2012-08-06T11:03:16Z</time>
      </trkpt>
      <trkpt lat="45.61158" lon="3.07085">
        <ele>742</ele>
        <time>2012-08-06T11:03:23Z</time>
      </trkpt>
      <trkpt lat="45.61141" lon="3.07117">
        <ele>742</ele>
        <time>2012-08-06T11:03:30Z</time>
      </trkpt>
      <trkpt lat="45.61122" lon="3.07148">
        <ele>743</ele>
        <time>2012-08-06T11:03:36Z</time>
      </trkpt>
      <trkpt lat="45.6112" lon="3.07192">
        <ele>742</ele>
        <time>2012-08-06T11:03:42Z</time>
      </trkpt>
      <trkpt lat="45.6113" lon="3.07231">
        <ele>741</ele>
        <time>2012-08-06T11:03:47Z</time>
      </trkpt>
      <trkpt lat="45.61144" lon="3.07265">
        <ele>740</ele>
        <time>2012-08-06T11:03:57Z</time>
      </trkpt>
      <trkpt lat="45.6117" lon="3.07278">
        <ele>738</ele>
        <time>2012-08-06T11:04:14Z</time>
      </trkpt>
      <trkpt lat="45.61193" lon="3.07302">
        <ele>735</ele>
        <time>2012-08-06T11:04:32Z</time>
      </trkpt>
      <trkpt lat="45.61209" lon="3.07334">
        <ele>733</ele>
        <time>2012-08-06T11:04:51Z</time>
      </trkpt>
      <trkpt lat="45.61221" lon="3.0737">
        <ele>730</ele>
        <time>2012-08-06T11:05:14Z</time>
      </trkpt>
      <trkpt lat="45.61234" lon="3.07406">
        <ele>728</ele>
        <time>2012-08-06T11:05:35Z</time>
      </trkpt>
      <trkpt lat="45.61244" lon="3.07443">
        <ele>725</ele>
        <time>2012-08-06T11:05:54Z</time>
      </trkpt>
      <trkpt lat="45.61247" lon="3.07483">
        <ele>722</ele>
        <time>2012-08-06T11:06:12Z</time>
      </trkpt>
      <trkpt lat="45.61249" lon="3.07523">
        <ele>720</ele>
        <time>2012-08-06T11:06:31Z</time>
      </trkpt>
      <trkpt lat="45.61252" lon="3.07562">
        <ele>718</ele>
        <time>2012-08-06T11:06:50Z</time>
      </trkpt>
      <trkpt lat="45.61254" lon="3.07601">
        <ele>716</ele>
        <time>2012-08-06T11:07:09Z</time>
      </trkpt>
      <trkpt lat="45.61253" lon="3.07639">
        <ele>715</ele>
        <time>2012-08-06T11:07:28Z</time>
      </trkpt>
      <trkpt lat="45.61249" lon="3.07677">
        <ele>714</ele>
        <time>2012-08-06T11:07:47Z</time>
      </trkpt>
      <trkpt lat="45.61242" lon="3.07715">
        <ele>714</ele>
        <time>2012-08-06T11:08:07Z</time>
      </trkpt>
      <trkpt lat="45.61235" lon="3.07753">
        <ele>714</ele>
        <time>2012-08-06T11:08:26Z</time>
      </trkpt>
      <trkpt lat="45.61224" lon="3.07788">
        <ele>713</ele>
        <time>2012-08-06T11:08:44Z</time>
      </trkpt>
      <trkpt lat="45.61226" lon="3.0783">
        <ele>712</ele>
        <time>2012-08-06T11:08:56Z</time>
      </trkpt>
      <trkpt lat="45.61229" lon="3.0787">
        <ele>711</ele>
        <time>2012-08-06T11:09:06Z</time>
      </trkpt>
      <trkpt lat="45.61221" lon="3.07909">
        <ele>710</ele>
        <time>2012-08-06T11:09:15Z</time>
      </trkpt>
      <trkpt lat="45.61217" lon="3.07949">
        <ele>709</ele>
        <time>2012-08-06T11:09:24Z</time>
      </trkpt>
      <trkpt lat="45.61205" lon="3.07987">
        <ele>708</ele>
        <time>2012-08-06T11:09:34Z</time>
      </trkpt>
      <trkpt lat="45.61213" lon="3.08025">
        <ele>706</ele>
        <time>2012-08-06T11:09:50Z</time>
      </trkpt>
      <trkpt lat="45.61215" lon="3.08065">
        <ele>705</ele>
        <time>2012-08-06T11:10:09Z</time>
      </trkpt>
      <trkpt lat="45.61212" lon="3.08104">
        <ele>704</ele>
        <time>2012-08-06T11:10:27Z</time>
      </trkpt>
      <trkpt lat="45.61211" lon="3.08145">
        <ele>704</ele>
        <time>2012-08-06T11:10:46Z</time>
      </trkpt>
      <trkpt lat="45.61208" lon="3.08184">
        <ele>705</ele>
        <time>2012-08-06T11:11:05Z</time>
      </trkpt>
      <trkpt lat="45.61205" lon="3.08224">
        <ele>706</ele>
        <time>2012-08-06T11:11:24Z</time>
      </trkpt>
      <trkpt lat="45.61199" lon="3.08262">
        <ele>708</ele>
        <time>2012-08-06T11:11:42Z</time>
      </trkpt>
      <trkpt lat="45.61187" lon="3.08297">
        <ele>710</ele>
        <time>2012-08-06T11:12:00Z</time>
      </trkpt>
      <trkpt lat="45.61176" lon="3.08332">
        <ele>708</ele>
        <time>2012-08-06T11:12:18Z</time>
      </trkpt>
      <trkpt lat="45.61175" lon="3.08373">
        <ele>707</ele>
        <time>2012-08-06T11:12:35Z</time>
      </trkpt>
      <trkpt lat="45.61177" lon="3.08414">
        <ele>704</ele>
        <time>2012-08-06T11:12:52Z</time>
      </trkpt>
      <trkpt lat="45.61181" lon="3.08454">
        <ele>702</ele>
        <time>2012-08-06T11:13:09Z</time>
      </trkpt>
      <trkpt lat="45.6118" lon="3.08492">
        <ele>701</ele>
        <time>2012-08-06T11:13:25Z</time>
      </trkpt>
      <trkpt lat="45.61176" lon="3.08531">
        <ele>699</ele>
        <time>2012-08-06T11:13:43Z</time>
      </trkpt>
      <trkpt lat="45.61167" lon="3.08568">
        <ele>697</ele>
        <time>2012-08-06T11:14:01Z</time>
      </trkpt>
      <trkpt lat="45.61163" lon="3.08606">
        <ele>695</ele>
        <time>2012-08-06T11:14:17Z</time>
      </trkpt>
      <trkpt lat="45.61175" lon="3.08643">
        <ele>693</ele>
        <time>2012-08-06T11:14:37Z</time>
      </trkpt>
      <trkpt lat="45.61191" lon="3.08676">
        <ele>690</ele>
        <time>2012-08-06T11:14:56Z</time>
      </trkpt>
      <trkpt lat="45.61205" lon="3.08715">
        <ele>688</ele>
        <time>2012-08-06T11:15:17Z</time>
      </trkpt>
      <trkpt lat="45.61226" lon="3.08745">
        <ele>684</ele>
        <time>2012-08-06T11:15:35Z</time>
      </trkpt>
      <trkpt lat="45.61252" lon="3.08761">
        <ele>681</ele>
        <time>2012-08-06T11:15:52Z</time>
      </trkpt>
      <trkpt lat="45.61282" lon="3.08752">
        <ele>679</ele>
        <time>2012-08-06T11:16:18Z</time>
      </trkpt>
      <trkpt lat="45.6131" lon="3.08742">
        <ele>677</ele>
        <time>2012-08-06T11:16:35Z</time>
      </trkpt>
      <trkpt lat="45.61342" lon="3.08731">
        <ele>675</ele>
        <time>2012-08-06T11:16:56Z</time>
      </trkpt>
      <trkpt lat="45.61365" lon="3.08747">
        <ele>673</ele>
        <time>2012-08-06T11:17:16Z</time>
      </trkpt>
      <trkpt lat="45.61368" lon="3.08788">
        <ele>672</ele>
        <time>2012-08-06T11:17:28Z</time>
      </trkpt>
      <trkpt lat="45.61369" lon="3.08829">
        <ele>672</ele>
        <time>2012-08-06T11:17:36Z</time>
      </trkpt>
      <trkpt lat="45.61369" lon="3.08874">
        <ele>671</ele>
        <time>2012-08-06T11:17:42Z</time>
      </trkpt>
      <trkpt lat="45.6137" lon="3.08917">
        <ele>669</ele>
        <time>2012-08-06T11:17:48Z</time>
      </trkpt>
      <trkpt lat="45.61375" lon="3.08961">
        <ele>668</ele>
        <time>2012-08-06T11:17:54Z</time>
      </trkpt>
      <trkpt lat="45.61381" lon="3.09004">
        <ele>667</ele>
        <time>2012-08-06T11:17:59Z</time>
      </trkpt>
      <trkpt lat="45.61386" lon="3.09046">
        <ele>667</ele>
        <time>2012-08-06T11:18:04Z</time>
      </trkpt>
      <trkpt lat="45.61388" lon="3.09089">
        <ele>666</ele>
        <time>2012-08-06T11:18:09Z</time>
      </trkpt>
      <trkpt lat="45.6139" lon="3.0913">
        <ele>665</ele>
        <time>2012-08-06T11:18:14Z</time>
      </trkpt>
      <trkpt lat="45.61392" lon="3.09172">
        <ele>664</ele>
        <time>2012-08-06T11:18:21Z</time>
      </trkpt>
      <trkpt lat="45.61394" lon="3.09212">
        <ele>663</ele>
        <time>2012-08-06T11:18:29Z</time>
      </trkpt>
      <trkpt lat="45.61396" lon="3.09252">
        <ele>662</ele>
        <time>2012-08-06T11:18:37Z</time>
      </trkpt>
      <trkpt lat="45.61397" lon="3.09292">
        <ele>661</ele>
        <time>2012-08-06T11:18:45Z</time>
      </trkpt>
      <trkpt lat="45.61394" lon="3.09334">
        <ele>660</ele>
        <time>2012-08-06T11:18:54Z</time>
      </trkpt>
      <trkpt lat="45.61389" lon="3.09373">
        <ele>659</ele>
        <time>2012-08-06T11:19:04Z</time>
      </trkpt>
      <trkpt lat="45.61386" lon="3.09413">
        <ele>658</ele>
        <time>2012-08-06T11:19:13Z</time>
      </trkpt>
      <trkpt lat="45.61384" lon="3.09455">
        <ele>657</ele>
        <time>2012-08-06T11:19:22Z</time>
      </trkpt>
      <trkpt lat="45.61384" lon="3.09496">
        <ele>655</ele>
        <time>2012-08-06T11:19:31Z</time>
      </trkpt>
      <trkpt lat="45.61382" lon="3.09536">
        <ele>653</ele>
        <time>2012-08-06T11:19:40Z</time>
      </trkpt>
      <trkpt lat="45.61375" lon="3.09576">
        <ele>651</ele>
        <time>2012-08-06T11:19:49Z</time>
      </trkpt>
      <trkpt lat="45.61369" lon="3.09616">
        <ele>649</ele>
        <time>2012-08-06T11:19:58Z</time>
      </trkpt>
      <trkpt lat="45.61362" lon="3.09657">
        <ele>647</ele>
        <time>2012-08-06T11:20:08Z</time>
      </trkpt>
      <trkpt lat="45.61348" lon="3.09698">
        <ele>646</ele>
        <time>2012-08-06T11:20:15Z</time>
      </trkpt>
      <trkpt lat="45.61334" lon="3.09733">
        <ele>645</ele>
        <time>2012-08-06T11:20:20Z</time>
      </trkpt>
      <trkpt lat="45.61322" lon="3.09772">
        <ele>643</ele>
        <time>2012-08-06T11:20:25Z</time>
      </trkpt>
      <trkpt lat="45.61311" lon="3.09814">
        <ele>642</ele>
        <time>2012-08-06T11:20:30Z</time>
      </trkpt>
      <trkpt lat="45.613" lon="3.09857">
        <ele>641</ele>
        <time>2012-08-06T11:20:35Z</time>
      </trkpt>
      <trkpt lat="45.61289" lon="3.09898">
        <ele>640</ele>
        <time>2012-08-06T11:20:40Z</time>
      </trkpt>
      <trkpt lat="45.61278" lon="3.09935">
        <ele>641</ele>
        <time>2012-08-06T11:20:45Z</time>
      </trkpt>
      <trkpt lat="45.61268" lon="3.09972">
        <ele>641</ele>
        <time>2012-08-06T11:20:50Z</time>
      </trkpt>
      <trkpt lat="45.6126" lon="3.10012">
        <ele>640</ele>
        <time>2012-08-06T11:20:55Z</time>
      </trkpt>
      <trkpt lat="45.61253" lon="3.1005">
        <ele>640</ele>
        <time>2012-08-06T11:21:03Z</time>
      </trkpt>
      <trkpt lat="45.6125" lon="3.10087">
        <ele>639</ele>
        <time>2012-08-06T11:21:21Z</time>
      </trkpt>
      <trkpt lat="45.61248" lon="3.10126">
        <ele>638</ele>
        <time>2012-08-06T11:21:39Z</time>
      </trkpt>
      <trkpt lat="45.61244" lon="3.10165">
        <ele>637</ele>
        <time>2012-08-06T11:21:58Z</time>
      </trkpt>
      <trkpt lat="45.61238" lon="3.10206">
        <ele>635</ele>
        <time>2012-08-06T11:22:16Z</time>
      </trkpt>
      <trkpt lat="45.61236" lon="3.10247">
        <ele>633</ele>
        <time>2012-08-06T11:22:35Z</time>
      </trkpt>
      <trkpt lat="45.61243" lon="3.10287">
        <ele>630</ele>
        <time>2012-08-06T11:22:52Z</time>
      </trkpt>
      <trkpt lat="45.61251" lon="3.10326">
        <ele>626</ele>
        <time>2012-08-06T11:23:09Z</time>
      </trkpt>
      <trkpt lat="45.61259" lon="3.10364">
        <ele>623</ele>
        <time>2012-08-06T11:23:26Z</time>
      </trkpt>
      <trkpt lat="45.6125" lon="3.10392">
        <ele>621</ele>
        <time>2012-08-06T11:23:44Z</time>
      </trkpt>
      <trkpt lat="45.61223" lon="3.10399">
        <ele>621</ele>
        <time>2012-08-06T11:24:00Z</time>
      </trkpt>
      <trkpt lat="45.61196" lon="3.10408">
        <ele>619</ele>
        <time>2012-08-06T11:24:17Z</time>
      </trkpt>
      <trkpt lat="45.61168" lon="3.10415">
        <ele>617</ele>
        <time>2012-08-06T11:24:34Z</time>
      </trkpt>
      <trkpt lat="45.6114" lon="3.10414">
        <ele>616</ele>
        <time>2012-08-06T11:24:51Z</time>
      </trkpt>
      <trkpt lat="45.61112" lon="3.10421">
        <ele>614</ele>
        <time>2012-08-06T11:25:05Z</time>
      </trkpt>
      <trkpt lat="45.61087" lon="3.10435">
        <ele>612</ele>
        <time>2012-08-06T11:25:22Z</time>
      </trkpt>
      <trkpt lat="45.6106" lon="3.10445">
        <ele>611</ele>
        <time>2012-08-06T11:25:39Z</time>
      </trkpt>
      <trkpt lat="45.61032" lon="3.10455">
        <ele>609</ele>
        <time>2012-08-06T11:25:56Z</time>
      </trkpt>
      <trkpt lat="45.61005" lon="3.10465">
        <ele>608</ele>
        <time>2012-08-06T11:26:13Z</time>
      </trkpt>
      <trkpt lat="45.60979" lon="3.10472">
        <ele>606</ele>
        <time>2012-08-06T11:26:30Z</time>
      </trkpt>
      <trkpt lat="45.60951" lon="3.10476">
        <ele>604</ele>
        <time>2012-08-06T11:26:48Z</time>
      </trkpt>
      <trkpt lat="45.60923" lon="3.10476">
        <ele>603</ele>
        <time>2012-08-06T11:27:05Z</time>
      </trkpt>
      <trkpt lat="45.60895" lon="3.10476">
        <ele>602</ele>
        <time>2012-08-06T11:27:22Z</time>
      </trkpt>
      <trkpt lat="45.60867" lon="3.10475">
        <ele>601</ele>
        <time>2012-08-06T11:27:51Z</time>
      </trkpt>
      <trkpt lat="45.60839" lon="3.10469">
        <ele>600</ele>
        <time>2012-08-06T11:28:11Z</time>
      </trkpt>
      <trkpt lat="45.60812" lon="3.10466">
        <ele>600</ele>
        <time>2012-08-06T11:28:30Z</time>
      </trkpt>
      <trkpt lat="45.608" lon="3.10502">
        <ele>598</ele>
        <time>2012-08-06T11:28:46Z</time>
      </trkpt>
      <trkpt lat="45.60788" lon="3.10537">
        <ele>596</ele>
        <time>2012-08-06T11:29:02Z</time>
      </trkpt>
      <trkpt lat="45.60778" lon="3.10574">
        <ele>595</ele>
        <time>2012-08-06T11:29:19Z</time>
      </trkpt>
      <trkpt lat="45.60768" lon="3.1061">
        <ele>593</ele>
        <time>2012-08-06T11:29:35Z</time>
      </trkpt>
      <trkpt lat="45.60757" lon="3.10646">
        <ele>591</ele>
        <time>2012-08-06T11:29:54Z</time>
      </trkpt>
      <trkpt lat="45.60732" lon="3.10654">
        <ele>590</ele>
        <time>2012-08-06T11:30:13Z</time>
      </trkpt>
      <trkpt lat="45.60705" lon="3.10651">
        <ele>590</ele>
        <time>2012-08-06T11:30:30Z</time>
      </trkpt>
      <trkpt lat="45.60676" lon="3.10652">
        <ele>590</ele>
        <time>2012-08-06T11:30:48Z</time>
      </trkpt>
      <trkpt lat="45.60649" lon="3.10657">
        <ele>591</ele>
        <time>2012-08-06T11:30:58Z</time>
      </trkpt>
      <trkpt lat="45.60621" lon="3.10655">
        <ele>591</ele>
        <time>2012-08-06T11:31:07Z</time>
      </trkpt>
      <trkpt lat="45.60592" lon="3.10653">
        <ele>591</ele>
        <time>2012-08-06T11:31:13Z</time>
      </trkpt>
      <trkpt lat="45.60563" lon="3.1065">
        <ele>591</ele>
        <time>2012-08-06T11:31:18Z</time>
      </trkpt>
      <trkpt lat="45.60531" lon="3.10649">
        <ele>592</ele>
        <time>2012-08-06T11:31:24Z</time>
      </trkpt>
      <trkpt lat="45.60501" lon="3.10647">
        <ele>593</ele>
        <time>2012-08-06T11:31:30Z</time>
      </trkpt>
      <trkpt lat="45.60473" lon="3.10642">
        <ele>595</ele>
        <time>2012-08-06T11:31:36Z</time>
      </trkpt>
      <trkpt lat="45.60444" lon="3.10641">
        <ele>596</ele>
        <time>2012-08-06T11:31:44Z</time>
      </trkpt>
      <trkpt lat="45.60414" lon="3.10636">
        <ele>598</ele>
        <time>2012-08-06T11:31:53Z</time>
      </trkpt>
      <trkpt lat="45.60384" lon="3.10632">
        <ele>599</ele>
        <time>2012-08-06T11:32:01Z</time>
      </trkpt>
      <trkpt lat="45.60358" lon="3.10656">
        <ele>601</ele>
        <time>2012-08-06T11:32:09Z</time>
      </trkpt>
      <trkpt lat="45.60335" lon="3.10683">
        <ele>602</ele>
        <time>2012-08-06T11:32:15Z</time>
      </trkpt>
      <trkpt lat="45.60307" lon="3.10713">
        <ele>604</ele>
        <time>2012-08-06T11:32:20Z</time>
      </trkpt>
      <trkpt lat="45.60282" lon="3.10726">
        <ele>606</ele>
        <time>2012-08-06T11:32:24Z</time>
      </trkpt>
      <trkpt lat="45.60254" lon="3.10732">
        <ele>609</ele>
        <time>2012-08-06T11:32:29Z</time>
      </trkpt>
      <trkpt lat="45.60227" lon="3.1075">
        <ele>613</ele>
        <time>2012-08-06T11:32:34Z</time>
      </trkpt>
      <trkpt lat="45.60217" lon="3.10784">
        <ele>616</ele>
        <time>2012-08-06T11:32:41Z</time>
      </trkpt>
      <trkpt lat="45.60224" lon="3.10822">
        <ele>617</ele>
        <time>2012-08-06T11:32:54Z</time>
      </trkpt>
      <trkpt lat="45.60231" lon="3.10861">
        <ele>618</ele>
        <time>2012-08-06T11:33:03Z</time>
      </trkpt>
      <trkpt lat="45.60237" lon="3.10902">
        <ele>618</ele>
        <time>2012-08-06T11:33:14Z</time>
      </trkpt>
      <trkpt lat="45.60247" lon="3.10937">
        <ele>617</ele>
        <time>2012-08-06T11:34:31Z</time>
      </trkpt>
      <trkpt lat="45.60265" lon="3.10974">
        <ele>615</ele>
        <time>2012-08-06T11:34:58Z</time>
      </trkpt>
      <trkpt lat="45.6028" lon="3.11015">
        <ele>610</ele>
        <time>2012-08-06T11:35:25Z</time>
      </trkpt>
      <trkpt lat="45.60286" lon="3.11055">
        <ele>605</ele>
        <time>2012-08-06T11:35:50Z</time>
      </trkpt>
      <trkpt lat="45.60279" lon="3.11109">
        <ele>598</ele>
        <time>2012-08-06T11:36:14Z</time>
      </trkpt>
      <trkpt lat="45.603" lon="3.11145">
        <ele>595</ele>
        <time>2012-08-06T11:36:37Z</time>
      </trkpt>
      <trkpt lat="45.60322" lon="3.11184">
        <ele>590</ele>
        <time>2012-08-06T11:37:01Z</time>
      </trkpt>
      <trkpt lat="45.60357" lon="3.11203">
        <ele>585</ele>
        <time>2012-08-06T11:37:26Z</time>
      </trkpt>
      <trkpt lat="45.60387" lon="3.11221">
        <ele>580</ele>
        <time>2012-08-06T11:37:47Z</time>
      </trkpt>
      <trkpt lat="45.60411" lon="3.11251">
        <ele>575</ele>
        <time>2012-08-06T11:38:10Z</time>
      </trkpt>
      <trkpt lat="45.60439" lon="3.11267">
        <ele>572</ele>
        <time>2012-08-06T11:38:33Z</time>
      </trkpt>
      <trkpt lat="45.6046" lon="3.11303">
        <ele>568</ele>
        <time>2012-08-06T11:38:55Z</time>
      </trkpt>
      <trkpt lat="45.60479" lon="3.11339">
        <ele>565</ele>
        <time>2012-08-06T11:39:15Z</time>
      </trkpt>
      <trkpt lat="45.6049" lon="3.1137">
        <ele>562</ele>
        <time>2012-08-06T11:39:35Z</time>
      </trkpt>
      <trkpt lat="45.60473" lon="3.11402">
        <ele>561</ele>
        <time>2012-08-06T11:39:53Z</time>
      </trkpt>
      <trkpt lat="45.60454" lon="3.11432">
        <ele>560</ele>
        <time>2012-08-06T11:40:11Z</time>
      </trkpt>
      <trkpt lat="45.6043" lon="3.11453">
        <ele>559</ele>
        <time>2012-08-06T11:40:29Z</time>
      </trkpt>
      <trkpt lat="45.60404" lon="3.11468">
        <ele>559</ele>
        <time>2012-08-06T11:40:48Z</time>
      </trkpt>
      <trkpt lat="45.60379" lon="3.11481">
        <ele>560</ele>
        <time>2012-08-06T11:41:06Z</time>
      </trkpt>
      <trkpt lat="45.60352" lon="3.11495">
        <ele>560</ele>
        <time>2012-08-06T11:41:25Z</time>
      </trkpt>
      <trkpt lat="45.60324" lon="3.11505">
        <ele>560</ele>
        <time>2012-08-06T11:41:44Z</time>
      </trkpt>
      <trkpt lat="45.60297" lon="3.11512">
        <ele>560</ele>
        <time>2012-08-06T11:42:03Z</time>
      </trkpt>
      <trkpt lat="45.6027" lon="3.11517">
        <ele>561</ele>
        <time>2012-08-06T11:42:22Z</time>
      </trkpt>
      <trkpt lat="45.6024" lon="3.11519">
        <ele>562</ele>
        <time>2012-08-06T11:42:39Z</time>
      </trkpt>
      <trkpt lat="45.60212" lon="3.11521">
        <ele>563</ele>
        <time>2012-08-06T11:42:56Z</time>
      </trkpt>
      <trkpt lat="45.60184" lon="3.11523">
        <ele>564</ele>
        <time>2012-08-06T11:43:15Z</time>
      </trkpt>
      <trkpt lat="45.60157" lon="3.11523">
        <ele>564</ele>
        <time>2012-08-06T11:43:33Z</time>
      </trkpt>
      <trkpt lat="45.60129" lon="3.11527">
        <ele>563</ele>
        <time>2012-08-06T11:43:50Z</time>
      </trkpt>
      <trkpt lat="45.60101" lon="3.11529">
        <ele>562</ele>
        <time>2012-08-06T11:44:07Z</time>
      </trkpt>
      <trkpt lat="45.60074" lon="3.1153">
        <ele>562</ele>
        <time>2012-08-06T11:44:24Z</time>
      </trkpt>
      <trkpt lat="45.60046" lon="3.11524">
        <ele>562</ele>
        <time>2012-08-06T11:44:37Z</time>
      </trkpt>
      <trkpt lat="45.6002" lon="3.11511">
        <ele>563</ele>
        <time>2012-08-06T11:44:55Z</time>
      </trkpt>
      <trkpt lat="45.59993" lon="3.11508">
        <ele>562</ele>
        <time>2012-08-06T11:45:12Z</time>
      </trkpt>
      <trkpt lat="45.59965" lon="3.11508">
        <ele>561</ele>
        <time>2012-08-06T11:45:29Z</time>
      </trkpt>
      <trkpt lat="45.59937" lon="3.11507">
        <ele>560</ele>
        <time>2012-08-06T11:45:47Z</time>
      </trkpt>
      <trkpt lat="45.59909" lon="3.11502">
        <ele>560</ele>
        <time>2012-08-06T11:46:04Z</time>
      </trkpt>
      <trkpt lat="45.59881" lon="3.11497">
        <ele>559</ele>
        <time>2012-08-06T11:46:27Z</time>
      </trkpt>
      <trkpt lat="45.59853" lon="3.11491">
        <ele>559</ele>
        <time>2012-08-06T11:46:45Z</time>
      </trkpt>
      <trkpt lat="45.59827" lon="3.11481">
        <ele>558</ele>
        <time>2012-08-06T11:47:04Z</time>
      </trkpt>
      <trkpt lat="45.598" lon="3.1147">
        <ele>558</ele>
        <time>2012-08-06T11:47:23Z</time>
      </trkpt>
      <trkpt lat="45.59774" lon="3.11458">
        <ele>558</ele>
        <time>2012-08-06T11:47:42Z</time>
      </trkpt>
      <trkpt lat="45.59747" lon="3.11448">
        <ele>557</ele>
        <time>2012-08-06T11:48:01Z</time>
      </trkpt>
      <trkpt lat="45.59722" lon="3.1146">
        <ele>556</ele>
        <time>2012-08-06T11:48:20Z</time>
      </trkpt>
      <trkpt lat="45.59704" lon="3.11427">
        <ele>556</ele>
        <time>2012-08-06T11:48:42Z</time>
      </trkpt>
      <trkpt lat="45.59688" lon="3.11391">
        <ele>555</ele>
        <time>2012-08-06T11:49:03Z</time>
      </trkpt>
      <trkpt lat="45.59671" lon="3.11358">
        <ele>553</ele>
        <time>2012-08-06T11:49:22Z</time>
      </trkpt>
      <trkpt lat="45.59656" lon="3.11324">
        <ele>551</ele>
        <time>2012-08-06T11:49:41Z</time>
      </trkpt>
      <trkpt lat="45.59637" lon="3.11293">
        <ele>549</ele>
        <time>2012-08-06T11:50:01Z</time>
      </trkpt>
      <trkpt lat="45.59618" lon="3.11262">
        <ele>547</ele>
        <time>2012-08-06T11:50:20Z</time>
      </trkpt>
      <trkpt lat="45.59598" lon="3.1123">
        <ele>544</ele>
        <time>2012-08-06T11:50:39Z</time>
      </trkpt>
      <trkpt lat="45.59572" lon="3.11212">
        <ele>540</ele>
        <time>2012-08-06T11:51:01Z</time>
      </trkpt>
      <trkpt lat="45.59548" lon="3.11183">
        <ele>535</ele>
        <time>2012-08-06T11:51:21Z</time>
      </trkpt>
      <trkpt lat="45.59521" lon="3.11195">
        <ele>531</ele>
        <time>2012-08-06T11:51:39Z</time>
      </trkpt>
      <trkpt lat="45.59494" lon="3.1121">
        <ele>527</ele>
        <time>2012-08-06T11:51:56Z</time>
      </trkpt>
      <trkpt lat="45.59467" lon="3.11224">
        <ele>525</ele>
        <time>2012-08-06T11:52:14Z</time>
      </trkpt>
      <trkpt lat="45.59439" lon="3.1122">
        <ele>522</ele>
        <time>2012-08-06T11:52:32Z</time>
      </trkpt>
      <trkpt lat="45.59412" lon="3.11208">
        <ele>519</ele>
        <time>2012-08-06T11:52:51Z</time>
      </trkpt>
      <trkpt lat="45.59386" lon="3.1119">
        <ele>516</ele>
        <time>2012-08-06T11:53:09Z</time>
      </trkpt>
      <trkpt lat="45.59361" lon="3.11171">
        <ele>513</ele>
        <time>2012-08-06T11:53:26Z</time>
      </trkpt>
      <trkpt lat="45.59336" lon="3.11153">
        <ele>509</ele>
        <time>2012-08-06T11:53:45Z</time>
      </trkpt>
      <trkpt lat="45.59311" lon="3.11134">
        <ele>506</ele>
        <time>2012-08-06T11:54:04Z</time>
      </trkpt>
      <trkpt lat="45.59284" lon="3.11123">
        <ele>503</ele>
        <time>2012-08-06T11:54:23Z</time>
      </trkpt>
      <trkpt lat="45.59257" lon="3.11111">
        <ele>500</ele>
        <time>2012-08-06T11:54:41Z</time>
      </trkpt>
      <trkpt lat="45.59231" lon="3.11119">
        <ele>499</ele>
        <time>2012-08-06T11:54:59Z</time>
      </trkpt>
      <trkpt lat="45.59205" lon="3.11137">
        <ele>496</ele>
        <time>2012-08-06T11:55:17Z</time>
      </trkpt>
      <trkpt lat="45.59188" lon="3.11166">
        <ele>493</ele>
        <time>2012-08-06T11:55:30Z</time>
      </trkpt>
      <trkpt lat="45.59188" lon="3.11211">
        <ele>494</ele>
        <time>2012-08-06T11:55:40Z</time>
      </trkpt>
      <trkpt lat="45.59189" lon="3.11254">
        <ele>493</ele>
        <time>2012-08-06T11:55:52Z</time>
      </trkpt>
      <trkpt lat="45.5919" lon="3.11299">
        <ele>492</ele>
        <time>2012-08-06T11:56:02Z</time>
      </trkpt>
      <trkpt lat="45.59195" lon="3.1134">
        <ele>492</ele>
        <time>2012-08-06T11:56:12Z</time>
      </trkpt>
      <trkpt lat="45.59204" lon="3.11384">
        <ele>492</ele>
        <time>2012-08-06T11:56:22Z</time>
      </trkpt>
      <trkpt lat="45.59213" lon="3.11423">
        <ele>492</ele>
        <time>2012-08-06T11:56:31Z</time>
      </trkpt>
      <trkpt lat="45.59224" lon="3.11461">
        <ele>493</ele>
        <time>2012-08-06T11:56:40Z</time>
      </trkpt>
      <trkpt lat="45.59232" lon="3.11505">
        <ele>492</ele>
        <time>2012-08-06T11:56:50Z</time>
      </trkpt>
      <trkpt lat="45.59242" lon="3.11548">
        <ele>494</ele>
        <time>2012-08-06T11:57:01Z</time>
      </trkpt>
      <trkpt lat="45.59234" lon="3.11598">
        <ele>490</ele>
        <time>2012-08-06T11:57:17Z</time>
      </trkpt>
      <trkpt lat="45.59215" lon="3.11634">
        <ele>486</ele>
        <time>2012-08-06T11:57:36Z</time>
      </trkpt>
      <trkpt lat="45.59196" lon="3.11668">
        <ele>481</ele>
        <time>2012-08-06T11:57:56Z</time>
      </trkpt>
      <trkpt lat="45.59178" lon="3.11699">
        <ele>479</ele>
        <time>2012-08-06T11:58:18Z</time>
      </trkpt>
      <trkpt lat="45.59146" lon="3.11721">
        <ele>474</ele>
        <time>2012-08-06T11:58:42Z</time>
      </trkpt>
      <trkpt lat="45.59118" lon="3.11746">
        <ele>476</ele>
        <time>2012-08-06T11:59:05Z</time>
      </trkpt>
      <trkpt lat="45.59097" lon="3.11779">
        <ele>474</ele>
        <time>2012-08-06T11:59:27Z</time>
      </trkpt>
      <trkpt lat="45.59068" lon="3.11806">
        <ele>474</ele>
        <time>2012-08-06T11:59:53Z</time>
      </trkpt>
      <trkpt lat="45.59036" lon="3.11809">
        <ele>473</ele>
        <time>2012-08-06T12:00:15Z</time>
      </trkpt>
      <trkpt lat="45.59006" lon="3.11812">
        <ele>473</ele>
        <time>2012-08-06T12:00:37Z</time>
      </trkpt>
      <trkpt lat="45.58989" lon="3.11797">
        <ele>472</ele>
        <time>2012-08-06T12:01:03Z</time>
      </trkpt>
      <trkpt lat="45.5897" lon="3.1176">
        <ele>472</ele>
        <time>2012-08-06T12:01:28Z</time>
      </trkpt>
      <trkpt lat="45.58955" lon="3.11719">
        <ele>472</ele>
        <time>2012-08-06T12:01:52Z</time>
      </trkpt>
      <trkpt lat="45.58954" lon="3.11743">
        <ele>471</ele>
        <time>2012-08-06T12:02:33Z</time>
      </trkpt>
      <trkpt lat="45.58926" lon="3.11731">
        <ele>468</ele>
        <time>2012-08-06T12:02:57Z</time>
      </trkpt>
      <trkpt lat="45.58896" lon="3.11719">
        <ele>465</ele>
        <time>2012-08-06T12:03:22Z</time>
      </trkpt>
      <trkpt lat="45.58881" lon="3.11684">
        <ele>464</ele>
        <time>2012-08-06T12:03:47Z</time>
      </trkpt>
      <trkpt lat="45.58873" lon="3.11637">
        <ele>464</ele>
        <time>2012-08-06T12:04:01Z</time>
      </trkpt>
      <trkpt lat="45.58871" lon="3.11589">
        <ele>465</ele>
        <time>2012-08-06T12:04:21Z</time>
      </trkpt>
      <trkpt lat="45.58858" lon="3.11562">
        <ele>466</ele>
        <time>2012-08-06T12:04:53Z</time>
      </trkpt>
      <trkpt lat="45.58828" lon="3.11572">
        <ele>466</ele>
        <time>2012-08-06T12:05:15Z</time>
      </trkpt>
      <trkpt lat="45.58806" lon="3.11595">
        <ele>469</ele>
        <time>2012-08-06T12:05:38Z</time>
      </trkpt>
      <trkpt lat="45.5881" lon="3.11638">
        <ele>468</ele>
        <time>2012-08-06T12:06:03Z</time>
      </trkpt>
      <trkpt lat="45.58814" lon="3.11681">
        <ele>468</ele>
        <time>2012-08-06T12:06:24Z</time>
      </trkpt>
      <trkpt lat="45.58811" lon="3.11728">
        <ele>468</ele>
        <time>2012-08-06T12:06:47Z</time>
      </trkpt>
      <trkpt lat="45.58815" lon="3.11773">
        <ele>467</ele>
        <time>2012-08-06T12:07:11Z</time>
      </trkpt>
      <trkpt lat="45.58807" lon="3.11814">
        <ele>467</ele>
        <time>2012-08-06T12:07:31Z</time>
      </trkpt>
      <trkpt lat="45.58797" lon="3.11852">
        <ele>467</ele>
        <time>2012-08-06T12:07:52Z</time>
      </trkpt>
      <trkpt lat="45.58796" lon="3.11898">
        <ele>468</ele>
        <time>2012-08-06T12:08:15Z</time>
      </trkpt>
      <trkpt lat="45.58794" lon="3.11934">
        <ele>472</ele>
        <time>2012-08-06T12:08:37Z</time>
      </trkpt>
      <trkpt lat="45.58763" lon="3.11946">
        <ele>480</ele>
        <time>2012-08-06T12:09:01Z</time>
      </trkpt>
      <trkpt lat="45.58735" lon="3.11961">
        <ele>489</ele>
        <time>2012-08-06T12:09:25Z</time>
      </trkpt>
      <trkpt lat="45.58707" lon="3.11972">
        <ele>492</ele>
        <time>2012-08-06T12:09:37Z</time>
      </trkpt>
      <trkpt lat="45.58678" lon="3.11984">
        <ele>496</ele>
        <time>2012-08-06T12:09:57Z</time>
      </trkpt>
      <trkpt lat="45.58649" lon="3.12007">
        <ele>504</ele>
        <time>2012-08-06T12:10:28Z</time>
      </trkpt>
      <trkpt lat="45.58621" lon="3.12019">
        <ele>508</ele>
        <time>2012-08-06T12:10:48Z</time>
      </trkpt>
      <trkpt lat="45.58593" lon="3.12033">
        <ele>511</ele>
        <time>2012-08-06T12:11:04Z</time>
      </trkpt>
      <trkpt lat="45.58566" lon="3.12046">
        <ele>514</ele>
        <time>2012-08-06T12:11:23Z</time>
      </trkpt>
      <trkpt lat="45.58534" lon="3.1203">
        <ele>511</ele>
        <time>2012-08-06T12:11:53Z</time>
      </trkpt>
      <trkpt lat="45.5852" lon="3.1199">
        <ele>503</ele>
        <time>2012-08-06T12:12:15Z</time>
      </trkpt>
      <trkpt lat="45.58516" lon="3.11943">
        <ele>497</ele>
        <time>2012-08-06T12:12:38Z</time>
      </trkpt>
      <trkpt lat="45.58518" lon="3.11898">
        <ele>494</ele>
        <time>2012-08-06T12:13:00Z</time>
      </trkpt>
      <trkpt lat="45.5853" lon="3.11858">
        <ele>495</ele>
        <time>2012-08-06T12:13:23Z</time>
      </trkpt>
      <trkpt lat="45.58535" lon="3.11814">
        <ele>500</ele>
        <time>2012-08-06T12:13:46Z</time>
      </trkpt>
      <trkpt lat="45.58534" lon="3.11768">
        <ele>507</ele>
        <time>2012-08-06T12:14:09Z</time>
      </trkpt>
      <trkpt lat="45.58524" lon="3.11725">
        <ele>512</ele>
        <time>2012-08-06T12:14:33Z</time>
      </trkpt>
      <trkpt lat="45.58504" lon="3.11688">
        <ele>515</ele>
        <time>2012-08-06T12:14:58Z</time>
      </trkpt>
      <trkpt lat="45.5848" lon="3.11659">
        <ele>517</ele>
        <time>2012-08-06T12:15:23Z</time>
      </trkpt>
      <trkpt lat="45.58457" lon="3.11636">
        <ele>521</ele>
        <time>2012-08-06T12:15:46Z</time>
      </trkpt>
      <trkpt lat="45.58467" lon="3.11659">
        <ele>517</ele>
        <time>2012-08-06T12:16:16Z</time>
      </trkpt>
      <trkpt lat="45.58478" lon="3.11671">
        <ele>516</ele>
        <time>2012-08-06T12:26:25Z</time>
      </trkpt>
      <trkpt lat="45.5848" lon="3.11677">
        <ele>516</ele>
        <time>2012-08-06T13:02:23Z</time>
      </trkpt>
      <trkpt lat="45.58466" lon="3.11661">
        <ele>517</ele>
        <time>2012-08-06T13:07:04Z</time>
      </trkpt>
      <trkpt lat="45.58447" lon="3.11659">
        <ele>521</ele>
        <time>2012-08-06T13:07:34Z</time>
      </trkpt>
      <trkpt lat="45.58443" lon="3.11701">
        <ele>519</ele>
        <time>2012-08-06T13:07:57Z</time>
      </trkpt>
      <trkpt lat="45.58437" lon="3.1174">
        <ele>517</ele>
        <time>2012-08-06T13:08:21Z</time>
      </trkpt>
      <trkpt lat="45.58423" lon="3.11775">
        <ele>517</ele>
        <time>2012-08-06T13:08:47Z</time>
      </trkpt>
      <trkpt lat="45.58415" lon="3.11815">
        <ele>516</ele>
        <time>2012-08-06T13:09:11Z</time>
      </trkpt>
      <trkpt lat="45.58408" lon="3.11857">
        <ele>515</ele>
        <time>2012-08-06T13:09:38Z</time>
      </trkpt>
      <trkpt lat="45.58402" lon="3.11896">
        <ele>515</ele>
        <time>2012-08-06T13:10:02Z</time>
      </trkpt>
      <trkpt lat="45.58402" lon="3.11938">
        <ele>515</ele>
        <time>2012-08-06T13:10:31Z</time>
      </trkpt>
      <trkpt lat="45.58401" lon="3.1198">
        <ele>516</ele>
        <time>2012-08-06T13:10:55Z</time>
      </trkpt>
      <trkpt lat="45.58392" lon="3.12018">
        <ele>517</ele>
        <time>2012-08-06T13:11:20Z</time>
      </trkpt>
      <trkpt lat="45.58367" lon="3.12007">
        <ele>517</ele>
        <time>2012-08-06T13:11:43Z</time>
      </trkpt>
      <trkpt lat="45.58344" lon="3.11983">
        <ele>518</ele>
        <time>2012-08-06T13:12:06Z</time>
      </trkpt>
      <trkpt lat="45.58318" lon="3.11961">
        <ele>519</ele>
        <time>2012-08-06T13:12:28Z</time>
      </trkpt>
      <trkpt lat="45.58297" lon="3.1193">
        <ele>520</ele>
        <time>2012-08-06T13:12:48Z</time>
      </trkpt>
      <trkpt lat="45.5828" lon="3.11898">
        <ele>521</ele>
        <time>2012-08-06T13:13:07Z</time>
      </trkpt>
      <trkpt lat="45.58257" lon="3.11871">
        <ele>522</ele>
        <time>2012-08-06T13:13:27Z</time>
      </trkpt>
      <trkpt lat="45.5823" lon="3.11851">
        <ele>523</ele>
        <time>2012-08-06T13:13:48Z</time>
      </trkpt>
      <trkpt lat="45.58203" lon="3.11835">
        <ele>524</ele>
        <time>2012-08-06T13:14:08Z</time>
      </trkpt>
      <trkpt lat="45.58174" lon="3.11834">
        <ele>525</ele>
        <time>2012-08-06T13:14:27Z</time>
      </trkpt>
      <trkpt lat="45.58145" lon="3.1184">
        <ele>526</ele>
        <time>2012-08-06T13:14:46Z</time>
      </trkpt>
      <trkpt lat="45.58118" lon="3.11837">
        <ele>528</ele>
        <time>2012-08-06T13:15:06Z</time>
      </trkpt>
      <trkpt lat="45.58097" lon="3.11808">
        <ele>530</ele>
        <time>2012-08-06T13:15:26Z</time>
      </trkpt>
      <trkpt lat="45.58078" lon="3.11775">
        <ele>532</ele>
        <time>2012-08-06T13:15:47Z</time>
      </trkpt>
      <trkpt lat="45.5806" lon="3.11743">
        <ele>534</ele>
        <time>2012-08-06T13:16:08Z</time>
      </trkpt>
      <trkpt lat="45.58042" lon="3.11709">
        <ele>536</ele>
        <time>2012-08-06T13:16:30Z</time>
      </trkpt>
      <trkpt lat="45.58029" lon="3.11671">
        <ele>538</ele>
        <time>2012-08-06T13:16:54Z</time>
      </trkpt>
      <trkpt lat="45.58007" lon="3.11643">
        <ele>541</ele>
        <time>2012-08-06T13:17:21Z</time>
      </trkpt>
      <trkpt lat="45.57983" lon="3.11616">
        <ele>546</ele>
        <time>2012-08-06T13:17:48Z</time>
      </trkpt>
      <trkpt lat="45.57959" lon="3.11594">
        <ele>551</ele>
        <time>2012-08-06T13:18:13Z</time>
      </trkpt>
      <trkpt lat="45.57934" lon="3.11568">
        <ele>555</ele>
        <time>2012-08-06T13:18:36Z</time>
      </trkpt>
      <trkpt lat="45.57906" lon="3.11536">
        <ele>560</ele>
        <time>2012-08-06T13:19:07Z</time>
      </trkpt>
      <trkpt lat="45.57878" lon="3.11518">
        <ele>565</ele>
        <time>2012-08-06T13:19:34Z</time>
      </trkpt>
      <trkpt lat="45.57849" lon="3.11507">
        <ele>569</ele>
        <time>2012-08-06T13:19:47Z</time>
      </trkpt>
      <trkpt lat="45.57819" lon="3.11493">
        <ele>571</ele>
        <time>2012-08-06T13:19:59Z</time>
      </trkpt>
      <trkpt lat="45.57788" lon="3.11478">
        <ele>573</ele>
        <time>2012-08-06T13:20:19Z</time>
      </trkpt>
      <trkpt lat="45.57758" lon="3.11478">
        <ele>575</ele>
        <time>2012-08-06T13:20:42Z</time>
      </trkpt>
      <trkpt lat="45.57725" lon="3.11476">
        <ele>578</ele>
        <time>2012-08-06T13:21:08Z</time>
      </trkpt>
      <trkpt lat="45.57687" lon="3.11472">
        <ele>586</ele>
        <time>2012-08-06T13:21:44Z</time>
      </trkpt>
      <trkpt lat="45.57646" lon="3.11475">
        <ele>595</ele>
        <time>2012-08-06T13:22:24Z</time>
      </trkpt>
      <trkpt lat="45.57609" lon="3.11463">
        <ele>602</ele>
        <time>2012-08-06T13:22:57Z</time>
      </trkpt>
      <trkpt lat="45.57573" lon="3.11451">
        <ele>609</ele>
        <time>2012-08-06T13:23:28Z</time>
      </trkpt>
      <trkpt lat="45.57531" lon="3.11437">
        <ele>616</ele>
        <time>2012-08-06T13:24:40Z</time>
      </trkpt>
      <trkpt lat="45.57499" lon="3.11444">
        <ele>623</ele>
        <time>2012-08-06T13:25:16Z</time>
      </trkpt>
      <trkpt lat="45.57482" lon="3.11487">
        <ele>624</ele>
        <time>2012-08-06T13:25:47Z</time>
      </trkpt>
      <trkpt lat="45.57465" lon="3.11525">
        <ele>624</ele>
        <time>2012-08-06T13:26:11Z</time>
      </trkpt>
      <trkpt lat="45.57447" lon="3.11561">
        <ele>625</ele>
        <time>2012-08-06T13:26:32Z</time>
      </trkpt>
      <trkpt lat="45.57437" lon="3.11602">
        <ele>624</ele>
        <time>2012-08-06T13:26:51Z</time>
      </trkpt>
      <trkpt lat="45.57437" lon="3.11645">
        <ele>621</ele>
        <time>2012-08-06T13:27:14Z</time>
      </trkpt>
      <trkpt lat="45.57439" lon="3.11689">
        <ele>620</ele>
        <time>2012-08-06T13:27:33Z</time>
      </trkpt>
      <trkpt lat="45.5744" lon="3.11734">
        <ele>615</ele>
        <time>2012-08-06T13:27:55Z</time>
      </trkpt>
      <trkpt lat="45.57424" lon="3.11749">
        <ele>613</ele>
        <time>2012-08-06T13:28:15Z</time>
      </trkpt>
      <trkpt lat="45.57402" lon="3.11721">
        <ele>618</ele>
        <time>2012-08-06T13:28:34Z</time>
      </trkpt>
      <trkpt lat="45.57377" lon="3.11701">
        <ele>622</ele>
        <time>2012-08-06T13:28:54Z</time>
      </trkpt>
      <trkpt lat="45.57351" lon="3.11684">
        <ele>623</ele>
        <time>2012-08-06T13:29:15Z</time>
      </trkpt>
      <trkpt lat="45.57323" lon="3.11675">
        <ele>624</ele>
        <time>2012-08-06T13:29:39Z</time>
      </trkpt>
      <trkpt lat="45.57297" lon="3.11659">
        <ele>627</ele>
        <time>2012-08-06T13:30:00Z</time>
      </trkpt>
      <trkpt lat="45.57272" lon="3.11639">
        <ele>630</ele>
        <time>2012-08-06T13:30:20Z</time>
      </trkpt>
      <trkpt lat="45.57246" lon="3.11623">
        <ele>632</ele>
        <time>2012-08-06T13:30:40Z</time>
      </trkpt>
      <trkpt lat="45.57217" lon="3.11614">
        <ele>633</ele>
        <time>2012-08-06T13:31:01Z</time>
      </trkpt>
      <trkpt lat="45.57189" lon="3.11604">
        <ele>635</ele>
        <time>2012-08-06T13:31:22Z</time>
      </trkpt>
      <trkpt lat="45.57161" lon="3.11592">
        <ele>637</ele>
        <time>2012-08-06T13:31:42Z</time>
      </trkpt>
      <trkpt lat="45.57134" lon="3.11602">
        <ele>637</ele>
        <time>2012-08-06T13:32:01Z</time>
      </trkpt>
      <trkpt lat="45.57108" lon="3.11619">
        <ele>635</ele>
        <time>2012-08-06T13:32:12Z</time>
      </trkpt>
      <trkpt lat="45.57084" lon="3.11644">
        <ele>634</ele>
        <time>2012-08-06T13:32:31Z</time>
      </trkpt>
      <trkpt lat="45.57058" lon="3.11661">
        <ele>637</ele>
        <time>2012-08-06T13:32:51Z</time>
      </trkpt>
      <trkpt lat="45.57047" lon="3.11697">
        <ele>637</ele>
        <time>2012-08-06T13:33:17Z</time>
      </trkpt>
      <trkpt lat="45.57044" lon="3.11741">
        <ele>637</ele>
        <time>2012-08-06T13:33:29Z</time>
      </trkpt>
      <trkpt lat="45.57046" lon="3.11784">
        <ele>637</ele>
        <time>2012-08-06T13:33:39Z</time>
      </trkpt>
      <trkpt lat="45.57051" lon="3.11827">
        <ele>636</ele>
        <time>2012-08-06T13:33:48Z</time>
      </trkpt>
      <trkpt lat="45.57059" lon="3.11868">
        <ele>635</ele>
        <time>2012-08-06T13:33:57Z</time>
      </trkpt>
      <trkpt lat="45.57064" lon="3.11907">
        <ele>636</ele>
        <time>2012-08-06T13:34:06Z</time>
      </trkpt>
      <trkpt lat="45.57065" lon="3.11951">
        <ele>641</ele>
        <time>2012-08-06T13:34:16Z</time>
      </trkpt>
      <trkpt lat="45.57067" lon="3.11993">
        <ele>643</ele>
        <time>2012-08-06T13:34:30Z</time>
      </trkpt>
      <trkpt lat="45.57076" lon="3.1203">
        <ele>644</ele>
        <time>2012-08-06T13:34:46Z</time>
      </trkpt>
      <trkpt lat="45.57081" lon="3.12071">
        <ele>644</ele>
        <time>2012-08-06T13:34:56Z</time>
      </trkpt>
      <trkpt lat="45.5708" lon="3.12115">
        <ele>644</ele>
        <time>2012-08-06T13:35:04Z</time>
      </trkpt>
      <trkpt lat="45.57079" lon="3.12159">
        <ele>644</ele>
        <time>2012-08-06T13:35:10Z</time>
      </trkpt>
      <trkpt lat="45.57077" lon="3.12201">
        <ele>643</ele>
        <time>2012-08-06T13:35:16Z</time>
      </trkpt>
      <trkpt lat="45.57071" lon="3.12242">
        <ele>640</ele>
        <time>2012-08-06T13:35:22Z</time>
      </trkpt>
      <trkpt lat="45.57061" lon="3.12283">
        <ele>638</ele>
        <time>2012-08-06T13:35:28Z</time>
      </trkpt>
      <trkpt lat="45.57048" lon="3.12321">
        <ele>637</ele>
        <time>2012-08-06T13:35:34Z</time>
      </trkpt>
      <trkpt lat="45.57035" lon="3.12357">
        <ele>635</ele>
        <time>2012-08-06T13:35:40Z</time>
      </trkpt>
      <trkpt lat="45.5702" lon="3.12394">
        <ele>634</ele>
        <time>2012-08-06T13:35:46Z</time>
      </trkpt>
      <trkpt lat="45.57007" lon="3.12431">
        <ele>633</ele>
        <time>2012-08-06T13:35:52Z</time>
      </trkpt>
      <trkpt lat="45.56996" lon="3.12467">
        <ele>631</ele>
        <time>2012-08-06T13:36:01Z</time>
      </trkpt>
      <trkpt lat="45.56983" lon="3.12506">
        <ele>630</ele>
        <time>2012-08-06T13:36:14Z</time>
      </trkpt>
      <trkpt lat="45.56971" lon="3.12545">
        <ele>629</ele>
        <time>2012-08-06T13:36:23Z</time>
      </trkpt>
      <trkpt lat="45.56963" lon="3.12583">
        <ele>628</ele>
        <time>2012-08-06T13:36:31Z</time>
      </trkpt>
      <trkpt lat="45.56956" lon="3.12624">
        <ele>626</ele>
        <time>2012-08-06T13:36:40Z</time>
      </trkpt>
      <trkpt lat="45.56949" lon="3.12665">
        <ele>625</ele>
        <time>2012-08-06T13:36:48Z</time>
      </trkpt>
      <trkpt lat="45.56943" lon="3.12702">
        <ele>623</ele>
        <time>2012-08-06T13:36:56Z</time>
      </trkpt>
      <trkpt lat="45.56937" lon="3.12743">
        <ele>621</ele>
        <time>2012-08-06T13:37:09Z</time>
      </trkpt>
      <trkpt lat="45.56939" lon="3.12778">
        <ele>618</ele>
        <time>2012-08-06T13:37:31Z</time>
      </trkpt>
      <trkpt lat="45.56964" lon="3.12798">
        <ele>615</ele>
        <time>2012-08-06T13:37:52Z</time>
      </trkpt>
      <trkpt lat="45.56989" lon="3.12815">
        <ele>612</ele>
        <time>2012-08-06T13:38:13Z</time>
      </trkpt>
      <trkpt lat="45.57017" lon="3.12824">
        <ele>608</ele>
        <time>2012-08-06T13:38:30Z</time>
      </trkpt>
      <trkpt lat="45.57045" lon="3.1283">
        <ele>605</ele>
        <time>2012-08-06T13:38:49Z</time>
      </trkpt>
      <trkpt lat="45.57072" lon="3.12835">
        <ele>602</ele>
        <time>2012-08-06T13:39:07Z</time>
      </trkpt>
      <trkpt lat="45.57102" lon="3.12832">
        <ele>600</ele>
        <time>2012-08-06T13:39:27Z</time>
      </trkpt>
      <trkpt lat="45.57131" lon="3.1282">
        <ele>599</ele>
        <time>2012-08-06T13:39:47Z</time>
      </trkpt>
      <trkpt lat="45.57142" lon="3.12826">
        <ele>598</ele>
        <time>2012-08-06T13:40:09Z</time>
      </trkpt>
      <trkpt lat="45.57116" lon="3.12844">
        <ele>598</ele>
        <time>2012-08-06T13:40:31Z</time>
      </trkpt>
      <trkpt lat="45.57088" lon="3.12865">
        <ele>599</ele>
        <time>2012-08-06T13:40:52Z</time>
      </trkpt>
      <trkpt lat="45.57058" lon="3.12883">
        <ele>600</ele>
        <time>2012-08-06T13:41:14Z</time>
      </trkpt>
      <trkpt lat="45.57031" lon="3.12898">
        <ele>601</ele>
        <time>2012-08-06T13:41:28Z</time>
      </trkpt>
      <trkpt lat="45.57002" lon="3.12919">
        <ele>601</ele>
        <time>2012-08-06T13:41:39Z</time>
      </trkpt>
      <trkpt lat="45.56974" lon="3.12941">
        <ele>602</ele>
        <time>2012-08-06T13:41:49Z</time>
      </trkpt>
      <trkpt lat="45.56946" lon="3.12962">
        <ele>601</ele>
        <time>2012-08-06T13:41:59Z</time>
      </trkpt>
      <trkpt lat="45.5692" lon="3.12986">
        <ele>601</ele>
        <time>2012-08-06T13:42:09Z</time>
      </trkpt>
      <trkpt lat="45.56904" lon="3.13023">
        <ele>599</ele>
        <time>2012-08-06T13:42:18Z</time>
      </trkpt>
      <trkpt lat="45.56882" lon="3.13052">
        <ele>598</ele>
        <time>2012-08-06T13:42:27Z</time>
      </trkpt>
      <trkpt lat="45.56859" lon="3.13076">
        <ele>596</ele>
        <time>2012-08-06T13:42:36Z</time>
      </trkpt>
      <trkpt lat="45.56835" lon="3.131">
        <ele>594</ele>
        <time>2012-08-06T13:42:46Z</time>
      </trkpt>
      <trkpt lat="45.5681" lon="3.13125">
        <ele>592</ele>
        <time>2012-08-06T13:42:57Z</time>
      </trkpt>
      <trkpt lat="45.56781" lon="3.13144">
        <ele>589</ele>
        <time>2012-08-06T13:43:08Z</time>
      </trkpt>
      <trkpt lat="45.56754" lon="3.13135">
        <ele>589</ele>
        <time>2012-08-06T13:43:17Z</time>
      </trkpt>
      <trkpt lat="45.56727" lon="3.13124">
        <ele>589</ele>
        <time>2012-08-06T13:43:27Z</time>
      </trkpt>
      <trkpt lat="45.56699" lon="3.13109">
        <ele>589</ele>
        <time>2012-08-06T13:43:34Z</time>
      </trkpt>
      <trkpt lat="45.5667" lon="3.13095">
        <ele>590</ele>
        <time>2012-08-06T13:43:40Z</time>
      </trkpt>
      <trkpt lat="45.56643" lon="3.13082">
        <ele>590</ele>
        <time>2012-08-06T13:43:45Z</time>
      </trkpt>
      <trkpt lat="45.56615" lon="3.13069">
        <ele>590</ele>
        <time>2012-08-06T13:43:50Z</time>
      </trkpt>
      <trkpt lat="45.56585" lon="3.13055">
        <ele>591</ele>
        <time>2012-08-06T13:43:56Z</time>
      </trkpt>
      <trkpt lat="45.56556" lon="3.13042">
        <ele>591</ele>
        <time>2012-08-06T13:44:02Z</time>
      </trkpt>
      <trkpt lat="45.56527" lon="3.13029">
        <ele>591</ele>
        <time>2012-08-06T13:44:08Z</time>
      </trkpt>
      <trkpt lat="45.56497" lon="3.13015">
        <ele>592</ele>
        <time>2012-08-06T13:44:14Z</time>
      </trkpt>
      <trkpt lat="45.56469" lon="3.13003">
        <ele>592</ele>
        <time>2012-08-06T13:44:20Z</time>
      </trkpt>
      <trkpt lat="45.5644" lon="3.12994">
        <ele>593</ele>
        <time>2012-08-06T13:44:26Z</time>
      </trkpt>
      <trkpt lat="45.5641" lon="3.12991">
        <ele>591</ele>
        <time>2012-08-06T13:44:32Z</time>
      </trkpt>
      <trkpt lat="45.56379" lon="3.12989">
        <ele>590</ele>
        <time>2012-08-06T13:44:38Z</time>
      </trkpt>
      <trkpt lat="45.56351" lon="3.12987">
        <ele>588</ele>
        <time>2012-08-06T13:44:43Z</time>
      </trkpt>
      <trkpt lat="45.56322" lon="3.12984">
        <ele>586</ele>
        <time>2012-08-06T13:44:48Z</time>
      </trkpt>
      <trkpt lat="45.56294" lon="3.12981">
        <ele>585</ele>
        <time>2012-08-06T13:44:54Z</time>
      </trkpt>
      <trkpt lat="45.56264" lon="3.12979">
        <ele>584</ele>
        <time>2012-08-06T13:45:03Z</time>
      </trkpt>
      <trkpt lat="45.56234" lon="3.12978">
        <ele>583</ele>
        <time>2012-08-06T13:45:13Z</time>
      </trkpt>
      <trkpt lat="45.56203" lon="3.12978">
        <ele>582</ele>
        <time>2012-08-06T13:45:23Z</time>
      </trkpt>
      <trkpt lat="45.56172" lon="3.12974">
        <ele>581</ele>
        <time>2012-08-06T13:45:37Z</time>
      </trkpt>
      <trkpt lat="45.56171" lon="3.12982">
        <ele>581</ele>
        <time>2012-08-06T13:46:06Z</time>
      </trkpt>
      <trkpt lat="45.5617" lon="3.13023">
        <ele>577</ele>
        <time>2012-08-06T13:46:29Z</time>
      </trkpt>
      <trkpt lat="45.56161" lon="3.13063">
        <ele>572</ele>
        <time>2012-08-06T13:46:51Z</time>
      </trkpt>
      <trkpt lat="45.56155" lon="3.13102">
        <ele>566</ele>
        <time>2012-08-06T13:47:10Z</time>
      </trkpt>
      <trkpt lat="45.56152" lon="3.13141">
        <ele>562</ele>
        <time>2012-08-06T13:47:31Z</time>
      </trkpt>
      <trkpt lat="45.56142" lon="3.13178">
        <ele>558</ele>
        <time>2012-08-06T13:47:53Z</time>
      </trkpt>
      <trkpt lat="45.56129" lon="3.1318">
        <ele>557</ele>
        <time>2012-08-06T13:48:25Z</time>
      </trkpt>
      <trkpt lat="45.56107" lon="3.1315">
        <ele>558</ele>
        <time>2012-08-06T13:48:49Z</time>
      </trkpt>
      <trkpt lat="45.56083" lon="3.13128">
        <ele>560</ele>
        <time>2012-08-06T13:49:10Z</time>
      </trkpt>
      <trkpt lat="45.56059" lon="3.13105">
        <ele>562</ele>
        <time>2012-08-06T13:49:31Z</time>
      </trkpt>
      <trkpt lat="45.56039" lon="3.13077">
        <ele>565</ele>
        <time>2012-08-06T13:49:51Z</time>
      </trkpt>
      <trkpt lat="45.56018" lon="3.13051">
        <ele>568</ele>
        <time>2012-08-06T13:50:10Z</time>
      </trkpt>
      <trkpt lat="45.55992" lon="3.13036">
        <ele>568</ele>
        <time>2012-08-06T13:50:29Z</time>
      </trkpt>
      <trkpt lat="45.55964" lon="3.13024">
        <ele>569</ele>
        <time>2012-08-06T13:50:48Z</time>
      </trkpt>
      <trkpt lat="45.55937" lon="3.13009">
        <ele>571</ele>
        <time>2012-08-06T13:51:09Z</time>
      </trkpt>
      <trkpt lat="45.55914" lon="3.12984">
        <ele>573</ele>
        <time>2012-08-06T13:51:28Z</time>
      </trkpt>
      <trkpt lat="45.55899" lon="3.12949">
        <ele>576</ele>
        <time>2012-08-06T13:51:47Z</time>
      </trkpt>
      <trkpt lat="45.55881" lon="3.12918">
        <ele>578</ele>
        <time>2012-08-06T13:52:06Z</time>
      </trkpt>
      <trkpt lat="45.55862" lon="3.1289">
        <ele>580</ele>
        <time>2012-08-06T13:52:24Z</time>
      </trkpt>
      <trkpt lat="45.55841" lon="3.12861">
        <ele>581</ele>
        <time>2012-08-06T13:52:35Z</time>
      </trkpt>
      <trkpt lat="45.55821" lon="3.12833">
        <ele>582</ele>
        <time>2012-08-06T13:52:46Z</time>
      </trkpt>
      <trkpt lat="45.55801" lon="3.12802">
        <ele>584</ele>
        <time>2012-08-06T13:52:56Z</time>
      </trkpt>
      <trkpt lat="45.55783" lon="3.12768">
        <ele>585</ele>
        <time>2012-08-06T13:53:06Z</time>
      </trkpt>
      <trkpt lat="45.55764" lon="3.12735">
        <ele>588</ele>
        <time>2012-08-06T13:53:17Z</time>
      </trkpt>
      <trkpt lat="45.55749" lon="3.12702">
        <ele>590</ele>
        <time>2012-08-06T13:53:37Z</time>
      </trkpt>
      <trkpt lat="45.55747" lon="3.12662">
        <ele>592</ele>
        <time>2012-08-06T13:53:57Z</time>
      </trkpt>
      <trkpt lat="45.55746" lon="3.12622">
        <ele>595</ele>
        <time>2012-08-06T13:54:17Z</time>
      </trkpt>
      <trkpt lat="45.55746" lon="3.1258">
        <ele>598</ele>
        <time>2012-08-06T13:54:38Z</time>
      </trkpt>
      <trkpt lat="45.55745" lon="3.12537">
        <ele>600</ele>
        <time>2012-08-06T13:54:59Z</time>
      </trkpt>
      <trkpt lat="45.55746" lon="3.12496">
        <ele>603</ele>
        <time>2012-08-06T13:55:19Z</time>
      </trkpt>
      <trkpt lat="45.55749" lon="3.12456">
        <ele>605</ele>
        <time>2012-08-06T13:55:40Z</time>
      </trkpt>
      <trkpt lat="45.55753" lon="3.12416">
        <ele>609</ele>
        <time>2012-08-06T13:56:01Z</time>
      </trkpt>
      <trkpt lat="45.55754" lon="3.12372">
        <ele>612</ele>
        <time>2012-08-06T13:56:16Z</time>
      </trkpt>
      <trkpt lat="45.55752" lon="3.12329">
        <ele>617</ele>
        <time>2012-08-06T13:56:27Z</time>
      </trkpt>
      <trkpt lat="45.5575" lon="3.12287">
        <ele>620</ele>
        <time>2012-08-06T13:56:55Z</time>
      </trkpt>
      <trkpt lat="45.55721" lon="3.12266">
        <ele>616</ele>
        <time>2012-08-06T13:57:21Z</time>
      </trkpt>
      <trkpt lat="45.55696" lon="3.12241">
        <ele>611</ele>
        <time>2012-08-06T13:57:44Z</time>
      </trkpt>
      <trkpt lat="45.55675" lon="3.12206">
        <ele>609</ele>
        <time>2012-08-06T13:58:08Z</time>
      </trkpt>
      <trkpt lat="45.55661" lon="3.12169">
        <ele>610</ele>
        <time>2012-08-06T13:58:31Z</time>
      </trkpt>
      <trkpt lat="45.55632" lon="3.12155">
        <ele>605</ele>
        <time>2012-08-06T13:58:54Z</time>
      </trkpt>
      <trkpt lat="45.55613" lon="3.12126">
        <ele>606</ele>
        <time>2012-08-06T13:59:16Z</time>
      </trkpt>
      <trkpt lat="45.5561" lon="3.12084">
        <ele>611</ele>
        <time>2012-08-06T13:59:59Z</time>
      </trkpt>
      <trkpt lat="45.55593" lon="3.12052">
        <ele>612</ele>
        <time>2012-08-06T14:00:21Z</time>
      </trkpt>
      <trkpt lat="45.5559" lon="3.12013">
        <ele>616</ele>
        <time>2012-08-06T14:00:40Z</time>
      </trkpt>
      <trkpt lat="45.55593" lon="3.11973">
        <ele>618</ele>
        <time>2012-08-06T14:00:58Z</time>
      </trkpt>
      <trkpt lat="45.55587" lon="3.11933">
        <ele>616</ele>
        <time>2012-08-06T14:01:17Z</time>
      </trkpt>
      <trkpt lat="45.55574" lon="3.11898">
        <ele>615</ele>
        <time>2012-08-06T14:01:35Z</time>
      </trkpt>
      <trkpt lat="45.55559" lon="3.11863">
        <ele>613</ele>
        <time>2012-08-06T14:01:55Z</time>
      </trkpt>
      <trkpt lat="45.55542" lon="3.11832">
        <ele>612</ele>
        <time>2012-08-06T14:02:14Z</time>
      </trkpt>
      <trkpt lat="45.55527" lon="3.11799">
        <ele>612</ele>
        <time>2012-08-06T14:02:33Z</time>
      </trkpt>
      <trkpt lat="45.55519" lon="3.11762">
        <ele>613</ele>
        <time>2012-08-06T14:02:49Z</time>
      </trkpt>
      <trkpt lat="45.55515" lon="3.11721">
        <ele>614</ele>
        <time>2012-08-06T14:03:05Z</time>
      </trkpt>
      <trkpt lat="45.55509" lon="3.11683">
        <ele>616</ele>
        <time>2012-08-06T14:03:22Z</time>
      </trkpt>
      <trkpt lat="45.55503" lon="3.11643">
        <ele>619</ele>
        <time>2012-08-06T14:03:41Z</time>
      </trkpt>
      <trkpt lat="45.5549" lon="3.11607">
        <ele>620</ele>
        <time>2012-08-06T14:04:00Z</time>
      </trkpt>
      <trkpt lat="45.55474" lon="3.11574">
        <ele>618</ele>
        <time>2012-08-06T14:04:19Z</time>
      </trkpt>
      <trkpt lat="45.55463" lon="3.11539">
        <ele>618</ele>
        <time>2012-08-06T14:04:37Z</time>
      </trkpt>
      <trkpt lat="45.55465" lon="3.11499">
        <ele>618</ele>
        <time>2012-08-06T14:04:55Z</time>
      </trkpt>
      <trkpt lat="45.55469" lon="3.11458">
        <ele>618</ele>
        <time>2012-08-06T14:05:14Z</time>
      </trkpt>
      <trkpt lat="45.55477" lon="3.11419">
        <ele>617</ele>
        <time>2012-08-06T14:05:33Z</time>
      </trkpt>
      <trkpt lat="45.55487" lon="3.11383">
        <ele>617</ele>
        <time>2012-08-06T14:05:50Z</time>
      </trkpt>
      <trkpt lat="45.55498" lon="3.11346">
        <ele>617</ele>
        <time>2012-08-06T14:06:08Z</time>
      </trkpt>
      <trkpt lat="45.555" lon="3.11307">
        <ele>614</ele>
        <time>2012-08-06T14:06:26Z</time>
      </trkpt>
      <trkpt lat="45.55499" lon="3.11267">
        <ele>610</ele>
        <time>2012-08-06T14:06:45Z</time>
      </trkpt>
      <trkpt lat="45.55498" lon="3.11227">
        <ele>607</ele>
        <time>2012-08-06T14:07:04Z</time>
      </trkpt>
      <trkpt lat="45.55499" lon="3.11187">
        <ele>604</ele>
        <time>2012-08-06T14:07:23Z</time>
      </trkpt>
      <trkpt lat="45.55503" lon="3.11149">
        <ele>601</ele>
        <time>2012-08-06T14:07:41Z</time>
      </trkpt>
      <trkpt lat="45.55508" lon="3.11109">
        <ele>599</ele>
        <time>2012-08-06T14:07:59Z</time>
      </trkpt>
      <trkpt lat="45.55518" lon="3.11074">
        <ele>598</ele>
        <time>2012-08-06T14:08:16Z</time>
      </trkpt>
      <trkpt lat="45.55538" lon="3.11043">
        <ele>598</ele>
        <time>2012-08-06T14:08:35Z</time>
      </trkpt>
      <trkpt lat="45.55534" lon="3.1101">
        <ele>596</ele>
        <time>2012-08-06T14:09:03Z</time>
      </trkpt>
      <trkpt lat="45.55517" lon="3.10978">
        <ele>592</ele>
        <time>2012-08-06T14:09:21Z</time>
      </trkpt>
      <trkpt lat="45.555" lon="3.10945">
        <ele>589</ele>
        <time>2012-08-06T14:09:39Z</time>
      </trkpt>
      <trkpt lat="45.55483" lon="3.10912">
        <ele>587</ele>
        <time>2012-08-06T14:09:59Z</time>
      </trkpt>
      <trkpt lat="45.55466" lon="3.10879">
        <ele>588</ele>
        <time>2012-08-06T14:10:19Z</time>
      </trkpt>
      <trkpt lat="45.5545" lon="3.10847">
        <ele>588</ele>
        <time>2012-08-06T14:10:38Z</time>
      </trkpt>
      <trkpt lat="45.55434" lon="3.10816">
        <ele>588</ele>
        <time>2012-08-06T14:10:56Z</time>
      </trkpt>
      <trkpt lat="45.55415" lon="3.10784">
        <ele>589</ele>
        <time>2012-08-06T14:11:14Z</time>
      </trkpt>
      <trkpt lat="45.554" lon="3.10804">
        <ele>585</ele>
        <time>2012-08-06T14:11:39Z</time>
      </trkpt>
      <trkpt lat="45.55392" lon="3.10843">
        <ele>581</ele>
        <time>2012-08-06T14:12:00Z</time>
      </trkpt>
      <trkpt lat="45.55384" lon="3.10882">
        <ele>576</ele>
        <time>2012-08-06T14:12:20Z</time>
      </trkpt>
      <trkpt lat="45.55375" lon="3.10918">
        <ele>572</ele>
        <time>2012-08-06T14:12:37Z</time>
      </trkpt>
      <trkpt lat="45.55365" lon="3.10956">
        <ele>567</ele>
        <time>2012-08-06T14:12:55Z</time>
      </trkpt>
      <trkpt lat="45.55353" lon="3.10991">
        <ele>564</ele>
        <time>2012-08-06T14:13:14Z</time>
      </trkpt>
      <trkpt lat="45.55341" lon="3.11027">
        <ele>563</ele>
        <time>2012-08-06T14:13:31Z</time>
      </trkpt>
      <trkpt lat="45.55322" lon="3.11059">
        <ele>563</ele>
        <time>2012-08-06T14:13:50Z</time>
      </trkpt>
      <trkpt lat="45.55304" lon="3.11091">
        <ele>561</ele>
        <time>2012-08-06T14:14:08Z</time>
      </trkpt>
      <trkpt lat="45.55286" lon="3.11121">
        <ele>560</ele>
        <time>2012-08-06T14:14:26Z</time>
      </trkpt>
      <trkpt lat="45.55266" lon="3.11153">
        <ele>559</ele>
        <time>2012-08-06T14:14:47Z</time>
      </trkpt>
      <trkpt lat="45.55237" lon="3.11178">
        <ele>559</ele>
        <time>2012-08-06T14:15:15Z</time>
      </trkpt>
      <trkpt lat="45.5521" lon="3.11192">
        <ele>559</ele>
        <time>2012-08-06T14:15:48Z</time>
      </trkpt>
      <trkpt lat="45.55188" lon="3.11157">
        <ele>551</ele>
        <time>2012-08-06T14:16:16Z</time>
      </trkpt>
      <trkpt lat="45.55181" lon="3.11116">
        <ele>542</ele>
        <time>2012-08-06T14:16:40Z</time>
      </trkpt>
      <trkpt lat="45.55202" lon="3.1109">
        <ele>539</ele>
        <time>2012-08-06T14:17:09Z</time>
      </trkpt>
      <trkpt lat="45.5519" lon="3.11066">
        <ele>536</ele>
        <time>2012-08-06T14:17:46Z</time>
      </trkpt>
      <trkpt lat="45.5515" lon="3.11041">
        <ele>523</ele>
        <time>2012-08-06T14:18:39Z</time>
      </trkpt>
      <trkpt lat="45.55128" lon="3.11042">
        <ele>514</ele>
        <time>2012-08-06T14:19:38Z</time>
      </trkpt>
      <trkpt lat="45.55127" lon="3.10992">
        <ele>506</ele>
        <time>2012-08-06T14:20:04Z</time>
      </trkpt>
      <trkpt lat="45.55124" lon="3.10941">
        <ele>500</ele>
        <time>2012-08-06T14:20:26Z</time>
      </trkpt>
      <trkpt lat="45.55111" lon="3.10904">
        <ele>494</ele>
        <time>2012-08-06T14:20:49Z</time>
      </trkpt>
      <trkpt lat="45.5511" lon="3.10849">
        <ele>497</ele>
        <time>2012-08-06T14:21:12Z</time>
      </trkpt>
      <trkpt lat="45.55104" lon="3.10808">
        <ele>499</ele>
        <time>2012-08-06T14:21:34Z</time>
      </trkpt>
      <trkpt lat="45.55098" lon="3.10769">
        <ele>502</ele>
        <time>2012-08-06T14:21:56Z</time>
      </trkpt>
      <trkpt lat="45.55095" lon="3.10726">
        <ele>501</ele>
        <time>2012-08-06T14:22:17Z</time>
      </trkpt>
      <trkpt lat="45.55093" lon="3.10676">
        <ele>497</ele>
        <time>2012-08-06T14:22:40Z</time>
      </trkpt>
      <trkpt lat="45.55094" lon="3.10629">
        <ele>495</ele>
        <time>2012-08-06T14:23:01Z</time>
      </trkpt>
      <trkpt lat="45.5508" lon="3.10593">
        <ele>497</ele>
        <time>2012-08-06T14:23:25Z</time>
      </trkpt>
      <trkpt lat="45.55056" lon="3.10581">
        <ele>496</ele>
        <time>2012-08-06T14:24:26Z</time>
      </trkpt>
      <trkpt lat="45.55056" lon="3.10628">
        <ele>498</ele>
        <time>2012-08-06T14:24:56Z</time>
      </trkpt>
      <trkpt lat="45.55058" lon="3.10662">
        <ele>498</ele>
        <time>2012-08-06T14:25:48Z</time>
      </trkpt>
      <trkpt lat="45.55042" lon="3.1069">
        <ele>510</ele>
        <time>2012-08-06T14:26:58Z</time>
      </trkpt>
      <trkpt lat="45.55046" lon="3.10739">
        <ele>511</ele>
        <time>2012-08-06T14:27:34Z</time>
      </trkpt>
      <trkpt lat="45.55024" lon="3.10776">
        <ele>522</ele>
        <time>2012-08-06T14:28:13Z</time>
      </trkpt>
      <trkpt lat="45.54979" lon="3.10815">
        <ele>527</ele>
        <time>2012-08-06T14:29:00Z</time>
      </trkpt>
      <trkpt lat="45.54941" lon="3.10818">
        <ele>535</ele>
        <time>2012-08-06T14:29:38Z</time>
      </trkpt>
      <trkpt lat="45.5491" lon="3.10808">
        <ele>544</ele>
        <time>2012-08-06T14:30:07Z</time>
      </trkpt>
      <trkpt lat="45.54887" lon="3.10788">
        <ele>554</ele>
        <time>2012-08-06T14:30:35Z</time>
      </trkpt>
      <trkpt lat="45.54864" lon="3.10773">
        <ele>560</ele>
        <time>2012-08-06T14:31:06Z</time>
      </trkpt>
      <trkpt lat="45.54876" lon="3.10773">
        <ele>558</ele>
        <time>2012-08-06T14:31:32Z</time>
      </trkpt>
      <trkpt lat="45.54885" lon="3.1073">
        <ele>560</ele>
        <time>2012-08-06T14:31:52Z</time>
      </trkpt>
      <trkpt lat="45.54869" lon="3.10694">
        <ele>559</ele>
        <time>2012-08-06T14:32:13Z</time>
      </trkpt>
      <trkpt lat="45.54852" lon="3.10663">
        <ele>554</ele>
        <time>2012-08-06T14:32:33Z</time>
      </trkpt>
      <trkpt lat="45.5485" lon="3.10619">
        <ele>548</ele>
        <time>2012-08-06T14:32:54Z</time>
      </trkpt>
      <trkpt lat="45.54842" lon="3.10578">
        <ele>543</ele>
        <time>2012-08-06T14:33:18Z</time>
      </trkpt>
      <trkpt lat="45.54843" lon="3.10536">
        <ele>545</ele>
        <time>2012-08-06T14:33:40Z</time>
      </trkpt>
      <trkpt lat="45.54839" lon="3.10495">
        <ele>548</ele>
        <time>2012-08-06T14:34:00Z</time>
      </trkpt>
      <trkpt lat="45.54835" lon="3.10453">
        <ele>549</ele>
        <time>2012-08-06T14:34:19Z</time>
      </trkpt>
      <trkpt lat="45.54824" lon="3.10414">
        <ele>548</ele>
        <time>2012-08-06T14:34:37Z</time>
      </trkpt>
      <trkpt lat="45.54822" lon="3.10363">
        <ele>546</ele>
        <time>2012-08-06T14:35:07Z</time>
      </trkpt>
      <trkpt lat="45.54828" lon="3.10318">
        <ele>543</ele>
        <time>2012-08-06T14:35:19Z</time>
      </trkpt>
      <trkpt lat="45.54829" lon="3.10276">
        <ele>543</ele>
        <time>2012-08-06T14:35:42Z</time>
      </trkpt>
      <trkpt lat="45.54818" lon="3.10226">
        <ele>547</ele>
        <time>2012-08-06T14:36:08Z</time>
      </trkpt>
      <trkpt lat="45.5481" lon="3.10173">
        <ele>550</ele>
        <time>2012-08-06T14:36:36Z</time>
      </trkpt>
      <trkpt lat="45.54806" lon="3.10115">
        <ele>552</ele>
        <time>2012-08-06T14:37:05Z</time>
      </trkpt>
      <trkpt lat="45.54794" lon="3.10062">
        <ele>557</ele>
        <time>2012-08-06T14:37:34Z</time>
      </trkpt>
      <trkpt lat="45.54776" lon="3.10025">
        <ele>562</ele>
        <time>2012-08-06T14:37:58Z</time>
      </trkpt>
      <trkpt lat="45.54759" lon="3.09988">
        <ele>566</ele>
        <time>2012-08-06T14:38:20Z</time>
      </trkpt>
      <trkpt lat="45.54749" lon="3.09939">
        <ele>568</ele>
        <time>2012-08-06T14:38:45Z</time>
      </trkpt>
      <trkpt lat="45.54739" lon="3.09899">
        <ele>571</ele>
        <time>2012-08-06T14:39:10Z</time>
      </trkpt>
      <trkpt lat="45.54729" lon="3.09861">
        <ele>573</ele>
        <time>2012-08-06T14:39:35Z</time>
      </trkpt>
      <trkpt lat="45.54708" lon="3.09838">
        <ele>577</ele>
        <time>2012-08-06T14:40:54Z</time>
      </trkpt>
      <trkpt lat="45.54687" lon="3.09811">
        <ele>581</ele>
        <time>2012-08-06T14:41:23Z</time>
      </trkpt>
      <trkpt lat="45.54663" lon="3.0979">
        <ele>583</ele>
        <time>2012-08-06T14:41:45Z</time>
      </trkpt>
      <trkpt lat="45.54638" lon="3.09778">
        <ele>587</ele>
        <time>2012-08-06T14:42:07Z</time>
      </trkpt>
      <trkpt lat="45.54618" lon="3.09751">
        <ele>589</ele>
        <time>2012-08-06T14:42:30Z</time>
      </trkpt>
      <trkpt lat="45.54604" lon="3.0971">
        <ele>590</ele>
        <time>2012-08-06T14:42:55Z</time>
      </trkpt>
      <trkpt lat="45.54585" lon="3.09677">
        <ele>593</ele>
        <time>2012-08-06T14:43:18Z</time>
      </trkpt>
      <trkpt lat="45.54563" lon="3.09648">
        <ele>597</ele>
        <time>2012-08-06T14:43:43Z</time>
      </trkpt>
      <trkpt lat="45.54546" lon="3.0961">
        <ele>601</ele>
        <time>2012-08-06T14:44:08Z</time>
      </trkpt>
      <trkpt lat="45.5453" lon="3.09573">
        <ele>603</ele>
        <time>2012-08-06T14:44:33Z</time>
      </trkpt>
      <trkpt lat="45.54509" lon="3.09543">
        <ele>606</ele>
        <time>2012-08-06T14:44:59Z</time>
      </trkpt>
      <trkpt lat="45.54488" lon="3.09511">
        <ele>610</ele>
        <time>2012-08-06T14:45:15Z</time>
      </trkpt>
      <trkpt lat="45.54488" lon="3.09466">
        <ele>611</ele>
        <time>2012-08-06T14:45:26Z</time>
      </trkpt>
      <trkpt lat="45.54477" lon="3.09433">
        <ele>613</ele>
        <time>2012-08-06T14:45:51Z</time>
      </trkpt>
      <trkpt lat="45.54462" lon="3.09394">
        <ele>616</ele>
        <time>2012-08-06T14:46:16Z</time>
      </trkpt>
      <trkpt lat="45.54457" lon="3.09346">
        <ele>618</ele>
        <time>2012-08-06T14:46:44Z</time>
      </trkpt>
      <trkpt lat="45.54442" lon="3.09306">
        <ele>622</ele>
        <time>2012-08-06T14:47:12Z</time>
      </trkpt>
      <trkpt lat="45.5444" lon="3.09255">
        <ele>626</ele>
        <time>2012-08-06T14:47:39Z</time>
      </trkpt>
      <trkpt lat="45.54437" lon="3.092">
        <ele>629</ele>
        <time>2012-08-06T14:48:04Z</time>
      </trkpt>
      <trkpt lat="45.54431" lon="3.09158">
        <ele>633</ele>
        <time>2012-08-06T14:48:16Z</time>
      </trkpt>
      <trkpt lat="45.54426" lon="3.09111">
        <ele>636</ele>
        <time>2012-08-06T14:48:41Z</time>
      </trkpt>
      <trkpt lat="45.5441" lon="3.09097">
        <ele>639</ele>
        <time>2012-08-06T14:49:08Z</time>
      </trkpt>
      <trkpt lat="45.54385" lon="3.09078">
        <ele>644</ele>
        <time>2012-08-06T14:49:31Z</time>
      </trkpt>
      <trkpt lat="45.54367" lon="3.09046">
        <ele>648</ele>
        <time>2012-08-06T14:49:53Z</time>
      </trkpt>
      <trkpt lat="45.54347" lon="3.0902">
        <ele>651</ele>
        <time>2012-08-06T14:50:16Z</time>
      </trkpt>
      <trkpt lat="45.54319" lon="3.09012">
        <ele>656</ele>
        <time>2012-08-06T14:50:38Z</time>
      </trkpt>
      <trkpt lat="45.54289" lon="3.09007">
        <ele>661</ele>
        <time>2012-08-06T14:51:03Z</time>
      </trkpt>
      <trkpt lat="45.54257" lon="3.08991">
        <ele>666</ele>
        <time>2012-08-06T14:51:29Z</time>
      </trkpt>
      <trkpt lat="45.5423" lon="3.08948">
        <ele>669</ele>
        <time>2012-08-06T14:52:00Z</time>
      </trkpt>
      <trkpt lat="45.54216" lon="3.08891">
        <ele>670</ele>
        <time>2012-08-06T14:52:30Z</time>
      </trkpt>
      <trkpt lat="45.542" lon="3.0884">
        <ele>673</ele>
        <time>2012-08-06T14:53:02Z</time>
      </trkpt>
      <trkpt lat="45.54197" lon="3.08789">
        <ele>672</ele>
        <time>2012-08-06T14:53:23Z</time>
      </trkpt>
      <trkpt lat="45.54168" lon="3.0877">
        <ele>677</ele>
        <time>2012-08-06T14:53:33Z</time>
      </trkpt>
      <trkpt lat="45.54148" lon="3.08731">
        <ele>679</ele>
        <time>2012-08-06T14:53:57Z</time>
      </trkpt>
      <trkpt lat="45.54137" lon="3.08683">
        <ele>681</ele>
        <time>2012-08-06T14:54:24Z</time>
      </trkpt>
      <trkpt lat="45.54128" lon="3.08642">
        <ele>683</ele>
        <time>2012-08-06T14:54:47Z</time>
      </trkpt>
      <trkpt lat="45.54105" lon="3.08616">
        <ele>687</ele>
        <time>2012-08-06T14:55:09Z</time>
      </trkpt>
      <trkpt lat="45.54078" lon="3.08595">
        <ele>691</ele>
        <time>2012-08-06T14:55:33Z</time>
      </trkpt>
      <trkpt lat="45.54053" lon="3.08568">
        <ele>696</ele>
        <time>2012-08-06T14:55:57Z</time>
      </trkpt>
      <trkpt lat="45.54028" lon="3.08539">
        <ele>700</ele>
        <time>2012-08-06T14:56:24Z</time>
      </trkpt>
      <trkpt lat="45.54004" lon="3.08506">
        <ele>703</ele>
        <time>2012-08-06T14:56:33Z</time>
      </trkpt>
      <trkpt lat="45.53982" lon="3.08482">
        <ele>707</ele>
        <time>2012-08-06T15:00:32Z</time>
      </trkpt>
      <trkpt lat="45.53963" lon="3.08452">
        <ele>709</ele>
        <time>2012-08-06T15:00:57Z</time>
      </trkpt>
      <trkpt lat="45.53943" lon="3.08419">
        <ele>712</ele>
        <time>2012-08-06T15:01:31Z</time>
      </trkpt>
      <trkpt lat="45.53923" lon="3.08386">
        <ele>715</ele>
        <time>2012-08-06T15:01:54Z</time>
      </trkpt>
      <trkpt lat="45.53905" lon="3.08355">
        <ele>718</ele>
        <time>2012-08-06T15:02:19Z</time>
      </trkpt>
      <trkpt lat="45.53886" lon="3.08324">
        <ele>721</ele>
        <time>2012-08-06T15:02:41Z</time>
      </trkpt>
      <trkpt lat="45.53866" lon="3.08294">
        <ele>724</ele>
        <time>2012-08-06T15:03:03Z</time>
      </trkpt>
      <trkpt lat="45.53841" lon="3.08265">
        <ele>729</ele>
        <time>2012-08-06T15:03:25Z</time>
      </trkpt>
      <trkpt lat="45.53827" lon="3.08219">
        <ele>729</ele>
        <time>2012-08-06T15:03:38Z</time>
      </trkpt>
      <trkpt lat="45.53814" lon="3.08177">
        <ele>730</ele>
        <time>2012-08-06T15:03:48Z</time>
      </trkpt>
      <trkpt lat="45.53801" lon="3.0814">
        <ele>731</ele>
        <time>2012-08-06T15:03:58Z</time>
      </trkpt>
      <trkpt lat="45.53782" lon="3.08105">
        <ele>732</ele>
        <time>2012-08-06T15:04:08Z</time>
      </trkpt>
      <trkpt lat="45.53758" lon="3.08076">
        <ele>734</ele>
        <time>2012-08-06T15:04:17Z</time>
      </trkpt>
      <trkpt lat="45.53735" lon="3.08044">
        <ele>734</ele>
        <time>2012-08-06T15:04:26Z</time>
      </trkpt>
      <trkpt lat="45.53712" lon="3.0802">
        <ele>735</ele>
        <time>2012-08-06T15:04:36Z</time>
      </trkpt>
      <trkpt lat="45.53687" lon="3.08006">
        <ele>738</ele>
        <time>2012-08-06T15:04:56Z</time>
      </trkpt>
      <trkpt lat="45.53671" lon="3.08027">
        <ele>743</ele>
        <time>2012-08-06T15:05:17Z</time>
      </trkpt>
      <trkpt lat="45.53671" lon="3.08069">
        <ele>749</ele>
        <time>2012-08-06T15:05:28Z</time>
      </trkpt>
      <trkpt lat="45.53669" lon="3.08117">
        <ele>755</ele>
        <time>2012-08-06T15:05:40Z</time>
      </trkpt>
      <trkpt lat="45.53666" lon="3.08163">
        <ele>761</ele>
        <time>2012-08-06T15:05:53Z</time>
      </trkpt>
      <trkpt lat="45.53662" lon="3.08205">
        <ele>766</ele>
        <time>2012-08-06T15:06:05Z</time>
      </trkpt>
      <trkpt lat="45.53659" lon="3.0825">
        <ele>769</ele>
        <time>2012-08-06T15:06:17Z</time>
      </trkpt>
      <trkpt lat="45.53655" lon="3.08291">
        <ele>772</ele>
        <time>2012-08-06T15:06:26Z</time>
      </trkpt>
      <trkpt lat="45.5365" lon="3.08335">
        <ele>774</ele>
        <time>2012-08-06T15:06:36Z</time>
      </trkpt>
      <trkpt lat="45.53644" lon="3.08378">
        <ele>777</ele>
        <time>2012-08-06T15:06:47Z</time>
      </trkpt>
      <trkpt lat="45.53642" lon="3.08423">
        <ele>780</ele>
        <time>2012-08-06T15:06:58Z</time>
      </trkpt>
      <trkpt lat="45.53642" lon="3.08468">
        <ele>783</ele>
        <time>2012-08-06T15:07:08Z</time>
      </trkpt>
      <trkpt lat="45.53643" lon="3.08513">
        <ele>786</ele>
        <time>2012-08-06T15:07:18Z</time>
      </trkpt>
      <trkpt lat="45.53646" lon="3.08558">
        <ele>788</ele>
        <time>2012-08-06T15:07:28Z</time>
      </trkpt>
      <trkpt lat="45.53652" lon="3.08604">
        <ele>790</ele>
        <time>2012-08-06T15:07:38Z</time>
      </trkpt>
      <trkpt lat="45.53656" lon="3.08655">
        <ele>791</ele>
        <time>2012-08-06T15:07:44Z</time>
      </trkpt>
      <trkpt lat="45.53644" lon="3.087">
        <ele>795</ele>
        <time>2012-08-06T15:07:50Z</time>
      </trkpt>
      <trkpt lat="45.53641" lon="3.08747">
        <ele>795</ele>
        <time>2012-08-06T15:07:58Z</time>
      </trkpt>
      <trkpt lat="45.53638" lon="3.088">
        <ele>794</ele>
        <time>2012-08-06T15:08:03Z</time>
      </trkpt>
      <trkpt lat="45.53632" lon="3.08843">
        <ele>795</ele>
        <time>2012-08-06T15:08:08Z</time>
      </trkpt>
      <trkpt lat="45.53622" lon="3.08883">
        <ele>801</ele>
        <time>2012-08-06T15:08:15Z</time>
      </trkpt>
      <trkpt lat="45.53625" lon="3.08931">
        <ele>807</ele>
        <time>2012-08-06T15:08:25Z</time>
      </trkpt>
      <trkpt lat="45.53634" lon="3.0897">
        <ele>812</ele>
        <time>2012-08-06T15:08:35Z</time>
      </trkpt>
      <trkpt lat="45.53624" lon="3.0901">
        <ele>816</ele>
        <time>2012-08-06T15:08:46Z</time>
      </trkpt>
      <trkpt lat="45.53607" lon="3.09044">
        <ele>817</ele>
        <time>2012-08-06T15:08:56Z</time>
      </trkpt>
      <trkpt lat="45.53585" lon="3.09071">
        <ele>815</ele>
        <time>2012-08-06T15:09:03Z</time>
      </trkpt>
      <trkpt lat="45.53557" lon="3.09089">
        <ele>817</ele>
        <time>2012-08-06T15:09:09Z</time>
      </trkpt>
      <trkpt lat="45.53529" lon="3.09109">
        <ele>818</ele>
        <time>2012-08-06T15:09:15Z</time>
      </trkpt>
      <trkpt lat="45.53501" lon="3.09129">
        <ele>820</ele>
        <time>2012-08-06T15:09:21Z</time>
      </trkpt>
      <trkpt lat="45.53474" lon="3.09145">
        <ele>821</ele>
        <time>2012-08-06T15:09:27Z</time>
      </trkpt>
      <trkpt lat="45.5345" lon="3.09165">
        <ele>822</ele>
        <time>2012-08-06T15:09:33Z</time>
      </trkpt>
      <trkpt lat="45.53427" lon="3.09193">
        <ele>823</ele>
        <time>2012-08-06T15:09:39Z</time>
      </trkpt>
      <trkpt lat="45.53405" lon="3.09223">
        <ele>823</ele>
        <time>2012-08-06T15:09:45Z</time>
      </trkpt>
      <trkpt lat="45.53381" lon="3.09254">
        <ele>824</ele>
        <time>2012-08-06T15:09:51Z</time>
      </trkpt>
      <trkpt lat="45.53361" lon="3.09281">
        <ele>825</ele>
        <time>2012-08-06T15:09:56Z</time>
      </trkpt>
      <trkpt lat="45.53339" lon="3.09309">
        <ele>825</ele>
        <time>2012-08-06T15:10:02Z</time>
      </trkpt>
      <trkpt lat="45.53319" lon="3.09338">
        <ele>825</ele>
        <time>2012-08-06T15:10:08Z</time>
      </trkpt>
      <trkpt lat="45.53299" lon="3.09364">
        <ele>826</ele>
        <time>2012-08-06T15:10:14Z</time>
      </trkpt>
      <trkpt lat="45.53276" lon="3.09387">
        <ele>827</ele>
        <time>2012-08-06T15:10:20Z</time>
      </trkpt>
      <trkpt lat="45.53249" lon="3.0939">
        <ele>828</ele>
        <time>2012-08-06T15:10:30Z</time>
      </trkpt>
      <trkpt lat="45.5322" lon="3.09392">
        <ele>828</ele>
        <time>2012-08-06T15:10:46Z</time>
      </trkpt>
      <trkpt lat="45.53192" lon="3.09393">
        <ele>826</ele>
        <time>2012-08-06T15:11:06Z</time>
      </trkpt>
      <trkpt lat="45.53168" lon="3.09371">
        <ele>825</ele>
        <time>2012-08-06T15:11:25Z</time>
      </trkpt>
      <trkpt lat="45.53143" lon="3.09348">
        <ele>821</ele>
        <time>2012-08-06T15:11:45Z</time>
      </trkpt>
      <trkpt lat="45.53124" lon="3.09314">
        <ele>819</ele>
        <time>2012-08-06T15:12:07Z</time>
      </trkpt>
      <trkpt lat="45.53106" lon="3.09278">
        <ele>816</ele>
        <time>2012-08-06T15:12:28Z</time>
      </trkpt>
      <trkpt lat="45.53081" lon="3.09245">
        <ele>812</ele>
        <time>2012-08-06T15:12:52Z</time>
      </trkpt>
      <trkpt lat="45.53055" lon="3.09219">
        <ele>807</ele>
        <time>2012-08-06T15:13:15Z</time>
      </trkpt>
      <trkpt lat="45.53031" lon="3.09191">
        <ele>804</ele>
        <time>2012-08-06T15:13:37Z</time>
      </trkpt>
      <trkpt lat="45.5301" lon="3.09155">
        <ele>801</ele>
        <time>2012-08-06T15:14:02Z</time>
      </trkpt>
      <trkpt lat="45.52982" lon="3.09171">
        <ele>793</ele>
        <time>2012-08-06T15:14:25Z</time>
      </trkpt>
      <trkpt lat="45.52963" lon="3.09206">
        <ele>786</ele>
        <time>2012-08-06T15:14:46Z</time>
      </trkpt>
      <trkpt lat="45.52948" lon="3.09241">
        <ele>779</ele>
        <time>2012-08-06T15:15:05Z</time>
      </trkpt>
      <trkpt lat="45.52932" lon="3.09277">
        <ele>773</ele>
        <time>2012-08-06T15:15:25Z</time>
      </trkpt>
      <trkpt lat="45.52934" lon="3.09323">
        <ele>769</ele>
        <time>2012-08-06T15:15:49Z</time>
      </trkpt>
      <trkpt lat="45.52923" lon="3.0937">
        <ele>765</ele>
        <time>2012-08-06T15:16:15Z</time>
      </trkpt>
      <trkpt lat="45.52903" lon="3.09415">
        <ele>760</ele>
        <time>2012-08-06T15:16:41Z</time>
      </trkpt>
      <trkpt lat="45.52896" lon="3.09461">
        <ele>754</ele>
        <time>2012-08-06T15:17:03Z</time>
      </trkpt>
      <trkpt lat="45.52907" lon="3.09505">
        <ele>751</ele>
        <time>2012-08-06T15:17:26Z</time>
      </trkpt>
      <trkpt lat="45.52892" lon="3.0952">
        <ele>746</ele>
        <time>2012-08-06T15:17:55Z</time>
      </trkpt>
      <trkpt lat="45.52857" lon="3.09501">
        <ele>742</ele>
        <time>2012-08-06T15:18:19Z</time>
      </trkpt>
      <trkpt lat="45.52837" lon="3.0947">
        <ele>743</ele>
        <time>2012-08-06T15:18:44Z</time>
      </trkpt>
      <trkpt lat="45.52816" lon="3.09436">
        <ele>743</ele>
        <time>2012-08-06T15:19:09Z</time>
      </trkpt>
      <trkpt lat="45.52792" lon="3.09409">
        <ele>744</ele>
        <time>2012-08-06T15:19:33Z</time>
      </trkpt>
      <trkpt lat="45.52762" lon="3.09403">
        <ele>742</ele>
        <time>2012-08-06T15:19:54Z</time>
      </trkpt>
      <trkpt lat="45.5273" lon="3.09403">
        <ele>739</ele>
        <time>2012-08-06T15:20:19Z</time>
      </trkpt>
      <trkpt lat="45.527" lon="3.09402">
        <ele>737</ele>
        <time>2012-08-06T15:20:38Z</time>
      </trkpt>
      <trkpt lat="45.52671" lon="3.09399">
        <ele>736</ele>
        <time>2012-08-06T15:20:57Z</time>
      </trkpt>
      <trkpt lat="45.52642" lon="3.09398">
        <ele>733</ele>
        <time>2012-08-06T15:21:18Z</time>
      </trkpt>
      <trkpt lat="45.52614" lon="3.09394">
        <ele>731</ele>
        <time>2012-08-06T15:21:38Z</time>
      </trkpt>
      <trkpt lat="45.52587" lon="3.0938">
        <ele>730</ele>
        <time>2012-08-06T15:21:57Z</time>
      </trkpt>
      <trkpt lat="45.5256" lon="3.09365">
        <ele>729</ele>
        <time>2012-08-06T15:22:26Z</time>
      </trkpt>
      <trkpt lat="45.52534" lon="3.09345">
        <ele>728</ele>
        <time>2012-08-06T15:22:36Z</time>
      </trkpt>
      <trkpt lat="45.52505" lon="3.09329">
        <ele>726</ele>
        <time>2012-08-06T15:22:50Z</time>
      </trkpt>
      <trkpt lat="45.52478" lon="3.09305">
        <ele>724</ele>
        <time>2012-08-06T15:23:14Z</time>
      </trkpt>
      <trkpt lat="45.52458" lon="3.09272">
        <ele>724</ele>
        <time>2012-08-06T15:23:34Z</time>
      </trkpt>
      <trkpt lat="45.52439" lon="3.09237">
        <ele>724</ele>
        <time>2012-08-06T15:23:52Z</time>
      </trkpt>
      <trkpt lat="45.52423" lon="3.092">
        <ele>725</ele>
        <time>2012-08-06T15:24:11Z</time>
      </trkpt>
      <trkpt lat="45.52408" lon="3.09165">
        <ele>725</ele>
        <time>2012-08-06T15:24:31Z</time>
      </trkpt>
      <trkpt lat="45.52394" lon="3.09127">
        <ele>726</ele>
        <time>2012-08-06T15:24:52Z</time>
      </trkpt>
      <trkpt lat="45.52382" lon="3.09087">
        <ele>727</ele>
        <time>2012-08-06T15:25:12Z</time>
      </trkpt>
      <trkpt lat="45.5237" lon="3.09047">
        <ele>728</ele>
        <time>2012-08-06T15:25:28Z</time>
      </trkpt>
      <trkpt lat="45.52355" lon="3.0901">
        <ele>728</ele>
        <time>2012-08-06T15:25:39Z</time>
      </trkpt>
      <trkpt lat="45.52335" lon="3.08977">
        <ele>729</ele>
        <time>2012-08-06T15:25:50Z</time>
      </trkpt>
      <trkpt lat="45.52312" lon="3.08955">
        <ele>729</ele>
        <time>2012-08-06T15:25:59Z</time>
      </trkpt>
      <trkpt lat="45.52281" lon="3.08932">
        <ele>730</ele>
        <time>2012-08-06T15:26:09Z</time>
      </trkpt>
      <trkpt lat="45.5226" lon="3.08945">
        <ele>729</ele>
        <time>2012-08-06T15:26:20Z</time>
      </trkpt>
      <trkpt lat="45.52241" lon="3.08982">
        <ele>727</ele>
        <time>2012-08-06T15:26:30Z</time>
      </trkpt>
      <trkpt lat="45.52216" lon="3.08998">
        <ele>728</ele>
        <time>2012-08-06T15:26:50Z</time>
      </trkpt>
      <trkpt lat="45.52195" lon="3.08965">
        <ele>732</ele>
        <time>2012-08-06T15:27:16Z</time>
      </trkpt>
      <trkpt lat="45.52181" lon="3.08976">
        <ele>733</ele>
        <time>2012-08-06T15:27:41Z</time>
      </trkpt>
      <trkpt lat="45.52179" lon="3.09009">
        <ele>731</ele>
        <time>2012-08-06T15:28:07Z</time>
      </trkpt>
      <trkpt lat="45.52186" lon="3.09051">
        <ele>728</ele>
        <time>2012-08-06T15:28:31Z</time>
      </trkpt>
      <trkpt lat="45.52192" lon="3.09092">
        <ele>724</ele>
        <time>2012-08-06T15:28:58Z</time>
      </trkpt>
      <trkpt lat="45.52193" lon="3.09138">
        <ele>720</ele>
        <time>2012-08-06T15:29:25Z</time>
      </trkpt>
      <trkpt lat="45.52199" lon="3.09182">
        <ele>715</ele>
        <time>2012-08-06T15:29:50Z</time>
      </trkpt>
      <trkpt lat="45.52216" lon="3.09217">
        <ele>711</ele>
        <time>2012-08-06T15:30:15Z</time>
      </trkpt>
      <trkpt lat="45.52192" lon="3.09245">
        <ele>711</ele>
        <time>2012-08-06T15:30:44Z</time>
      </trkpt>
      <trkpt lat="45.52177" lon="3.09282">
        <ele>711</ele>
        <time>2012-08-06T15:31:07Z</time>
      </trkpt>
      <trkpt lat="45.52186" lon="3.09323">
        <ele>710</ele>
        <time>2012-08-06T15:31:28Z</time>
      </trkpt>
      <trkpt lat="45.52199" lon="3.09362">
        <ele>710</ele>
        <time>2012-08-06T15:31:51Z</time>
      </trkpt>
      <trkpt lat="45.52198" lon="3.09402">
        <ele>713</ele>
        <time>2012-08-06T15:32:10Z</time>
      </trkpt>
      <trkpt lat="45.52206" lon="3.0944">
        <ele>715</ele>
        <time>2012-08-06T15:32:30Z</time>
      </trkpt>
      <trkpt lat="45.52222" lon="3.09474">
        <ele>715</ele>
        <time>2012-08-06T15:32:54Z</time>
      </trkpt>
      <trkpt lat="45.5223" lon="3.0951">
        <ele>717</ele>
        <time>2012-08-06T15:33:16Z</time>
      </trkpt>
      <trkpt lat="45.52232" lon="3.09548">
        <ele>716</ele>
        <time>2012-08-06T15:33:37Z</time>
      </trkpt>
      <trkpt lat="45.52231" lon="3.09587">
        <ele>716</ele>
        <time>2012-08-06T15:33:57Z</time>
      </trkpt>
      <trkpt lat="45.52228" lon="3.09626">
        <ele>716</ele>
        <time>2012-08-06T15:34:15Z</time>
      </trkpt>
      <trkpt lat="45.52225" lon="3.09665">
        <ele>717</ele>
        <time>2012-08-06T15:34:32Z</time>
      </trkpt>
      <trkpt lat="45.52225" lon="3.09705">
        <ele>719</ele>
        <time>2012-08-06T15:34:50Z</time>
      </trkpt>
      <trkpt lat="45.52228" lon="3.09742">
        <ele>720</ele>
        <time>2012-08-06T15:35:09Z</time>
      </trkpt>
      <trkpt lat="45.52238" lon="3.09779">
        <ele>721</ele>
        <time>2012-08-06T15:35:30Z</time>
      </trkpt>
      <trkpt lat="45.52243" lon="3.09817">
        <ele>723</ele>
        <time>2012-08-06T15:35:50Z</time>
      </trkpt>
      <trkpt lat="45.52242" lon="3.09856">
        <ele>726</ele>
        <time>2012-08-06T15:36:11Z</time>
      </trkpt>
      <trkpt lat="45.52242" lon="3.09894">
        <ele>729</ele>
        <time>2012-08-06T15:36:31Z</time>
      </trkpt>
      <trkpt lat="45.52241" lon="3.09932">
        <ele>732</ele>
        <time>2012-08-06T15:36:53Z</time>
      </trkpt>
      <trkpt lat="45.5224" lon="3.0997">
        <ele>736</ele>
        <time>2012-08-06T15:37:17Z</time>
      </trkpt>
      <trkpt lat="45.52238" lon="3.10009">
        <ele>739</ele>
        <time>2012-08-06T15:37:43Z</time>
      </trkpt>
      <trkpt lat="45.52237" lon="3.10048">
        <ele>742</ele>
        <time>2012-08-06T15:38:05Z</time>
      </trkpt>
      <trkpt lat="45.52239" lon="3.10086">
        <ele>744</ele>
        <time>2012-08-06T15:38:26Z</time>
      </trkpt>
      <trkpt lat="45.52238" lon="3.10126">
        <ele>746</ele>
        <time>2012-08-06T15:38:48Z</time>
      </trkpt>
      <trkpt lat="45.5224" lon="3.10165">
        <ele>748</ele>
        <time>2012-08-06T15:39:04Z</time>
      </trkpt>
      <trkpt lat="45.52247" lon="3.10203">
        <ele>748</ele>
        <time>2012-08-06T15:39:16Z</time>
      </trkpt>
      <trkpt lat="45.52259" lon="3.10245">
        <ele>747</ele>
        <time>2012-08-06T15:39:26Z</time>
      </trkpt>
      <trkpt lat="45.52266" lon="3.10286">
        <ele>747</ele>
        <time>2012-08-06T15:39:35Z</time>
      </trkpt>
      <trkpt lat="45.52263" lon="3.10327">
        <ele>748</ele>
        <time>2012-08-06T15:39:44Z</time>
      </trkpt>
      <trkpt lat="45.52266" lon="3.10368">
        <ele>748</ele>
        <time>2012-08-06T15:39:53Z</time>
      </trkpt>
      <trkpt lat="45.52273" lon="3.10409">
        <ele>748</ele>
        <time>2012-08-06T15:40:02Z</time>
      </trkpt>
      <trkpt lat="45.52278" lon="3.10455">
        <ele>750</ele>
        <time>2012-08-06T15:40:11Z</time>
      </trkpt>
      <trkpt lat="45.52271" lon="3.10497">
        <ele>753</ele>
        <time>2012-08-06T15:40:17Z</time>
      </trkpt>
      <trkpt lat="45.52268" lon="3.10537">
        <ele>755</ele>
        <time>2012-08-06T15:40:23Z</time>
      </trkpt>
      <trkpt lat="45.52269" lon="3.10582">
        <ele>756</ele>
        <time>2012-08-06T15:40:31Z</time>
      </trkpt>
      <trkpt lat="45.52268" lon="3.10627">
        <ele>757</ele>
        <time>2012-08-06T15:40:37Z</time>
      </trkpt>
      <trkpt lat="45.52266" lon="3.10669">
        <ele>758</ele>
        <time>2012-08-06T15:40:42Z</time>
      </trkpt>
      <trkpt lat="45.52264" lon="3.10709">
        <ele>760</ele>
        <time>2012-08-06T15:40:49Z</time>
      </trkpt>
      <trkpt lat="45.52258" lon="3.10749">
        <ele>763</ele>
        <time>2012-08-06T15:41:10Z</time>
      </trkpt>
      <trkpt lat="45.52263" lon="3.1079">
        <ele>766</ele>
        <time>2012-08-06T15:41:31Z</time>
      </trkpt>
      <trkpt lat="45.52269" lon="3.10827">
        <ele>769</ele>
        <time>2012-08-06T15:41:51Z</time>
      </trkpt>
      <trkpt lat="45.52276" lon="3.10867">
        <ele>772</ele>
        <time>2012-08-06T15:42:12Z</time>
      </trkpt>
      <trkpt lat="45.5228" lon="3.10906">
        <ele>777</ele>
        <time>2012-08-06T15:42:33Z</time>
      </trkpt>
      <trkpt lat="45.52297" lon="3.10936">
        <ele>780</ele>
        <time>2012-08-06T15:42:54Z</time>
      </trkpt>
      <trkpt lat="45.52323" lon="3.10953">
        <ele>781</ele>
        <time>2012-08-06T15:43:16Z</time>
      </trkpt>
      <trkpt lat="45.52342" lon="3.1098">
        <ele>784</ele>
        <time>2012-08-06T15:43:37Z</time>
      </trkpt>
      <trkpt lat="45.52335" lon="3.11017">
        <ele>787</ele>
        <time>2012-08-06T15:44:00Z</time>
      </trkpt>
      <trkpt lat="45.52331" lon="3.11055">
        <ele>790</ele>
        <time>2012-08-06T15:44:21Z</time>
      </trkpt>
      <trkpt lat="45.52338" lon="3.11092">
        <ele>791</ele>
        <time>2012-08-06T15:44:40Z</time>
      </trkpt>
      <trkpt lat="45.52343" lon="3.11131">
        <ele>791</ele>
        <time>2012-08-06T15:44:51Z</time>
      </trkpt>
      <trkpt lat="45.52344" lon="3.11168">
        <ele>791</ele>
        <time>2012-08-06T15:45:01Z</time>
      </trkpt>
      <trkpt lat="45.52344" lon="3.11208">
        <ele>791</ele>
        <time>2012-08-06T15:45:10Z</time>
      </trkpt>
      <trkpt lat="45.52339" lon="3.11248">
        <ele>791</ele>
        <time>2012-08-06T15:45:20Z</time>
      </trkpt>
      <trkpt lat="45.52323" lon="3.11283">
        <ele>791</ele>
        <time>2012-08-06T15:45:29Z</time>
      </trkpt>
      <trkpt lat="45.52304" lon="3.11314">
        <ele>791</ele>
        <time>2012-08-06T15:45:38Z</time>
      </trkpt>
      <trkpt lat="45.52285" lon="3.11346">
        <ele>790</ele>
        <time>2012-08-06T15:45:47Z</time>
      </trkpt>
      <trkpt lat="45.52267" lon="3.11382">
        <ele>790</ele>
        <time>2012-08-06T15:45:57Z</time>
      </trkpt>
      <trkpt lat="45.5226" lon="3.11423">
        <ele>789</ele>
        <time>2012-08-06T15:46:07Z</time>
      </trkpt>
      <trkpt lat="45.52273" lon="3.1146">
        <ele>788</ele>
        <time>2012-08-06T15:46:16Z</time>
      </trkpt>
      <trkpt lat="45.52289" lon="3.11492">
        <ele>787</ele>
        <time>2012-08-06T15:46:25Z</time>
      </trkpt>
      <trkpt lat="45.52307" lon="3.11528">
        <ele>786</ele>
        <time>2012-08-06T15:46:34Z</time>
      </trkpt>
      <trkpt lat="45.52322" lon="3.11561">
        <ele>784</ele>
        <time>2012-08-06T15:46:42Z</time>
      </trkpt>
      <trkpt lat="45.52339" lon="3.11597">
        <ele>782</ele>
        <time>2012-08-06T15:46:51Z</time>
      </trkpt>
      <trkpt lat="45.52354" lon="3.1163">
        <ele>780</ele>
        <time>2012-08-06T15:47:03Z</time>
      </trkpt>
      <trkpt lat="45.52368" lon="3.11662">
        <ele>779</ele>
        <time>2012-08-06T15:47:22Z</time>
      </trkpt>
      <trkpt lat="45.52379" lon="3.11699">
        <ele>778</ele>
        <time>2012-08-06T15:47:41Z</time>
      </trkpt>
      <trkpt lat="45.52386" lon="3.11735">
        <ele>778</ele>
        <time>2012-08-06T15:48:00Z</time>
      </trkpt>
      <trkpt lat="45.52396" lon="3.11771">
        <ele>776</ele>
        <time>2012-08-06T15:48:20Z</time>
      </trkpt>
      <trkpt lat="45.52405" lon="3.11808">
        <ele>775</ele>
        <time>2012-08-06T15:48:41Z</time>
      </trkpt>
      <trkpt lat="45.52414" lon="3.11845">
        <ele>774</ele>
        <time>2012-08-06T15:49:01Z</time>
      </trkpt>
      <trkpt lat="45.52421" lon="3.11882">
        <ele>773</ele>
        <time>2012-08-06T15:49:21Z</time>
      </trkpt>
      <trkpt lat="45.52426" lon="3.11919">
        <ele>771</ele>
        <time>2012-08-06T15:49:44Z</time>
      </trkpt>
      <trkpt lat="45.52428" lon="3.11957">
        <ele>769</ele>
        <time>2012-08-06T15:50:04Z</time>
      </trkpt>
      <trkpt lat="45.52433" lon="3.11996">
        <ele>767</ele>
        <time>2012-08-06T15:50:25Z</time>
      </trkpt>
      <trkpt lat="45.52446" lon="3.12028">
        <ele>765</ele>
        <time>2012-08-06T15:50:48Z</time>
      </trkpt>
      <trkpt lat="45.52471" lon="3.12044">
        <ele>766</ele>
        <time>2012-08-06T15:51:10Z</time>
      </trkpt>
      <trkpt lat="45.52481" lon="3.12082">
        <ele>765</ele>
        <time>2012-08-06T15:51:30Z</time>
      </trkpt>
      <trkpt lat="45.52486" lon="3.12122">
        <ele>764</ele>
        <time>2012-08-06T15:51:51Z</time>
      </trkpt>
      <trkpt lat="45.52487" lon="3.12164">
        <ele>763</ele>
        <time>2012-08-06T15:52:12Z</time>
      </trkpt>
      <trkpt lat="45.52484" lon="3.12203">
        <ele>762</ele>
        <time>2012-08-06T15:52:32Z</time>
      </trkpt>
      <trkpt lat="45.52482" lon="3.12243">
        <ele>761</ele>
        <time>2012-08-06T15:52:53Z</time>
      </trkpt>
      <trkpt lat="45.52481" lon="3.12283">
        <ele>760</ele>
        <time>2012-08-06T15:53:13Z</time>
      </trkpt>
      <trkpt lat="45.5248" lon="3.12321">
        <ele>758</ele>
        <time>2012-08-06T15:53:33Z</time>
      </trkpt>
      <trkpt lat="45.5248" lon="3.12362">
        <ele>751</ele>
        <time>2012-08-06T15:53:55Z</time>
      </trkpt>
      <trkpt lat="45.52495" lon="3.12394">
        <ele>748</ele>
        <time>2012-08-06T15:54:16Z</time>
      </trkpt>
      <trkpt lat="45.52514" lon="3.12423">
        <ele>746</ele>
        <time>2012-08-06T15:54:39Z</time>
      </trkpt>
      <trkpt lat="45.52532" lon="3.12462">
        <ele>741</ele>
        <time>2012-08-06T15:55:04Z</time>
      </trkpt>
      <trkpt lat="45.52553" lon="3.12491">
        <ele>740</ele>
        <time>2012-08-06T15:55:27Z</time>
      </trkpt>
      <trkpt lat="45.52577" lon="3.12523">
        <ele>737</ele>
        <time>2012-08-06T15:55:51Z</time>
      </trkpt>
      <trkpt lat="45.52593" lon="3.12561">
        <ele>732</ele>
        <time>2012-08-06T15:56:12Z</time>
      </trkpt>
      <trkpt lat="45.52608" lon="3.12599">
        <ele>728</ele>
        <time>2012-08-06T15:56:34Z</time>
      </trkpt>
      <trkpt lat="45.5263" lon="3.12631">
        <ele>727</ele>
        <time>2012-08-06T15:56:56Z</time>
      </trkpt>
      <trkpt lat="45.5265" lon="3.12662">
        <ele>725</ele>
        <time>2012-08-06T15:57:18Z</time>
      </trkpt>
      <trkpt lat="45.52671" lon="3.12694">
        <ele>724</ele>
        <time>2012-08-06T15:57:40Z</time>
      </trkpt>
      <trkpt lat="45.52693" lon="3.12723">
        <ele>724</ele>
        <time>2012-08-06T15:58:01Z</time>
      </trkpt>
      <trkpt lat="45.52712" lon="3.12755">
        <ele>724</ele>
        <time>2012-08-06T15:58:23Z</time>
      </trkpt>
      <trkpt lat="45.52704" lon="3.12791">
        <ele>716</ele>
        <time>2012-08-06T15:58:45Z</time>
      </trkpt>
      <trkpt lat="45.52699" lon="3.12828">
        <ele>708</ele>
        <time>2012-08-06T15:59:08Z</time>
      </trkpt>
      <trkpt lat="45.52716" lon="3.12863">
        <ele>706</ele>
        <time>2012-08-06T15:59:31Z</time>
      </trkpt>
      <trkpt lat="45.52734" lon="3.12898">
        <ele>705</ele>
        <time>2012-08-06T15:59:56Z</time>
      </trkpt>
      <trkpt lat="45.52721" lon="3.1291">
        <ele>700</ele>
        <time>2012-08-06T16:00:32Z</time>
      </trkpt>
      <trkpt lat="45.52689" lon="3.1291">
        <ele>693</ele>
        <time>2012-08-06T16:00:59Z</time>
      </trkpt>
      <trkpt lat="45.52665" lon="3.12904">
        <ele>690</ele>
        <time>2012-08-06T16:01:29Z</time>
      </trkpt>
      <trkpt lat="45.52685" lon="3.12932">
        <ele>690</ele>
        <time>2012-08-06T16:02:09Z</time>
      </trkpt>
      <trkpt lat="45.52677" lon="3.12969">
        <ele>683</ele>
        <time>2012-08-06T16:02:40Z</time>
      </trkpt>
      <trkpt lat="45.52696" lon="3.12991">
        <ele>684</ele>
        <time>2012-08-06T16:04:09Z</time>
      </trkpt>
      <trkpt lat="45.52672" lon="3.13">
        <ele>679</ele>
        <time>2012-08-06T16:04:48Z</time>
      </trkpt>
      <trkpt lat="45.52646" lon="3.13016">
        <ele>674</ele>
        <time>2012-08-06T16:05:15Z</time>
      </trkpt>
      <trkpt lat="45.52619" lon="3.13009">
        <ele>671</ele>
        <time>2012-08-06T16:05:38Z</time>
      </trkpt>
      <trkpt lat="45.52594" lon="3.1299">
        <ele>671</ele>
        <time>2012-08-06T16:06:01Z</time>
      </trkpt>
      <trkpt lat="45.52566" lon="3.12983">
        <ele>668</ele>
        <time>2012-08-06T16:06:27Z</time>
      </trkpt>
      <trkpt lat="45.52539" lon="3.12975">
        <ele>667</ele>
        <time>2012-08-06T16:06:50Z</time>
      </trkpt>
      <trkpt lat="45.52515" lon="3.12955">
        <ele>666</ele>
        <time>2012-08-06T16:07:17Z</time>
      </trkpt>
      <trkpt lat="45.52494" lon="3.12985">
        <ele>663</ele>
        <time>2012-08-06T16:08:02Z</time>
      </trkpt>
      <trkpt lat="45.52512" lon="3.13024">
        <ele>661</ele>
        <time>2012-08-06T16:08:29Z</time>
      </trkpt>
      <trkpt lat="45.52498" lon="3.13066">
        <ele>657</ele>
        <time>2012-08-06T16:08:56Z</time>
      </trkpt>
      <trkpt lat="45.5247" lon="3.13094">
        <ele>656</ele>
        <time>2012-08-06T16:09:13Z</time>
      </trkpt>
      <trkpt lat="45.52441" lon="3.13111">
        <ele>657</ele>
        <time>2012-08-06T16:09:21Z</time>
      </trkpt>
      <trkpt lat="45.52414" lon="3.13127">
        <ele>660</ele>
        <time>2012-08-06T16:09:27Z</time>
      </trkpt>
      <trkpt lat="45.52398" lon="3.1316">
        <ele>661</ele>
        <time>2012-08-06T16:09:32Z</time>
      </trkpt>
      <trkpt lat="45.52384" lon="3.132">
        <ele>663</ele>
        <time>2012-08-06T16:09:38Z</time>
      </trkpt>
      <trkpt lat="45.52373" lon="3.13237">
        <ele>665</ele>
        <time>2012-08-06T16:09:44Z</time>
      </trkpt>
      <trkpt lat="45.52341" lon="3.13251">
        <ele>669</ele>
        <time>2012-08-06T16:09:50Z</time>
      </trkpt>
      <trkpt lat="45.5231" lon="3.13262">
        <ele>674</ele>
        <time>2012-08-06T16:09:56Z</time>
      </trkpt>
      <trkpt lat="45.52282" lon="3.13273">
        <ele>679</ele>
        <time>2012-08-06T16:10:02Z</time>
      </trkpt>
      <trkpt lat="45.52254" lon="3.13279">
        <ele>683</ele>
        <time>2012-08-06T16:10:08Z</time>
      </trkpt>
      <trkpt lat="45.52223" lon="3.13281">
        <ele>687</ele>
        <time>2012-08-06T16:10:14Z</time>
      </trkpt>
      <trkpt lat="45.52191" lon="3.13291">
        <ele>691</ele>
        <time>2012-08-06T16:10:20Z</time>
      </trkpt>
      <trkpt lat="45.52164" lon="3.1331">
        <ele>693</ele>
        <time>2012-08-06T16:10:26Z</time>
      </trkpt>
      <trkpt lat="45.5214" lon="3.13346">
        <ele>694</ele>
        <time>2012-08-06T16:10:33Z</time>
      </trkpt>
      <trkpt lat="45.5211" lon="3.13362">
        <ele>697</ele>
        <time>2012-08-06T16:10:38Z</time>
      </trkpt>
      <trkpt lat="45.52081" lon="3.13371">
        <ele>698</ele>
        <time>2012-08-06T16:10:43Z</time>
      </trkpt>
      <trkpt lat="45.52049" lon="3.13377">
        <ele>700</ele>
        <time>2012-08-06T16:10:49Z</time>
      </trkpt>
      <trkpt lat="45.52018" lon="3.13373">
        <ele>702</ele>
        <time>2012-08-06T16:10:55Z</time>
      </trkpt>
      <trkpt lat="45.51983" lon="3.13375">
        <ele>703</ele>
        <time>2012-08-06T16:11:01Z</time>
      </trkpt>
      <trkpt lat="45.51955" lon="3.13392">
        <ele>703</ele>
        <time>2012-08-06T16:11:07Z</time>
      </trkpt>
      <trkpt lat="45.51927" lon="3.13423">
        <ele>702</ele>
        <time>2012-08-06T16:11:13Z</time>
      </trkpt>
      <trkpt lat="45.51901" lon="3.13449">
        <ele>702</ele>
        <time>2012-08-06T16:11:18Z</time>
      </trkpt>
      <trkpt lat="45.51872" lon="3.13468">
        <ele>702</ele>
        <time>2012-08-06T16:11:24Z</time>
      </trkpt>
      <trkpt lat="45.51842" lon="3.13483">
        <ele>703</ele>
        <time>2012-08-06T16:11:39Z</time>
      </trkpt>
      <trkpt lat="45.51813" lon="3.13496">
        <ele>703</ele>
        <time>2012-08-06T16:11:57Z</time>
      </trkpt>
      <trkpt lat="45.51784" lon="3.13502">
        <ele>703</ele>
        <time>2012-08-06T16:12:25Z</time>
      </trkpt>
      <trkpt lat="45.51756" lon="3.13506">
        <ele>704</ele>
        <time>2012-08-06T16:12:43Z</time>
      </trkpt>
      <trkpt lat="45.51743" lon="3.13539">
        <ele>701</ele>
        <time>2012-08-06T16:13:02Z</time>
      </trkpt>
      <trkpt lat="45.51735" lon="3.13579">
        <ele>699</ele>
        <time>2012-08-06T16:13:22Z</time>
      </trkpt>
      <trkpt lat="45.51727" lon="3.13621">
        <ele>696</ele>
        <time>2012-08-06T16:13:43Z</time>
      </trkpt>
      <trkpt lat="45.51725" lon="3.13661">
        <ele>693</ele>
        <time>2012-08-06T16:14:00Z</time>
      </trkpt>
      <trkpt lat="45.51721" lon="3.13701">
        <ele>689</ele>
        <time>2012-08-06T16:14:18Z</time>
      </trkpt>
      <trkpt lat="45.51715" lon="3.13742">
        <ele>686</ele>
        <time>2012-08-06T16:14:44Z</time>
      </trkpt>
      <trkpt lat="45.5171" lon="3.13783">
        <ele>683</ele>
        <time>2012-08-06T16:15:03Z</time>
      </trkpt>
      <trkpt lat="45.51695" lon="3.13817">
        <ele>681</ele>
        <time>2012-08-06T16:15:21Z</time>
      </trkpt>
      <trkpt lat="45.51675" lon="3.1385">
        <ele>678</ele>
        <time>2012-08-06T16:15:40Z</time>
      </trkpt>
      <trkpt lat="45.51665" lon="3.13889">
        <ele>675</ele>
        <time>2012-08-06T16:16:00Z</time>
      </trkpt>
      <trkpt lat="45.51654" lon="3.13926">
        <ele>671</ele>
        <time>2012-08-06T16:16:19Z</time>
      </trkpt>
      <trkpt lat="45.51647" lon="3.13966">
        <ele>667</ele>
        <time>2012-08-06T16:16:38Z</time>
      </trkpt>
      <trkpt lat="45.51641" lon="3.14006">
        <ele>664</ele>
        <time>2012-08-06T16:16:57Z</time>
      </trkpt>
      <trkpt lat="45.51633" lon="3.14043">
        <ele>661</ele>
        <time>2012-08-06T16:17:15Z</time>
      </trkpt>
      <trkpt lat="45.51629" lon="3.14085">
        <ele>659</ele>
        <time>2012-08-06T16:17:34Z</time>
      </trkpt>
      <trkpt lat="45.51603" lon="3.14105">
        <ele>659</ele>
        <time>2012-08-06T16:17:47Z</time>
      </trkpt>
      <trkpt lat="45.51577" lon="3.14135">
        <ele>660</ele>
        <time>2012-08-06T16:17:59Z</time>
      </trkpt>
      <trkpt lat="45.51553" lon="3.14163">
        <ele>661</ele>
        <time>2012-08-06T16:18:10Z</time>
      </trkpt>
      <trkpt lat="45.51525" lon="3.14178">
        <ele>662</ele>
        <time>2012-08-06T16:18:23Z</time>
      </trkpt>
      <trkpt lat="45.51496" lon="3.14193">
        <ele>664</ele>
        <time>2012-08-06T16:18:37Z</time>
      </trkpt>
      <trkpt lat="45.51461" lon="3.14192">
        <ele>665</ele>
        <time>2012-08-06T16:19:03Z</time>
      </trkpt>
      <trkpt lat="45.51432" lon="3.14192">
        <ele>665</ele>
        <time>2012-08-06T16:19:26Z</time>
      </trkpt>
      <trkpt lat="45.51404" lon="3.14174">
        <ele>665</ele>
        <time>2012-08-06T16:19:47Z</time>
      </trkpt>
      <trkpt lat="45.51381" lon="3.14151">
        <ele>666</ele>
        <time>2012-08-06T16:20:07Z</time>
      </trkpt>
      <trkpt lat="45.51356" lon="3.14126">
        <ele>667</ele>
        <time>2012-08-06T16:20:28Z</time>
      </trkpt>
      <trkpt lat="45.51326" lon="3.14115">
        <ele>668</ele>
        <time>2012-08-06T16:20:51Z</time>
      </trkpt>
      <trkpt lat="45.51297" lon="3.14112">
        <ele>669</ele>
        <time>2012-08-06T16:21:12Z</time>
      </trkpt>
      <trkpt lat="45.51272" lon="3.14101">
        <ele>670</ele>
        <time>2012-08-06T16:21:32Z</time>
      </trkpt>
      <trkpt lat="45.51244" lon="3.1409">
        <ele>671</ele>
        <time>2012-08-06T16:21:52Z</time>
      </trkpt>
      <trkpt lat="45.51216" lon="3.14081">
        <ele>672</ele>
        <time>2012-08-06T16:22:13Z</time>
      </trkpt>
      <trkpt lat="45.51185" lon="3.1408">
        <ele>673</ele>
        <time>2012-08-06T16:22:35Z</time>
      </trkpt>
      <trkpt lat="45.51161" lon="3.14062">
        <ele>674</ele>
        <time>2012-08-06T16:22:56Z</time>
      </trkpt>
      <trkpt lat="45.51153" lon="3.14023">
        <ele>674</ele>
        <time>2012-08-06T16:23:16Z</time>
      </trkpt>
      <trkpt lat="45.51132" lon="3.13994">
        <ele>675</ele>
        <time>2012-08-06T16:23:36Z</time>
      </trkpt>
      <trkpt lat="45.51106" lon="3.14014">
        <ele>676</ele>
        <time>2012-08-06T16:23:56Z</time>
      </trkpt>
      <trkpt lat="45.51081" lon="3.14033">
        <ele>677</ele>
        <time>2012-08-06T16:24:16Z</time>
      </trkpt>
      <trkpt lat="45.51055" lon="3.14049">
        <ele>678</ele>
        <time>2012-08-06T16:24:37Z</time>
      </trkpt>
      <trkpt lat="45.51029" lon="3.14061">
        <ele>680</ele>
        <time>2012-08-06T16:24:58Z</time>
      </trkpt>
      <trkpt lat="45.51002" lon="3.14068">
        <ele>682</ele>
        <time>2012-08-06T16:25:19Z</time>
      </trkpt>
      <trkpt lat="45.50977" lon="3.14089">
        <ele>685</ele>
        <time>2012-08-06T16:25:42Z</time>
      </trkpt>
      <trkpt lat="45.50952" lon="3.14114">
        <ele>688</ele>
        <time>2012-08-06T16:26:08Z</time>
      </trkpt>
      <trkpt lat="45.50924" lon="3.14132">
        <ele>692</ele>
        <time>2012-08-06T16:26:24Z</time>
      </trkpt>
      <trkpt lat="45.50897" lon="3.14147">
        <ele>696</ele>
        <time>2012-08-06T16:26:49Z</time>
      </trkpt>
      <trkpt lat="45.50876" lon="3.14176">
        <ele>699</ele>
        <time>2012-08-06T16:27:16Z</time>
      </trkpt>
      <trkpt lat="45.50855" lon="3.14211">
        <ele>703</ele>
        <time>2012-08-06T16:27:43Z</time>
      </trkpt>
      <trkpt lat="45.5086" lon="3.14255">
        <ele>704</ele>
        <time>2012-08-06T16:28:06Z</time>
      </trkpt>
      <trkpt lat="45.50868" lon="3.14295">
        <ele>703</ele>
        <time>2012-08-06T16:28:28Z</time>
      </trkpt>
      <trkpt lat="45.50871" lon="3.14334">
        <ele>703</ele>
        <time>2012-08-06T16:29:28Z</time>
      </trkpt>
      <trkpt lat="45.50864" lon="3.14373">
        <ele>704</ele>
        <time>2012-08-06T16:29:52Z</time>
      </trkpt>
      <trkpt lat="45.50848" lon="3.14407">
        <ele>705</ele>
        <time>2012-08-06T16:30:21Z</time>
      </trkpt>
      <trkpt lat="45.50828" lon="3.14436">
        <ele>707</ele>
        <time>2012-08-06T16:30:50Z</time>
      </trkpt>
      <trkpt lat="45.50812" lon="3.14433">
        <ele>709</ele>
        <time>2012-08-06T16:32:43Z</time>
      </trkpt>
      <trkpt lat="45.50795" lon="3.14452">
        <ele>710</ele>
        <time>2012-08-06T16:33:38Z</time>
      </trkpt>
      <trkpt lat="45.50781" lon="3.14459">
        <ele>712</ele>
        <time>2012-08-06T16:37:23Z</time>
      </trkpt>
      <trkpt lat="45.50796" lon="3.14455">
        <ele>710</ele>
        <time>2012-08-06T16:40:25Z</time>
      </trkpt>
      <trkpt lat="45.50797" lon="3.14488">
        <ele>709</ele>
        <time>2012-08-06T16:40:55Z</time>
      </trkpt>
      <trkpt lat="45.50785" lon="3.14523">
        <ele>707</ele>
        <time>2012-08-06T16:41:18Z</time>
      </trkpt>
    </trkseg>
  </trk>
</gpx>